<?xml version="1.0" encoding="UTF-8" standalone="no" ?>
<gpx xmlns="http://www.topografix.com/GPX/1/1" xmlns:xsi="http://www.w3.org/2001/XMLSchema-instance" xsi:schemaLocation="http://www.topografix.com/GPX/1/1 http://www.topografix.com/GPX/1/1/gpx.xsd" version="1.1" creator="VisuGPX - https://www.visugpx.com">
  <metadata>
    <name>BRM 300 Part 2</name>
    <desc><![CDATA[BRM 300 partie 2 marseiile en beauvaisie, gisors, giverny, rouen]]></desc>
  </metadata>
  <trk>
    <name><![CDATA[8241659-BRM 300 RAC 2018 2eme partie]]></name>
    <trkseg>
      <trkpt lat="49.57424" lon="1.95611">
        <ele>113</ele>
        <time>2018-04-10T15:49:22Z</time>
      </trkpt>
      <trkpt lat="49.57419" lon="1.95611">
        <ele>113</ele>
        <time>2018-04-10T15:50:22Z</time>
      </trkpt>
      <trkpt lat="49.57418" lon="1.95605">
        <ele>113</ele>
        <time>2018-04-10T15:51:22Z</time>
      </trkpt>
      <trkpt lat="49.57413" lon="1.95597">
        <ele>113</ele>
        <time>2018-04-10T15:52:22Z</time>
      </trkpt>
      <trkpt lat="49.5741" lon="1.95596">
        <ele>113</ele>
        <time>2018-04-10T15:53:22Z</time>
      </trkpt>
      <trkpt lat="49.57407" lon="1.95578">
        <ele>112</ele>
        <time>2018-04-10T15:54:22Z</time>
      </trkpt>
      <trkpt lat="49.57403" lon="1.9557">
        <ele>112</ele>
        <time>2018-04-10T15:55:22Z</time>
      </trkpt>
      <trkpt lat="49.57383" lon="1.95548">
        <ele>112</ele>
        <time>2018-04-10T15:56:22Z</time>
      </trkpt>
      <trkpt lat="49.57194" lon="1.95308">
        <ele>114</ele>
        <time>2018-04-10T15:57:22Z</time>
      </trkpt>
      <trkpt lat="49.57134" lon="1.95238">
        <ele>117</ele>
        <time>2018-04-10T15:58:22Z</time>
      </trkpt>
      <trkpt lat="49.57114" lon="1.95224">
        <ele>118</ele>
        <time>2018-04-10T15:59:22Z</time>
      </trkpt>
      <trkpt lat="49.57083" lon="1.95215">
        <ele>119</ele>
        <time>2018-04-10T16:00:22Z</time>
      </trkpt>
      <trkpt lat="49.5706" lon="1.95212">
        <ele>120</ele>
        <time>2018-04-10T16:01:22Z</time>
      </trkpt>
      <trkpt lat="49.57029" lon="1.95214">
        <ele>121</ele>
        <time>2018-04-10T16:02:22Z</time>
      </trkpt>
      <trkpt lat="49.56968" lon="1.95224">
        <ele>123</ele>
        <time>2018-04-10T16:03:22Z</time>
      </trkpt>
      <trkpt lat="49.5695" lon="1.95224">
        <ele>123</ele>
        <time>2018-04-10T16:04:22Z</time>
      </trkpt>
      <trkpt lat="49.56934" lon="1.95218">
        <ele>125</ele>
        <time>2018-04-10T16:05:22Z</time>
      </trkpt>
      <trkpt lat="49.5692" lon="1.95206">
        <ele>126</ele>
        <time>2018-04-10T16:06:22Z</time>
      </trkpt>
      <trkpt lat="49.56902" lon="1.95173">
        <ele>128</ele>
        <time>2018-04-10T16:07:22Z</time>
      </trkpt>
      <trkpt lat="49.56896" lon="1.95159">
        <ele>129</ele>
        <time>2018-04-10T16:08:22Z</time>
      </trkpt>
      <trkpt lat="49.56884" lon="1.95158">
        <ele>129</ele>
        <time>2018-04-10T16:09:22Z</time>
      </trkpt>
      <trkpt lat="49.56863" lon="1.95175">
        <ele>129</ele>
        <time>2018-04-10T16:10:22Z</time>
      </trkpt>
      <trkpt lat="49.56851" lon="1.95182">
        <ele>129</ele>
        <time>2018-04-10T16:11:22Z</time>
      </trkpt>
      <trkpt lat="49.56839" lon="1.95181">
        <ele>129</ele>
        <time>2018-04-10T16:12:22Z</time>
      </trkpt>
      <trkpt lat="49.56769" lon="1.95153">
        <ele>132</ele>
        <time>2018-04-10T16:13:22Z</time>
      </trkpt>
      <trkpt lat="49.56746" lon="1.95137">
        <ele>134</ele>
        <time>2018-04-10T16:14:22Z</time>
      </trkpt>
      <trkpt lat="49.56714" lon="1.95106">
        <ele>135</ele>
        <time>2018-04-10T16:15:22Z</time>
      </trkpt>
      <trkpt lat="49.56696" lon="1.95077">
        <ele>137</ele>
        <time>2018-04-10T16:16:22Z</time>
      </trkpt>
      <trkpt lat="49.56655" lon="1.94996">
        <ele>140</ele>
        <time>2018-04-10T16:17:22Z</time>
      </trkpt>
      <trkpt lat="49.56602" lon="1.94877">
        <ele>142</ele>
        <time>2018-04-10T16:18:22Z</time>
      </trkpt>
      <trkpt lat="49.56537" lon="1.94707">
        <ele>147</ele>
        <time>2018-04-10T16:19:22Z</time>
      </trkpt>
      <trkpt lat="49.56488" lon="1.94551">
        <ele>146</ele>
        <time>2018-04-10T16:20:22Z</time>
      </trkpt>
      <trkpt lat="49.56462" lon="1.94484">
        <ele>146</ele>
        <time>2018-04-10T16:21:22Z</time>
      </trkpt>
      <trkpt lat="49.56366" lon="1.94405">
        <ele>153</ele>
        <time>2018-04-10T16:22:22Z</time>
      </trkpt>
      <trkpt lat="49.56217" lon="1.94311">
        <ele>157</ele>
        <time>2018-04-10T16:23:22Z</time>
      </trkpt>
      <trkpt lat="49.561" lon="1.94264">
        <ele>163</ele>
        <time>2018-04-10T16:24:22Z</time>
      </trkpt>
      <trkpt lat="49.55496" lon="1.94054">
        <ele>164</ele>
        <time>2018-04-10T16:25:22Z</time>
      </trkpt>
      <trkpt lat="49.55349" lon="1.94014">
        <ele>160</ele>
        <time>2018-04-10T16:26:22Z</time>
      </trkpt>
      <trkpt lat="49.55279" lon="1.94021">
        <ele>158</ele>
        <time>2018-04-10T16:27:22Z</time>
      </trkpt>
      <trkpt lat="49.55132" lon="1.94014">
        <ele>155</ele>
        <time>2018-04-10T16:28:22Z</time>
      </trkpt>
      <trkpt lat="49.54868" lon="1.93992">
        <ele>146</ele>
        <time>2018-04-10T16:29:22Z</time>
      </trkpt>
      <trkpt lat="49.54813" lon="1.93992">
        <ele>144</ele>
        <time>2018-04-10T16:30:22Z</time>
      </trkpt>
      <trkpt lat="49.54778" lon="1.93995">
        <ele>142</ele>
        <time>2018-04-10T16:31:22Z</time>
      </trkpt>
      <trkpt lat="49.54736" lon="1.9402">
        <ele>141</ele>
        <time>2018-04-10T16:32:22Z</time>
      </trkpt>
      <trkpt lat="49.54598" lon="1.94077">
        <ele>136</ele>
        <time>2018-04-10T16:33:22Z</time>
      </trkpt>
      <trkpt lat="49.54566" lon="1.94079">
        <ele>135</ele>
        <time>2018-04-10T16:34:22Z</time>
      </trkpt>
      <trkpt lat="49.54514" lon="1.9406">
        <ele>133</ele>
        <time>2018-04-10T16:35:22Z</time>
      </trkpt>
      <trkpt lat="49.54299" lon="1.93962">
        <ele>129</ele>
        <time>2018-04-10T16:36:22Z</time>
      </trkpt>
      <trkpt lat="49.54182" lon="1.93917">
        <ele>125</ele>
        <time>2018-04-10T16:37:22Z</time>
      </trkpt>
      <trkpt lat="49.53988" lon="1.93855">
        <ele>125</ele>
        <time>2018-04-10T16:38:22Z</time>
      </trkpt>
      <trkpt lat="49.53887" lon="1.938">
        <ele>127</ele>
        <time>2018-04-10T16:39:22Z</time>
      </trkpt>
      <trkpt lat="49.53836" lon="1.93734">
        <ele>126</ele>
        <time>2018-04-10T16:40:22Z</time>
      </trkpt>
      <trkpt lat="49.53778" lon="1.93664">
        <ele>124</ele>
        <time>2018-04-10T16:41:22Z</time>
      </trkpt>
      <trkpt lat="49.53692" lon="1.93582">
        <ele>121</ele>
        <time>2018-04-10T16:42:22Z</time>
      </trkpt>
      <trkpt lat="49.53606" lon="1.93527">
        <ele>119</ele>
        <time>2018-04-10T16:43:22Z</time>
      </trkpt>
      <trkpt lat="49.53517" lon="1.93508">
        <ele>116</ele>
        <time>2018-04-10T16:44:22Z</time>
      </trkpt>
      <trkpt lat="49.53306" lon="1.9348">
        <ele>114</ele>
        <time>2018-04-10T16:45:22Z</time>
      </trkpt>
      <trkpt lat="49.53134" lon="1.93469">
        <ele>114</ele>
        <time>2018-04-10T16:46:22Z</time>
      </trkpt>
      <trkpt lat="49.53025" lon="1.93445">
        <ele>114</ele>
        <time>2018-04-10T16:47:22Z</time>
      </trkpt>
      <trkpt lat="49.52939" lon="1.93402">
        <ele>112</ele>
        <time>2018-04-10T16:48:22Z</time>
      </trkpt>
      <trkpt lat="49.52772" lon="1.93375">
        <ele>110</ele>
        <time>2018-04-10T16:49:22Z</time>
      </trkpt>
      <trkpt lat="49.52686" lon="1.93363">
        <ele>107</ele>
        <time>2018-04-10T16:50:22Z</time>
      </trkpt>
      <trkpt lat="49.52585" lon="1.93321">
        <ele>103</ele>
        <time>2018-04-10T16:51:22Z</time>
      </trkpt>
      <trkpt lat="49.52511" lon="1.93285">
        <ele>105</ele>
        <time>2018-04-10T16:52:22Z</time>
      </trkpt>
      <trkpt lat="49.52401" lon="1.93215">
        <ele>104</ele>
        <time>2018-04-10T16:53:22Z</time>
      </trkpt>
      <trkpt lat="49.52191" lon="1.93102">
        <ele>104</ele>
        <time>2018-04-10T16:54:22Z</time>
      </trkpt>
      <trkpt lat="49.52087" lon="1.93005">
        <ele>101</ele>
        <time>2018-04-10T16:55:22Z</time>
      </trkpt>
      <trkpt lat="49.52073" lon="1.9299">
        <ele>101</ele>
        <time>2018-04-10T16:56:22Z</time>
      </trkpt>
      <trkpt lat="49.5198" lon="1.92938">
        <ele>96</ele>
        <time>2018-04-10T16:57:22Z</time>
      </trkpt>
      <trkpt lat="49.51965" lon="1.92932">
        <ele>96</ele>
        <time>2018-04-10T16:58:22Z</time>
      </trkpt>
      <trkpt lat="49.51948" lon="1.92931">
        <ele>95</ele>
        <time>2018-04-10T16:59:22Z</time>
      </trkpt>
      <trkpt lat="49.51926" lon="1.92947">
        <ele>94</ele>
        <time>2018-04-10T17:00:22Z</time>
      </trkpt>
      <trkpt lat="49.51914" lon="1.92959">
        <ele>94</ele>
        <time>2018-04-10T17:01:22Z</time>
      </trkpt>
      <trkpt lat="49.51898" lon="1.92951">
        <ele>94</ele>
        <time>2018-04-10T17:02:22Z</time>
      </trkpt>
      <trkpt lat="49.51877" lon="1.92927">
        <ele>94</ele>
        <time>2018-04-10T17:03:22Z</time>
      </trkpt>
      <trkpt lat="49.5185" lon="1.92911">
        <ele>93</ele>
        <time>2018-04-10T17:04:22Z</time>
      </trkpt>
      <trkpt lat="49.51656" lon="1.92816">
        <ele>93</ele>
        <time>2018-04-10T17:05:22Z</time>
      </trkpt>
      <trkpt lat="49.51623" lon="1.92755">
        <ele>93</ele>
        <time>2018-04-10T17:06:22Z</time>
      </trkpt>
      <trkpt lat="49.51553" lon="1.92672">
        <ele>97</ele>
        <time>2018-04-10T17:07:22Z</time>
      </trkpt>
      <trkpt lat="49.51538" lon="1.92676">
        <ele>98</ele>
        <time>2018-04-10T17:08:22Z</time>
      </trkpt>
      <trkpt lat="49.51521" lon="1.92686">
        <ele>99</ele>
        <time>2018-04-10T17:09:22Z</time>
      </trkpt>
      <trkpt lat="49.51502" lon="1.92701">
        <ele>100</ele>
        <time>2018-04-10T17:10:22Z</time>
      </trkpt>
      <trkpt lat="49.51481" lon="1.92713">
        <ele>101</ele>
        <time>2018-04-10T17:11:22Z</time>
      </trkpt>
      <trkpt lat="49.51464" lon="1.92715">
        <ele>102</ele>
        <time>2018-04-10T17:12:22Z</time>
      </trkpt>
      <trkpt lat="49.51436" lon="1.92689">
        <ele>105</ele>
        <time>2018-04-10T17:13:22Z</time>
      </trkpt>
      <trkpt lat="49.51394" lon="1.92616">
        <ele>109</ele>
        <time>2018-04-10T17:14:22Z</time>
      </trkpt>
      <trkpt lat="49.50909" lon="1.91756">
        <ele>149</ele>
        <time>2018-04-10T17:15:22Z</time>
      </trkpt>
      <trkpt lat="49.50891" lon="1.91719">
        <ele>152</ele>
        <time>2018-04-10T17:16:22Z</time>
      </trkpt>
      <trkpt lat="49.50874" lon="1.91675">
        <ele>154</ele>
        <time>2018-04-10T17:17:22Z</time>
      </trkpt>
      <trkpt lat="49.50837" lon="1.91565">
        <ele>155</ele>
        <time>2018-04-10T17:18:22Z</time>
      </trkpt>
      <trkpt lat="49.50818" lon="1.91513">
        <ele>157</ele>
        <time>2018-04-10T17:19:22Z</time>
      </trkpt>
      <trkpt lat="49.50807" lon="1.91493">
        <ele>158</ele>
        <time>2018-04-10T17:20:22Z</time>
      </trkpt>
      <trkpt lat="49.50784" lon="1.91464">
        <ele>159</ele>
        <time>2018-04-10T17:21:22Z</time>
      </trkpt>
      <trkpt lat="49.50741" lon="1.91425">
        <ele>161</ele>
        <time>2018-04-10T17:22:22Z</time>
      </trkpt>
      <trkpt lat="49.50618" lon="1.91301">
        <ele>171</ele>
        <time>2018-04-10T17:23:22Z</time>
      </trkpt>
      <trkpt lat="49.50479" lon="1.91173">
        <ele>170</ele>
        <time>2018-04-10T17:24:22Z</time>
      </trkpt>
      <trkpt lat="49.5035" lon="1.91046">
        <ele>169</ele>
        <time>2018-04-10T17:25:22Z</time>
      </trkpt>
      <trkpt lat="49.50292" lon="1.9101">
        <ele>167</ele>
        <time>2018-04-10T17:26:22Z</time>
      </trkpt>
      <trkpt lat="49.49909" lon="1.90817">
        <ele>159</ele>
        <time>2018-04-10T17:27:22Z</time>
      </trkpt>
      <trkpt lat="49.4989" lon="1.90805">
        <ele>158</ele>
        <time>2018-04-10T17:28:22Z</time>
      </trkpt>
      <trkpt lat="49.49865" lon="1.90786">
        <ele>156</ele>
        <time>2018-04-10T17:29:22Z</time>
      </trkpt>
      <trkpt lat="49.49831" lon="1.90747">
        <ele>154</ele>
        <time>2018-04-10T17:30:22Z</time>
      </trkpt>
      <trkpt lat="49.49622" lon="1.90434">
        <ele>177</ele>
        <time>2018-04-10T17:31:22Z</time>
      </trkpt>
      <trkpt lat="49.49575" lon="1.90361">
        <ele>180</ele>
        <time>2018-04-10T17:32:22Z</time>
      </trkpt>
      <trkpt lat="49.49556" lon="1.90327">
        <ele>178</ele>
        <time>2018-04-10T17:33:22Z</time>
      </trkpt>
      <trkpt lat="49.49537" lon="1.90284">
        <ele>177</ele>
        <time>2018-04-10T17:34:22Z</time>
      </trkpt>
      <trkpt lat="49.49527" lon="1.90249">
        <ele>178</ele>
        <time>2018-04-10T17:35:22Z</time>
      </trkpt>
      <trkpt lat="49.49516" lon="1.90201">
        <ele>176</ele>
        <time>2018-04-10T17:36:22Z</time>
      </trkpt>
      <trkpt lat="49.4951" lon="1.90139">
        <ele>176</ele>
        <time>2018-04-10T17:37:22Z</time>
      </trkpt>
      <trkpt lat="49.49506" lon="1.90024">
        <ele>174</ele>
        <time>2018-04-10T17:38:22Z</time>
      </trkpt>
      <trkpt lat="49.495" lon="1.89991">
        <ele>172</ele>
        <time>2018-04-10T17:39:22Z</time>
      </trkpt>
      <trkpt lat="49.4949" lon="1.89951">
        <ele>171</ele>
        <time>2018-04-10T17:40:22Z</time>
      </trkpt>
      <trkpt lat="49.49477" lon="1.89913">
        <ele>170</ele>
        <time>2018-04-10T17:41:22Z</time>
      </trkpt>
      <trkpt lat="49.4946" lon="1.89877">
        <ele>170</ele>
        <time>2018-04-10T17:42:22Z</time>
      </trkpt>
      <trkpt lat="49.49431" lon="1.89837">
        <ele>171</ele>
        <time>2018-04-10T17:43:22Z</time>
      </trkpt>
      <trkpt lat="49.49411" lon="1.89815">
        <ele>171</ele>
        <time>2018-04-10T17:44:22Z</time>
      </trkpt>
      <trkpt lat="49.49389" lon="1.89797">
        <ele>171</ele>
        <time>2018-04-10T17:45:22Z</time>
      </trkpt>
      <trkpt lat="49.4936" lon="1.89782">
        <ele>171</ele>
        <time>2018-04-10T17:46:22Z</time>
      </trkpt>
      <trkpt lat="49.49335" lon="1.89777">
        <ele>171</ele>
        <time>2018-04-10T17:47:22Z</time>
      </trkpt>
      <trkpt lat="49.49304" lon="1.89779">
        <ele>172</ele>
        <time>2018-04-10T17:48:22Z</time>
      </trkpt>
      <trkpt lat="49.49285" lon="1.89787">
        <ele>173</ele>
        <time>2018-04-10T17:49:22Z</time>
      </trkpt>
      <trkpt lat="49.49235" lon="1.89827">
        <ele>175</ele>
        <time>2018-04-10T17:50:22Z</time>
      </trkpt>
      <trkpt lat="49.48967" lon="1.90115">
        <ele>185</ele>
        <time>2018-04-10T17:51:22Z</time>
      </trkpt>
      <trkpt lat="49.48905" lon="1.90122">
        <ele>189</ele>
        <time>2018-04-10T17:52:22Z</time>
      </trkpt>
      <trkpt lat="49.48518" lon="1.90117">
        <ele>182</ele>
        <time>2018-04-10T17:53:22Z</time>
      </trkpt>
      <trkpt lat="49.48078" lon="1.90023">
        <ele>171</ele>
        <time>2018-04-10T17:54:22Z</time>
      </trkpt>
      <trkpt lat="49.47723" lon="1.89942">
        <ele>160</ele>
        <time>2018-04-10T17:55:22Z</time>
      </trkpt>
      <trkpt lat="49.47425" lon="1.89885">
        <ele>156</ele>
        <time>2018-04-10T17:56:22Z</time>
      </trkpt>
      <trkpt lat="49.47378" lon="1.8989">
        <ele>154</ele>
        <time>2018-04-10T17:57:22Z</time>
      </trkpt>
      <trkpt lat="49.47154" lon="1.8996">
        <ele>141</ele>
        <time>2018-04-10T17:58:22Z</time>
      </trkpt>
      <trkpt lat="49.47124" lon="1.89957">
        <ele>141</ele>
        <time>2018-04-10T17:59:22Z</time>
      </trkpt>
      <trkpt lat="49.47096" lon="1.89945">
        <ele>141</ele>
        <time>2018-04-10T18:00:22Z</time>
      </trkpt>
      <trkpt lat="49.47009" lon="1.89866">
        <ele>139</ele>
        <time>2018-04-10T18:01:22Z</time>
      </trkpt>
      <trkpt lat="49.46978" lon="1.8986">
        <ele>139</ele>
        <time>2018-04-10T18:02:22Z</time>
      </trkpt>
      <trkpt lat="49.4682" lon="1.89851">
        <ele>133</ele>
        <time>2018-04-10T18:03:22Z</time>
      </trkpt>
      <trkpt lat="49.468" lon="1.89847">
        <ele>132</ele>
        <time>2018-04-10T18:04:22Z</time>
      </trkpt>
      <trkpt lat="49.46777" lon="1.89838">
        <ele>130</ele>
        <time>2018-04-10T18:05:22Z</time>
      </trkpt>
      <trkpt lat="49.46716" lon="1.89858">
        <ele>128</ele>
        <time>2018-04-10T18:06:22Z</time>
      </trkpt>
      <trkpt lat="49.4669" lon="1.8987">
        <ele>127</ele>
        <time>2018-04-10T18:07:22Z</time>
      </trkpt>
      <trkpt lat="49.4668" lon="1.89863">
        <ele>127</ele>
        <time>2018-04-10T18:08:22Z</time>
      </trkpt>
      <trkpt lat="49.46667" lon="1.89839">
        <ele>126</ele>
        <time>2018-04-10T18:09:22Z</time>
      </trkpt>
      <trkpt lat="49.46646" lon="1.89825">
        <ele>124</ele>
        <time>2018-04-10T18:10:22Z</time>
      </trkpt>
      <trkpt lat="49.46627" lon="1.89831">
        <ele>123</ele>
        <time>2018-04-10T18:11:22Z</time>
      </trkpt>
      <trkpt lat="49.46596" lon="1.89858">
        <ele>121</ele>
        <time>2018-04-10T18:12:22Z</time>
      </trkpt>
      <trkpt lat="49.46585" lon="1.89851">
        <ele>121</ele>
        <time>2018-04-10T18:13:22Z</time>
      </trkpt>
      <trkpt lat="49.46532" lon="1.89727">
        <ele>117</ele>
        <time>2018-04-10T18:14:22Z</time>
      </trkpt>
      <trkpt lat="49.46521" lon="1.89713">
        <ele>117</ele>
        <time>2018-04-10T18:15:22Z</time>
      </trkpt>
      <trkpt lat="49.4647" lon="1.89708">
        <ele>116</ele>
        <time>2018-04-10T18:16:22Z</time>
      </trkpt>
      <trkpt lat="49.46426" lon="1.89711">
        <ele>115</ele>
        <time>2018-04-10T18:17:22Z</time>
      </trkpt>
      <trkpt lat="49.4641" lon="1.89714">
        <ele>114</ele>
        <time>2018-04-10T18:18:22Z</time>
      </trkpt>
      <trkpt lat="49.46159" lon="1.89819">
        <ele>111</ele>
        <time>2018-04-10T18:19:22Z</time>
      </trkpt>
      <trkpt lat="49.46116" lon="1.89814">
        <ele>112</ele>
        <time>2018-04-10T18:20:22Z</time>
      </trkpt>
      <trkpt lat="49.46056" lon="1.89799">
        <ele>112</ele>
        <time>2018-04-10T18:21:22Z</time>
      </trkpt>
      <trkpt lat="49.45955" lon="1.89743">
        <ele>112</ele>
        <time>2018-04-10T18:22:22Z</time>
      </trkpt>
      <trkpt lat="49.459" lon="1.89735">
        <ele>111</ele>
        <time>2018-04-10T18:23:22Z</time>
      </trkpt>
      <trkpt lat="49.4568" lon="1.89735">
        <ele>105</ele>
        <time>2018-04-10T18:24:22Z</time>
      </trkpt>
      <trkpt lat="49.45606" lon="1.89742">
        <ele>104</ele>
        <time>2018-04-10T18:25:22Z</time>
      </trkpt>
      <trkpt lat="49.45562" lon="1.89753">
        <ele>103</ele>
        <time>2018-04-10T18:26:22Z</time>
      </trkpt>
      <trkpt lat="49.45534" lon="1.89771">
        <ele>104</ele>
        <time>2018-04-10T18:27:22Z</time>
      </trkpt>
      <trkpt lat="49.45404" lon="1.89873">
        <ele>102</ele>
        <time>2018-04-10T18:28:22Z</time>
      </trkpt>
      <trkpt lat="49.45326" lon="1.89939">
        <ele>103</ele>
        <time>2018-04-10T18:29:22Z</time>
      </trkpt>
      <trkpt lat="49.45231" lon="1.90007">
        <ele>98</ele>
        <time>2018-04-10T18:30:22Z</time>
      </trkpt>
      <trkpt lat="49.45169" lon="1.90035">
        <ele>97</ele>
        <time>2018-04-10T18:31:22Z</time>
      </trkpt>
      <trkpt lat="49.45064" lon="1.90064">
        <ele>99</ele>
        <time>2018-04-10T18:32:22Z</time>
      </trkpt>
      <trkpt lat="49.45036" lon="1.90086">
        <ele>100</ele>
        <time>2018-04-10T18:33:22Z</time>
      </trkpt>
      <trkpt lat="49.44995" lon="1.90122">
        <ele>104</ele>
        <time>2018-04-10T18:34:22Z</time>
      </trkpt>
      <trkpt lat="49.4498" lon="1.90146">
        <ele>105</ele>
        <time>2018-04-10T18:35:22Z</time>
      </trkpt>
      <trkpt lat="49.44967" lon="1.90162">
        <ele>106</ele>
        <time>2018-04-10T18:36:22Z</time>
      </trkpt>
      <trkpt lat="49.44903" lon="1.90097">
        <ele>98</ele>
        <time>2018-04-10T18:37:22Z</time>
      </trkpt>
      <trkpt lat="49.44855" lon="1.90074">
        <ele>97</ele>
        <time>2018-04-10T18:38:22Z</time>
      </trkpt>
      <trkpt lat="49.4479" lon="1.90061">
        <ele>98</ele>
        <time>2018-04-10T18:39:22Z</time>
      </trkpt>
      <trkpt lat="49.44725" lon="1.90054">
        <ele>98</ele>
        <time>2018-04-10T18:40:22Z</time>
      </trkpt>
      <trkpt lat="49.44433" lon="1.90073">
        <ele>89</ele>
        <time>2018-04-10T18:41:22Z</time>
      </trkpt>
      <trkpt lat="49.44395" lon="1.90074">
        <ele>88</ele>
        <time>2018-04-10T18:42:22Z</time>
      </trkpt>
      <trkpt lat="49.43654" lon="1.90129">
        <ele>104</ele>
        <time>2018-04-10T18:43:22Z</time>
      </trkpt>
      <trkpt lat="49.43696" lon="1.8975">
        <ele>109</ele>
        <time>2018-04-10T18:44:22Z</time>
      </trkpt>
      <trkpt lat="49.43646" lon="1.89668">
        <ele>110</ele>
        <time>2018-04-10T18:45:22Z</time>
      </trkpt>
      <trkpt lat="49.43296" lon="1.89133">
        <ele>115</ele>
        <time>2018-04-10T18:46:22Z</time>
      </trkpt>
      <trkpt lat="49.43038" lon="1.88735">
        <ele>120</ele>
        <time>2018-04-10T18:47:22Z</time>
      </trkpt>
      <trkpt lat="49.42668" lon="1.88173">
        <ele>125</ele>
        <time>2018-04-10T18:48:22Z</time>
      </trkpt>
      <trkpt lat="49.4264" lon="1.88138">
        <ele>126</ele>
        <time>2018-04-10T18:49:22Z</time>
      </trkpt>
      <trkpt lat="49.42605" lon="1.88115">
        <ele>127</ele>
        <time>2018-04-10T18:50:22Z</time>
      </trkpt>
      <trkpt lat="49.42568" lon="1.88077">
        <ele>128</ele>
        <time>2018-04-10T18:51:22Z</time>
      </trkpt>
      <trkpt lat="49.42517" lon="1.88017">
        <ele>131</ele>
        <time>2018-04-10T18:52:22Z</time>
      </trkpt>
      <trkpt lat="49.4248" lon="1.87991">
        <ele>132</ele>
        <time>2018-04-10T18:53:22Z</time>
      </trkpt>
      <trkpt lat="49.42378" lon="1.87992">
        <ele>132</ele>
        <time>2018-04-10T18:54:22Z</time>
      </trkpt>
      <trkpt lat="49.42309" lon="1.87969">
        <ele>132</ele>
        <time>2018-04-10T18:55:22Z</time>
      </trkpt>
      <trkpt lat="49.4226" lon="1.87933">
        <ele>134</ele>
        <time>2018-04-10T18:56:22Z</time>
      </trkpt>
      <trkpt lat="49.4222" lon="1.87871">
        <ele>137</ele>
        <time>2018-04-10T18:57:22Z</time>
      </trkpt>
      <trkpt lat="49.42152" lon="1.87755">
        <ele>140</ele>
        <time>2018-04-10T18:58:22Z</time>
      </trkpt>
      <trkpt lat="49.4214" lon="1.87738">
        <ele>140</ele>
        <time>2018-04-10T18:59:22Z</time>
      </trkpt>
      <trkpt lat="49.42127" lon="1.87725">
        <ele>140</ele>
        <time>2018-04-10T19:00:22Z</time>
      </trkpt>
      <trkpt lat="49.42118" lon="1.87744">
        <ele>139</ele>
        <time>2018-04-10T19:01:22Z</time>
      </trkpt>
      <trkpt lat="49.42098" lon="1.87777">
        <ele>138</ele>
        <time>2018-04-10T19:02:22Z</time>
      </trkpt>
      <trkpt lat="49.42085" lon="1.87792">
        <ele>138</ele>
        <time>2018-04-10T19:03:22Z</time>
      </trkpt>
      <trkpt lat="49.42067" lon="1.87794">
        <ele>138</ele>
        <time>2018-04-10T19:04:22Z</time>
      </trkpt>
      <trkpt lat="49.42039" lon="1.87795">
        <ele>138</ele>
        <time>2018-04-10T19:05:22Z</time>
      </trkpt>
      <trkpt lat="49.41967" lon="1.8778">
        <ele>140</ele>
        <time>2018-04-10T19:06:22Z</time>
      </trkpt>
      <trkpt lat="49.41931" lon="1.87776">
        <ele>142</ele>
        <time>2018-04-10T19:07:22Z</time>
      </trkpt>
      <trkpt lat="49.41901" lon="1.87766">
        <ele>143</ele>
        <time>2018-04-10T19:08:22Z</time>
      </trkpt>
      <trkpt lat="49.41683" lon="1.87714">
        <ele>145</ele>
        <time>2018-04-10T19:09:22Z</time>
      </trkpt>
      <trkpt lat="49.41648" lon="1.87701">
        <ele>146</ele>
        <time>2018-04-10T19:10:22Z</time>
      </trkpt>
      <trkpt lat="49.41431" lon="1.87572">
        <ele>154</ele>
        <time>2018-04-10T19:11:22Z</time>
      </trkpt>
      <trkpt lat="49.41345" lon="1.87528">
        <ele>159</ele>
        <time>2018-04-10T19:12:22Z</time>
      </trkpt>
      <trkpt lat="49.41317" lon="1.87527">
        <ele>160</ele>
        <time>2018-04-10T19:13:22Z</time>
      </trkpt>
      <trkpt lat="49.41295" lon="1.87537">
        <ele>162</ele>
        <time>2018-04-10T19:14:22Z</time>
      </trkpt>
      <trkpt lat="49.41192" lon="1.87599">
        <ele>168</ele>
        <time>2018-04-10T19:15:22Z</time>
      </trkpt>
      <trkpt lat="49.41166" lon="1.87606">
        <ele>169</ele>
        <time>2018-04-10T19:16:22Z</time>
      </trkpt>
      <trkpt lat="49.41148" lon="1.876">
        <ele>172</ele>
        <time>2018-04-10T19:17:22Z</time>
      </trkpt>
      <trkpt lat="49.41124" lon="1.87582">
        <ele>177</ele>
        <time>2018-04-10T19:18:22Z</time>
      </trkpt>
      <trkpt lat="49.41103" lon="1.87557">
        <ele>180</ele>
        <time>2018-04-10T19:19:22Z</time>
      </trkpt>
      <trkpt lat="49.41077" lon="1.87492">
        <ele>181</ele>
        <time>2018-04-10T19:20:22Z</time>
      </trkpt>
      <trkpt lat="49.4107" lon="1.87455">
        <ele>183</ele>
        <time>2018-04-10T19:21:22Z</time>
      </trkpt>
      <trkpt lat="49.4107" lon="1.87423">
        <ele>183</ele>
        <time>2018-04-10T19:22:22Z</time>
      </trkpt>
      <trkpt lat="49.41075" lon="1.87396">
        <ele>184</ele>
        <time>2018-04-10T19:23:22Z</time>
      </trkpt>
      <trkpt lat="49.41089" lon="1.8737">
        <ele>186</ele>
        <time>2018-04-10T19:24:22Z</time>
      </trkpt>
      <trkpt lat="49.41148" lon="1.87308">
        <ele>188</ele>
        <time>2018-04-10T19:25:22Z</time>
      </trkpt>
      <trkpt lat="49.41169" lon="1.87273">
        <ele>192</ele>
        <time>2018-04-10T19:26:22Z</time>
      </trkpt>
      <trkpt lat="49.4122" lon="1.87126">
        <ele>193</ele>
        <time>2018-04-10T19:27:22Z</time>
      </trkpt>
      <trkpt lat="49.41247" lon="1.87054">
        <ele>194</ele>
        <time>2018-04-10T19:28:22Z</time>
      </trkpt>
      <trkpt lat="49.41272" lon="1.86979">
        <ele>194</ele>
        <time>2018-04-10T19:29:22Z</time>
      </trkpt>
      <trkpt lat="49.41272" lon="1.86896">
        <ele>194</ele>
        <time>2018-04-10T19:30:22Z</time>
      </trkpt>
      <trkpt lat="49.41233" lon="1.86818">
        <ele>195</ele>
        <time>2018-04-10T19:31:22Z</time>
      </trkpt>
      <trkpt lat="49.4118" lon="1.86759">
        <ele>199</ele>
        <time>2018-04-10T19:32:22Z</time>
      </trkpt>
      <trkpt lat="49.41121" lon="1.86706">
        <ele>202</ele>
        <time>2018-04-10T19:33:22Z</time>
      </trkpt>
      <trkpt lat="49.41073" lon="1.86682">
        <ele>207</ele>
        <time>2018-04-10T19:34:22Z</time>
      </trkpt>
      <trkpt lat="49.41059" lon="1.86696">
        <ele>211</ele>
        <time>2018-04-10T19:35:22Z</time>
      </trkpt>
      <trkpt lat="49.41055" lon="1.86716">
        <ele>213</ele>
        <time>2018-04-10T19:36:22Z</time>
      </trkpt>
      <trkpt lat="49.4106" lon="1.86753">
        <ele>216</ele>
        <time>2018-04-10T19:37:22Z</time>
      </trkpt>
      <trkpt lat="49.41083" lon="1.86798">
        <ele>217</ele>
        <time>2018-04-10T19:38:22Z</time>
      </trkpt>
      <trkpt lat="49.41108" lon="1.86859">
        <ele>219</ele>
        <time>2018-04-10T19:39:22Z</time>
      </trkpt>
      <trkpt lat="49.41115" lon="1.86884">
        <ele>219</ele>
        <time>2018-04-10T19:40:22Z</time>
      </trkpt>
      <trkpt lat="49.41114" lon="1.86911">
        <ele>220</ele>
        <time>2018-04-10T19:41:22Z</time>
      </trkpt>
      <trkpt lat="49.41103" lon="1.86947">
        <ele>220</ele>
        <time>2018-04-10T19:42:22Z</time>
      </trkpt>
      <trkpt lat="49.41085" lon="1.86973">
        <ele>221</ele>
        <time>2018-04-10T19:43:22Z</time>
      </trkpt>
      <trkpt lat="49.40968" lon="1.87118">
        <ele>224</ele>
        <time>2018-04-10T19:44:22Z</time>
      </trkpt>
      <trkpt lat="49.40847" lon="1.87273">
        <ele>224</ele>
        <time>2018-04-10T19:45:22Z</time>
      </trkpt>
      <trkpt lat="49.40781" lon="1.87352">
        <ele>226</ele>
        <time>2018-04-10T19:46:22Z</time>
      </trkpt>
      <trkpt lat="49.40717" lon="1.87421">
        <ele>226</ele>
        <time>2018-04-10T19:47:22Z</time>
      </trkpt>
      <trkpt lat="49.40595" lon="1.87528">
        <ele>226</ele>
        <time>2018-04-10T19:48:22Z</time>
      </trkpt>
      <trkpt lat="49.40569" lon="1.87557">
        <ele>227</ele>
        <time>2018-04-10T19:49:22Z</time>
      </trkpt>
      <trkpt lat="49.40546" lon="1.87577">
        <ele>228</ele>
        <time>2018-04-10T19:50:22Z</time>
      </trkpt>
      <trkpt lat="49.40496" lon="1.876">
        <ele>231</ele>
        <time>2018-04-10T19:51:22Z</time>
      </trkpt>
      <trkpt lat="49.40242" lon="1.8762">
        <ele>223</ele>
        <time>2018-04-10T19:52:22Z</time>
      </trkpt>
      <trkpt lat="49.40242" lon="1.8762">
        <ele>223</ele>
        <time>2018-04-10T19:53:22Z</time>
      </trkpt>
      <trkpt lat="49.40121" lon="1.87629">
        <ele>221</ele>
        <time>2018-04-10T19:54:22Z</time>
      </trkpt>
      <trkpt lat="49.4011" lon="1.87629">
        <ele>221</ele>
        <time>2018-04-10T19:55:22Z</time>
      </trkpt>
      <trkpt lat="49.40026" lon="1.87595">
        <ele>219</ele>
        <time>2018-04-10T19:56:22Z</time>
      </trkpt>
      <trkpt lat="49.40012" lon="1.87579">
        <ele>218</ele>
        <time>2018-04-10T19:57:22Z</time>
      </trkpt>
      <trkpt lat="49.40004" lon="1.87567">
        <ele>218</ele>
        <time>2018-04-10T19:58:22Z</time>
      </trkpt>
      <trkpt lat="49.39997" lon="1.87532">
        <ele>218</ele>
        <time>2018-04-10T19:59:22Z</time>
      </trkpt>
      <trkpt lat="49.39991" lon="1.8759">
        <ele>217</ele>
        <time>2018-04-10T20:00:22Z</time>
      </trkpt>
      <trkpt lat="49.39984" lon="1.87621">
        <ele>217</ele>
        <time>2018-04-10T20:01:22Z</time>
      </trkpt>
      <trkpt lat="49.39977" lon="1.87641">
        <ele>217</ele>
        <time>2018-04-10T20:02:22Z</time>
      </trkpt>
      <trkpt lat="49.39922" lon="1.87772">
        <ele>216</ele>
        <time>2018-04-10T20:03:22Z</time>
      </trkpt>
      <trkpt lat="49.39865" lon="1.87707">
        <ele>217</ele>
        <time>2018-04-10T20:04:22Z</time>
      </trkpt>
      <trkpt lat="49.39761" lon="1.87632">
        <ele>219</ele>
        <time>2018-04-10T20:05:22Z</time>
      </trkpt>
      <trkpt lat="49.39664" lon="1.87596">
        <ele>221</ele>
        <time>2018-04-10T20:06:22Z</time>
      </trkpt>
      <trkpt lat="49.39591" lon="1.87593">
        <ele>220</ele>
        <time>2018-04-10T20:07:22Z</time>
      </trkpt>
      <trkpt lat="49.39541" lon="1.87597">
        <ele>218</ele>
        <time>2018-04-10T20:08:22Z</time>
      </trkpt>
      <trkpt lat="49.39504" lon="1.8762">
        <ele>216</ele>
        <time>2018-04-10T20:09:22Z</time>
      </trkpt>
      <trkpt lat="49.3948" lon="1.87641">
        <ele>215</ele>
        <time>2018-04-10T20:10:22Z</time>
      </trkpt>
      <trkpt lat="49.39456" lon="1.87649">
        <ele>214</ele>
        <time>2018-04-10T20:11:22Z</time>
      </trkpt>
      <trkpt lat="49.39435" lon="1.87663">
        <ele>214</ele>
        <time>2018-04-10T20:12:22Z</time>
      </trkpt>
      <trkpt lat="49.39417" lon="1.87667">
        <ele>213</ele>
        <time>2018-04-10T20:13:22Z</time>
      </trkpt>
      <trkpt lat="49.39394" lon="1.87662">
        <ele>214</ele>
        <time>2018-04-10T20:14:22Z</time>
      </trkpt>
      <trkpt lat="49.39282" lon="1.8754">
        <ele>221</ele>
        <time>2018-04-10T20:15:22Z</time>
      </trkpt>
      <trkpt lat="49.3924" lon="1.87511">
        <ele>223</ele>
        <time>2018-04-10T20:16:22Z</time>
      </trkpt>
      <trkpt lat="49.39224" lon="1.87493">
        <ele>222</ele>
        <time>2018-04-10T20:17:22Z</time>
      </trkpt>
      <trkpt lat="49.39203" lon="1.87474">
        <ele>221</ele>
        <time>2018-04-10T20:18:22Z</time>
      </trkpt>
      <trkpt lat="49.39085" lon="1.87437">
        <ele>216</ele>
        <time>2018-04-10T20:19:22Z</time>
      </trkpt>
      <trkpt lat="49.39057" lon="1.87426">
        <ele>215</ele>
        <time>2018-04-10T20:20:22Z</time>
      </trkpt>
      <trkpt lat="49.3896" lon="1.87422">
        <ele>217</ele>
        <time>2018-04-10T20:21:22Z</time>
      </trkpt>
      <trkpt lat="49.38856" lon="1.87409">
        <ele>221</ele>
        <time>2018-04-10T20:22:22Z</time>
      </trkpt>
      <trkpt lat="49.38775" lon="1.87369">
        <ele>223</ele>
        <time>2018-04-10T20:23:22Z</time>
      </trkpt>
      <trkpt lat="49.38658" lon="1.87302">
        <ele>225</ele>
        <time>2018-04-10T20:24:22Z</time>
      </trkpt>
      <trkpt lat="49.38593" lon="1.8727">
        <ele>223</ele>
        <time>2018-04-10T20:25:22Z</time>
      </trkpt>
      <trkpt lat="49.38457" lon="1.87195">
        <ele>219</ele>
        <time>2018-04-10T20:26:22Z</time>
      </trkpt>
      <trkpt lat="49.38243" lon="1.87074">
        <ele>215</ele>
        <time>2018-04-10T20:27:22Z</time>
      </trkpt>
      <trkpt lat="49.38183" lon="1.87047">
        <ele>215</ele>
        <time>2018-04-10T20:28:22Z</time>
      </trkpt>
      <trkpt lat="49.38043" lon="1.86975">
        <ele>214</ele>
        <time>2018-04-10T20:29:22Z</time>
      </trkpt>
      <trkpt lat="49.37939" lon="1.86916">
        <ele>212</ele>
        <time>2018-04-10T20:30:22Z</time>
      </trkpt>
      <trkpt lat="49.37855" lon="1.86872">
        <ele>210</ele>
        <time>2018-04-10T20:31:22Z</time>
      </trkpt>
      <trkpt lat="49.37671" lon="1.86766">
        <ele>207</ele>
        <time>2018-04-10T20:32:22Z</time>
      </trkpt>
      <trkpt lat="49.37543" lon="1.86703">
        <ele>204</ele>
        <time>2018-04-10T20:33:22Z</time>
      </trkpt>
      <trkpt lat="49.37423" lon="1.8664">
        <ele>200</ele>
        <time>2018-04-10T20:34:22Z</time>
      </trkpt>
      <trkpt lat="49.37064" lon="1.86437">
        <ele>199</ele>
        <time>2018-04-10T20:35:22Z</time>
      </trkpt>
      <trkpt lat="49.36764" lon="1.8628">
        <ele>192</ele>
        <time>2018-04-10T20:36:22Z</time>
      </trkpt>
      <trkpt lat="49.36493" lon="1.86129">
        <ele>179</ele>
        <time>2018-04-10T20:37:22Z</time>
      </trkpt>
      <trkpt lat="49.36429" lon="1.86099">
        <ele>180</ele>
        <time>2018-04-10T20:38:22Z</time>
      </trkpt>
      <trkpt lat="49.36219" lon="1.85979">
        <ele>184</ele>
        <time>2018-04-10T20:39:22Z</time>
      </trkpt>
      <trkpt lat="49.35947" lon="1.85837">
        <ele>176</ele>
        <time>2018-04-10T20:40:22Z</time>
      </trkpt>
      <trkpt lat="49.35888" lon="1.85744">
        <ele>173</ele>
        <time>2018-04-10T20:41:22Z</time>
      </trkpt>
      <trkpt lat="49.35829" lon="1.85615">
        <ele>171</ele>
        <time>2018-04-10T20:42:22Z</time>
      </trkpt>
      <trkpt lat="49.3535" lon="1.84681">
        <ele>165</ele>
        <time>2018-04-10T20:43:22Z</time>
      </trkpt>
      <trkpt lat="49.35295" lon="1.84617">
        <ele>165</ele>
        <time>2018-04-10T20:44:22Z</time>
      </trkpt>
      <trkpt lat="49.35242" lon="1.84579">
        <ele>166</ele>
        <time>2018-04-10T20:45:22Z</time>
      </trkpt>
      <trkpt lat="49.352" lon="1.8454">
        <ele>163</ele>
        <time>2018-04-10T20:46:22Z</time>
      </trkpt>
      <trkpt lat="49.35155" lon="1.84511">
        <ele>162</ele>
        <time>2018-04-10T20:47:22Z</time>
      </trkpt>
      <trkpt lat="49.35099" lon="1.84469">
        <ele>162</ele>
        <time>2018-04-10T20:48:22Z</time>
      </trkpt>
      <trkpt lat="49.34875" lon="1.84131">
        <ele>158</ele>
        <time>2018-04-10T20:49:22Z</time>
      </trkpt>
      <trkpt lat="49.34818" lon="1.84054">
        <ele>157</ele>
        <time>2018-04-10T20:50:22Z</time>
      </trkpt>
      <trkpt lat="49.34748" lon="1.83971">
        <ele>157</ele>
        <time>2018-04-10T20:51:22Z</time>
      </trkpt>
      <trkpt lat="49.34713" lon="1.83919">
        <ele>156</ele>
        <time>2018-04-10T20:52:22Z</time>
      </trkpt>
      <trkpt lat="49.34676" lon="1.83885">
        <ele>156</ele>
        <time>2018-04-10T20:53:22Z</time>
      </trkpt>
      <trkpt lat="49.34617" lon="1.83842">
        <ele>155</ele>
        <time>2018-04-10T20:54:22Z</time>
      </trkpt>
      <trkpt lat="49.34542" lon="1.83795">
        <ele>155</ele>
        <time>2018-04-10T20:55:22Z</time>
      </trkpt>
      <trkpt lat="49.3451" lon="1.8377">
        <ele>154</ele>
        <time>2018-04-10T20:56:22Z</time>
      </trkpt>
      <trkpt lat="49.34514" lon="1.83753">
        <ele>154</ele>
        <time>2018-04-10T20:57:22Z</time>
      </trkpt>
      <trkpt lat="49.34525" lon="1.83723">
        <ele>154</ele>
        <time>2018-04-10T20:58:22Z</time>
      </trkpt>
      <trkpt lat="49.34546" lon="1.83688">
        <ele>155</ele>
        <time>2018-04-10T20:59:22Z</time>
      </trkpt>
      <trkpt lat="49.34499" lon="1.83637">
        <ele>154</ele>
        <time>2018-04-10T21:00:22Z</time>
      </trkpt>
      <trkpt lat="49.34338" lon="1.83517">
        <ele>148</ele>
        <time>2018-04-10T21:01:22Z</time>
      </trkpt>
      <trkpt lat="49.34282" lon="1.8347">
        <ele>147</ele>
        <time>2018-04-10T21:02:22Z</time>
      </trkpt>
      <trkpt lat="49.3424" lon="1.83405">
        <ele>146</ele>
        <time>2018-04-10T21:03:22Z</time>
      </trkpt>
      <trkpt lat="49.3406" lon="1.83086">
        <ele>140</ele>
        <time>2018-04-10T21:04:22Z</time>
      </trkpt>
      <trkpt lat="49.34022" lon="1.83033">
        <ele>139</ele>
        <time>2018-04-10T21:05:22Z</time>
      </trkpt>
      <trkpt lat="49.33977" lon="1.83008">
        <ele>138</ele>
        <time>2018-04-10T21:06:22Z</time>
      </trkpt>
      <trkpt lat="49.33912" lon="1.82994">
        <ele>138</ele>
        <time>2018-04-10T21:07:22Z</time>
      </trkpt>
      <trkpt lat="49.33784" lon="1.82995">
        <ele>137</ele>
        <time>2018-04-10T21:08:22Z</time>
      </trkpt>
      <trkpt lat="49.3377" lon="1.8299">
        <ele>136</ele>
        <time>2018-04-10T21:09:22Z</time>
      </trkpt>
      <trkpt lat="49.33756" lon="1.82974">
        <ele>135</ele>
        <time>2018-04-10T21:10:22Z</time>
      </trkpt>
      <trkpt lat="49.33747" lon="1.82926">
        <ele>134</ele>
        <time>2018-04-10T21:11:22Z</time>
      </trkpt>
      <trkpt lat="49.33748" lon="1.82748">
        <ele>132</ele>
        <time>2018-04-10T21:12:22Z</time>
      </trkpt>
      <trkpt lat="49.3377" lon="1.82603">
        <ele>126</ele>
        <time>2018-04-10T21:13:22Z</time>
      </trkpt>
      <trkpt lat="49.33795" lon="1.82487">
        <ele>118</ele>
        <time>2018-04-10T21:14:22Z</time>
      </trkpt>
      <trkpt lat="49.33799" lon="1.82455">
        <ele>116</ele>
        <time>2018-04-10T21:15:22Z</time>
      </trkpt>
      <trkpt lat="49.33794" lon="1.82426">
        <ele>114</ele>
        <time>2018-04-10T21:16:22Z</time>
      </trkpt>
      <trkpt lat="49.33784" lon="1.82403">
        <ele>113</ele>
        <time>2018-04-10T21:17:22Z</time>
      </trkpt>
      <trkpt lat="49.33761" lon="1.82375">
        <ele>113</ele>
        <time>2018-04-10T21:18:22Z</time>
      </trkpt>
      <trkpt lat="49.3362" lon="1.82264">
        <ele>105</ele>
        <time>2018-04-10T21:19:22Z</time>
      </trkpt>
      <trkpt lat="49.33596" lon="1.82249">
        <ele>104</ele>
        <time>2018-04-10T21:20:22Z</time>
      </trkpt>
      <trkpt lat="49.33562" lon="1.8221">
        <ele>102</ele>
        <time>2018-04-10T21:21:22Z</time>
      </trkpt>
      <trkpt lat="49.33541" lon="1.82141">
        <ele>98</ele>
        <time>2018-04-10T21:22:22Z</time>
      </trkpt>
      <trkpt lat="49.33541" lon="1.82103">
        <ele>96</ele>
        <time>2018-04-10T21:23:22Z</time>
      </trkpt>
      <trkpt lat="49.33544" lon="1.82058">
        <ele>94</ele>
        <time>2018-04-10T21:24:22Z</time>
      </trkpt>
      <trkpt lat="49.33517" lon="1.81995">
        <ele>94</ele>
        <time>2018-04-10T21:25:22Z</time>
      </trkpt>
      <trkpt lat="49.33514" lon="1.8198">
        <ele>94</ele>
        <time>2018-04-10T21:26:22Z</time>
      </trkpt>
      <trkpt lat="49.33508" lon="1.81968">
        <ele>94</ele>
        <time>2018-04-10T21:27:22Z</time>
      </trkpt>
      <trkpt lat="49.33495" lon="1.81954">
        <ele>94</ele>
        <time>2018-04-10T21:28:22Z</time>
      </trkpt>
      <trkpt lat="49.33422" lon="1.81886">
        <ele>93</ele>
        <time>2018-04-10T21:29:22Z</time>
      </trkpt>
      <trkpt lat="49.33401" lon="1.8187">
        <ele>93</ele>
        <time>2018-04-10T21:30:22Z</time>
      </trkpt>
      <trkpt lat="49.33362" lon="1.8185">
        <ele>92</ele>
        <time>2018-04-10T21:31:22Z</time>
      </trkpt>
      <trkpt lat="49.33296" lon="1.81867">
        <ele>92</ele>
        <time>2018-04-10T21:32:22Z</time>
      </trkpt>
      <trkpt lat="49.33229" lon="1.81869">
        <ele>91</ele>
        <time>2018-04-10T21:33:22Z</time>
      </trkpt>
      <trkpt lat="49.33159" lon="1.81878">
        <ele>91</ele>
        <time>2018-04-10T21:34:22Z</time>
      </trkpt>
      <trkpt lat="49.33125" lon="1.81874">
        <ele>92</ele>
        <time>2018-04-10T21:35:22Z</time>
      </trkpt>
      <trkpt lat="49.33093" lon="1.81862">
        <ele>92</ele>
        <time>2018-04-10T21:36:22Z</time>
      </trkpt>
      <trkpt lat="49.32928" lon="1.81689">
        <ele>89</ele>
        <time>2018-04-10T21:37:22Z</time>
      </trkpt>
      <trkpt lat="49.3273" lon="1.81427">
        <ele>85</ele>
        <time>2018-04-10T21:38:22Z</time>
      </trkpt>
      <trkpt lat="49.32593" lon="1.81251">
        <ele>84</ele>
        <time>2018-04-10T21:39:22Z</time>
      </trkpt>
      <trkpt lat="49.32551" lon="1.81167">
        <ele>86</ele>
        <time>2018-04-10T21:40:22Z</time>
      </trkpt>
      <trkpt lat="49.32468" lon="1.80996">
        <ele>83</ele>
        <time>2018-04-10T21:41:22Z</time>
      </trkpt>
      <trkpt lat="49.32373" lon="1.80831">
        <ele>83</ele>
        <time>2018-04-10T21:42:22Z</time>
      </trkpt>
      <trkpt lat="49.32285" lon="1.80692">
        <ele>81</ele>
        <time>2018-04-10T21:43:22Z</time>
      </trkpt>
      <trkpt lat="49.32154" lon="1.8059">
        <ele>79</ele>
        <time>2018-04-10T21:44:22Z</time>
      </trkpt>
      <trkpt lat="49.32094" lon="1.80537">
        <ele>81</ele>
        <time>2018-04-10T21:45:22Z</time>
      </trkpt>
      <trkpt lat="49.32048" lon="1.80457">
        <ele>83</ele>
        <time>2018-04-10T21:46:22Z</time>
      </trkpt>
      <trkpt lat="49.3198" lon="1.80291">
        <ele>79</ele>
        <time>2018-04-10T21:47:22Z</time>
      </trkpt>
      <trkpt lat="49.31938" lon="1.80232">
        <ele>78</ele>
        <time>2018-04-10T21:48:22Z</time>
      </trkpt>
      <trkpt lat="49.31904" lon="1.80199">
        <ele>79</ele>
        <time>2018-04-10T21:49:22Z</time>
      </trkpt>
      <trkpt lat="49.31746" lon="1.80109">
        <ele>77</ele>
        <time>2018-04-10T21:50:22Z</time>
      </trkpt>
      <trkpt lat="49.3169" lon="1.80085">
        <ele>77</ele>
        <time>2018-04-10T21:51:22Z</time>
      </trkpt>
      <trkpt lat="49.3161" lon="1.80078">
        <ele>77</ele>
        <time>2018-04-10T21:52:22Z</time>
      </trkpt>
      <trkpt lat="49.31453" lon="1.80101">
        <ele>78</ele>
        <time>2018-04-10T21:53:22Z</time>
      </trkpt>
      <trkpt lat="49.31366" lon="1.80079">
        <ele>79</ele>
        <time>2018-04-10T21:54:22Z</time>
      </trkpt>
      <trkpt lat="49.31338" lon="1.80075">
        <ele>78</ele>
        <time>2018-04-10T21:55:22Z</time>
      </trkpt>
      <trkpt lat="49.31275" lon="1.80051">
        <ele>80</ele>
        <time>2018-04-10T21:56:22Z</time>
      </trkpt>
      <trkpt lat="49.31202" lon="1.80003">
        <ele>83</ele>
        <time>2018-04-10T21:57:22Z</time>
      </trkpt>
      <trkpt lat="49.3117" lon="1.79991">
        <ele>84</ele>
        <time>2018-04-10T21:58:22Z</time>
      </trkpt>
      <trkpt lat="49.3112" lon="1.79988">
        <ele>84</ele>
        <time>2018-04-10T21:59:22Z</time>
      </trkpt>
      <trkpt lat="49.31029" lon="1.79992">
        <ele>85</ele>
        <time>2018-04-10T22:00:22Z</time>
      </trkpt>
      <trkpt lat="49.30974" lon="1.79984">
        <ele>86</ele>
        <time>2018-04-10T22:01:22Z</time>
      </trkpt>
      <trkpt lat="49.30641" lon="1.79894">
        <ele>85</ele>
        <time>2018-04-10T22:02:22Z</time>
      </trkpt>
      <trkpt lat="49.30315" lon="1.79782">
        <ele>85</ele>
        <time>2018-04-10T22:03:22Z</time>
      </trkpt>
      <trkpt lat="49.30262" lon="1.79751">
        <ele>84</ele>
        <time>2018-04-10T22:04:22Z</time>
      </trkpt>
      <trkpt lat="49.30106" lon="1.79609">
        <ele>83</ele>
        <time>2018-04-10T22:05:22Z</time>
      </trkpt>
      <trkpt lat="49.30079" lon="1.79574">
        <ele>83</ele>
        <time>2018-04-10T22:06:22Z</time>
      </trkpt>
      <trkpt lat="49.29846" lon="1.79242">
        <ele>74</ele>
        <time>2018-04-10T22:07:22Z</time>
      </trkpt>
      <trkpt lat="49.29813" lon="1.79177">
        <ele>71</ele>
        <time>2018-04-10T22:08:22Z</time>
      </trkpt>
      <trkpt lat="49.29791" lon="1.79082">
        <ele>68</ele>
        <time>2018-04-10T22:09:22Z</time>
      </trkpt>
      <trkpt lat="49.29788" lon="1.78874">
        <ele>65</ele>
        <time>2018-04-10T22:10:22Z</time>
      </trkpt>
      <trkpt lat="49.29753" lon="1.78742">
        <ele>61</ele>
        <time>2018-04-10T22:11:22Z</time>
      </trkpt>
      <trkpt lat="49.29554" lon="1.78111">
        <ele>56</ele>
        <time>2018-04-10T22:12:22Z</time>
      </trkpt>
      <trkpt lat="49.29526" lon="1.78018">
        <ele>55</ele>
        <time>2018-04-10T22:13:22Z</time>
      </trkpt>
      <trkpt lat="49.29523" lon="1.78001">
        <ele>55</ele>
        <time>2018-04-10T22:14:22Z</time>
      </trkpt>
      <trkpt lat="49.29533" lon="1.77994">
        <ele>55</ele>
        <time>2018-04-10T22:15:22Z</time>
      </trkpt>
      <trkpt lat="49.29538" lon="1.77979">
        <ele>55</ele>
        <time>2018-04-10T22:16:22Z</time>
      </trkpt>
      <trkpt lat="49.29539" lon="1.7797">
        <ele>54</ele>
        <time>2018-04-10T22:17:22Z</time>
      </trkpt>
      <trkpt lat="49.29537" lon="1.7796">
        <ele>54</ele>
        <time>2018-04-10T22:18:22Z</time>
      </trkpt>
      <trkpt lat="49.29534" lon="1.77951">
        <ele>54</ele>
        <time>2018-04-10T22:19:22Z</time>
      </trkpt>
      <trkpt lat="49.29529" lon="1.77945">
        <ele>54</ele>
        <time>2018-04-10T22:20:22Z</time>
      </trkpt>
      <trkpt lat="49.29522" lon="1.77942">
        <ele>54</ele>
        <time>2018-04-10T22:21:22Z</time>
      </trkpt>
      <trkpt lat="49.29516" lon="1.77942">
        <ele>54</ele>
        <time>2018-04-10T22:22:22Z</time>
      </trkpt>
      <trkpt lat="49.29509" lon="1.77945">
        <ele>54</ele>
        <time>2018-04-10T22:23:22Z</time>
      </trkpt>
      <trkpt lat="49.29505" lon="1.77951">
        <ele>54</ele>
        <time>2018-04-10T22:24:22Z</time>
      </trkpt>
      <trkpt lat="49.295" lon="1.77967">
        <ele>54</ele>
        <time>2018-04-10T22:25:22Z</time>
      </trkpt>
      <trkpt lat="49.295" lon="1.77976">
        <ele>54</ele>
        <time>2018-04-10T22:26:22Z</time>
      </trkpt>
      <trkpt lat="49.29501" lon="1.77985">
        <ele>55</ele>
        <time>2018-04-10T22:27:22Z</time>
      </trkpt>
      <trkpt lat="49.29472" lon="1.77997">
        <ele>55</ele>
        <time>2018-04-10T22:28:22Z</time>
      </trkpt>
      <trkpt lat="49.29251" lon="1.78052">
        <ele>58</ele>
        <time>2018-04-10T22:29:22Z</time>
      </trkpt>
      <trkpt lat="49.29017" lon="1.78116">
        <ele>56</ele>
        <time>2018-04-10T22:30:22Z</time>
      </trkpt>
      <trkpt lat="49.28909" lon="1.78138">
        <ele>57</ele>
        <time>2018-04-10T22:31:22Z</time>
      </trkpt>
      <trkpt lat="49.28762" lon="1.78173">
        <ele>56</ele>
        <time>2018-04-10T22:32:22Z</time>
      </trkpt>
      <trkpt lat="49.28632" lon="1.78208">
        <ele>56</ele>
        <time>2018-04-10T22:33:22Z</time>
      </trkpt>
      <trkpt lat="49.28598" lon="1.78215">
        <ele>56</ele>
        <time>2018-04-10T22:34:22Z</time>
      </trkpt>
      <trkpt lat="49.2855" lon="1.78228">
        <ele>56</ele>
        <time>2018-04-10T22:35:22Z</time>
      </trkpt>
      <trkpt lat="49.28465" lon="1.78246">
        <ele>56</ele>
        <time>2018-04-10T22:36:22Z</time>
      </trkpt>
      <trkpt lat="49.28394" lon="1.78265">
        <ele>55</ele>
        <time>2018-04-10T22:37:22Z</time>
      </trkpt>
      <trkpt lat="49.28183" lon="1.78315">
        <ele>54</ele>
        <time>2018-04-10T22:38:22Z</time>
      </trkpt>
      <trkpt lat="49.27781" lon="1.78541">
        <ele>52</ele>
        <time>2018-04-10T22:39:22Z</time>
      </trkpt>
      <trkpt lat="49.27624" lon="1.78632">
        <ele>57</ele>
        <time>2018-04-10T22:40:22Z</time>
      </trkpt>
      <trkpt lat="49.27575" lon="1.78656">
        <ele>59</ele>
        <time>2018-04-10T22:41:22Z</time>
      </trkpt>
      <trkpt lat="49.27527" lon="1.78673">
        <ele>61</ele>
        <time>2018-04-10T22:42:22Z</time>
      </trkpt>
      <trkpt lat="49.27489" lon="1.78684">
        <ele>63</ele>
        <time>2018-04-10T22:43:22Z</time>
      </trkpt>
      <trkpt lat="49.27449" lon="1.78685">
        <ele>63</ele>
        <time>2018-04-10T22:44:22Z</time>
      </trkpt>
      <trkpt lat="49.27433" lon="1.78679">
        <ele>63</ele>
        <time>2018-04-10T22:45:22Z</time>
      </trkpt>
      <trkpt lat="49.27415" lon="1.78668">
        <ele>63</ele>
        <time>2018-04-10T22:46:22Z</time>
      </trkpt>
      <trkpt lat="49.27409" lon="1.78653">
        <ele>63</ele>
        <time>2018-04-10T22:47:22Z</time>
      </trkpt>
      <trkpt lat="49.274" lon="1.78641">
        <ele>64</ele>
        <time>2018-04-10T22:48:22Z</time>
      </trkpt>
      <trkpt lat="49.2739" lon="1.78636">
        <ele>64</ele>
        <time>2018-04-10T22:49:22Z</time>
      </trkpt>
      <trkpt lat="49.27378" lon="1.78636">
        <ele>64</ele>
        <time>2018-04-10T22:50:22Z</time>
      </trkpt>
      <trkpt lat="49.27368" lon="1.78642">
        <ele>65</ele>
        <time>2018-04-10T22:51:22Z</time>
      </trkpt>
      <trkpt lat="49.27359" lon="1.78653">
        <ele>65</ele>
        <time>2018-04-10T22:52:22Z</time>
      </trkpt>
      <trkpt lat="49.27353" lon="1.78668">
        <ele>65</ele>
        <time>2018-04-10T22:53:22Z</time>
      </trkpt>
      <trkpt lat="49.27352" lon="1.78686">
        <ele>66</ele>
        <time>2018-04-10T22:54:22Z</time>
      </trkpt>
      <trkpt lat="49.27354" lon="1.78703">
        <ele>66</ele>
        <time>2018-04-10T22:55:22Z</time>
      </trkpt>
      <trkpt lat="49.27359" lon="1.78718">
        <ele>66</ele>
        <time>2018-04-10T22:56:22Z</time>
      </trkpt>
      <trkpt lat="49.27368" lon="1.78729">
        <ele>65</ele>
        <time>2018-04-10T22:57:22Z</time>
      </trkpt>
      <trkpt lat="49.27379" lon="1.78735">
        <ele>65</ele>
        <time>2018-04-10T22:58:22Z</time>
      </trkpt>
      <trkpt lat="49.2739" lon="1.78735">
        <ele>64</ele>
        <time>2018-04-10T22:59:22Z</time>
      </trkpt>
      <trkpt lat="49.27401" lon="1.78729">
        <ele>64</ele>
        <time>2018-04-10T23:00:22Z</time>
      </trkpt>
      <trkpt lat="49.2741" lon="1.78717">
        <ele>63</ele>
        <time>2018-04-10T23:01:22Z</time>
      </trkpt>
      <trkpt lat="49.27416" lon="1.78699">
        <ele>63</ele>
        <time>2018-04-10T23:02:22Z</time>
      </trkpt>
      <trkpt lat="49.27443" lon="1.78696">
        <ele>63</ele>
        <time>2018-04-10T23:03:22Z</time>
      </trkpt>
      <trkpt lat="49.2746" lon="1.78764">
        <ele>64</ele>
        <time>2018-04-10T23:04:22Z</time>
      </trkpt>
      <trkpt lat="49.2746" lon="1.78764">
        <ele>64</ele>
        <time>2018-04-10T23:05:22Z</time>
      </trkpt>
      <trkpt lat="49.27443" lon="1.78696">
        <ele>63</ele>
        <time>2018-04-10T23:06:22Z</time>
      </trkpt>
      <trkpt lat="49.27489" lon="1.78684">
        <ele>63</ele>
        <time>2018-04-10T23:07:22Z</time>
      </trkpt>
      <trkpt lat="49.27449" lon="1.78685">
        <ele>63</ele>
        <time>2018-04-10T23:08:22Z</time>
      </trkpt>
      <trkpt lat="49.27433" lon="1.78679">
        <ele>63</ele>
        <time>2018-04-10T23:09:22Z</time>
      </trkpt>
      <trkpt lat="49.27415" lon="1.78668">
        <ele>63</ele>
        <time>2018-04-10T23:10:22Z</time>
      </trkpt>
      <trkpt lat="49.27409" lon="1.78653">
        <ele>63</ele>
        <time>2018-04-10T23:11:22Z</time>
      </trkpt>
      <trkpt lat="49.274" lon="1.78641">
        <ele>64</ele>
        <time>2018-04-10T23:12:22Z</time>
      </trkpt>
      <trkpt lat="49.2739" lon="1.78636">
        <ele>64</ele>
        <time>2018-04-10T23:13:22Z</time>
      </trkpt>
      <trkpt lat="49.27378" lon="1.78636">
        <ele>64</ele>
        <time>2018-04-10T23:14:22Z</time>
      </trkpt>
      <trkpt lat="49.27368" lon="1.78642">
        <ele>65</ele>
        <time>2018-04-10T23:15:22Z</time>
      </trkpt>
      <trkpt lat="49.27359" lon="1.78653">
        <ele>65</ele>
        <time>2018-04-10T23:16:22Z</time>
      </trkpt>
      <trkpt lat="49.27347" lon="1.78683">
        <ele>66</ele>
        <time>2018-04-10T23:17:22Z</time>
      </trkpt>
      <trkpt lat="49.27336" lon="1.78692">
        <ele>66</ele>
        <time>2018-04-10T23:18:22Z</time>
      </trkpt>
      <trkpt lat="49.27309" lon="1.78698">
        <ele>66</ele>
        <time>2018-04-10T23:19:22Z</time>
      </trkpt>
      <trkpt lat="49.27265" lon="1.78699">
        <ele>66</ele>
        <time>2018-04-10T23:20:22Z</time>
      </trkpt>
      <trkpt lat="49.27203" lon="1.78696">
        <ele>64</ele>
        <time>2018-04-10T23:21:22Z</time>
      </trkpt>
      <trkpt lat="49.27109" lon="1.78667">
        <ele>57</ele>
        <time>2018-04-10T23:22:22Z</time>
      </trkpt>
      <trkpt lat="49.2702" lon="1.78628">
        <ele>53</ele>
        <time>2018-04-10T23:23:22Z</time>
      </trkpt>
      <trkpt lat="49.26904" lon="1.78537">
        <ele>56</ele>
        <time>2018-04-10T23:24:22Z</time>
      </trkpt>
      <trkpt lat="49.26882" lon="1.78518">
        <ele>56</ele>
        <time>2018-04-10T23:25:22Z</time>
      </trkpt>
      <trkpt lat="49.26841" lon="1.7847">
        <ele>58</ele>
        <time>2018-04-10T23:26:22Z</time>
      </trkpt>
      <trkpt lat="49.26836" lon="1.7846">
        <ele>58</ele>
        <time>2018-04-10T23:27:22Z</time>
      </trkpt>
      <trkpt lat="49.26831" lon="1.78439">
        <ele>59</ele>
        <time>2018-04-10T23:28:22Z</time>
      </trkpt>
      <trkpt lat="49.26872" lon="1.78335">
        <ele>61</ele>
        <time>2018-04-10T23:29:22Z</time>
      </trkpt>
      <trkpt lat="49.26878" lon="1.78301">
        <ele>62</ele>
        <time>2018-04-10T23:30:22Z</time>
      </trkpt>
      <trkpt lat="49.26879" lon="1.7827">
        <ele>62</ele>
        <time>2018-04-10T23:31:22Z</time>
      </trkpt>
      <trkpt lat="49.26935" lon="1.78245">
        <ele>62</ele>
        <time>2018-04-10T23:32:22Z</time>
      </trkpt>
      <trkpt lat="49.27166" lon="1.7813">
        <ele>55</ele>
        <time>2018-04-10T23:33:22Z</time>
      </trkpt>
      <trkpt lat="49.27163" lon="1.78099">
        <ele>55</ele>
        <time>2018-04-10T23:34:22Z</time>
      </trkpt>
      <trkpt lat="49.27017" lon="1.77602">
        <ele>51</ele>
        <time>2018-04-10T23:35:22Z</time>
      </trkpt>
      <trkpt lat="49.27003" lon="1.77573">
        <ele>51</ele>
        <time>2018-04-10T23:36:22Z</time>
      </trkpt>
      <trkpt lat="49.27006" lon="1.77562">
        <ele>51</ele>
        <time>2018-04-10T23:37:22Z</time>
      </trkpt>
      <trkpt lat="49.27005" lon="1.77556">
        <ele>51</ele>
        <time>2018-04-10T23:38:22Z</time>
      </trkpt>
      <trkpt lat="49.27001" lon="1.77548">
        <ele>51</ele>
        <time>2018-04-10T23:39:22Z</time>
      </trkpt>
      <trkpt lat="49.26994" lon="1.77545">
        <ele>51</ele>
        <time>2018-04-10T23:40:22Z</time>
      </trkpt>
      <trkpt lat="49.26969" lon="1.77448">
        <ele>50</ele>
        <time>2018-04-10T23:41:22Z</time>
      </trkpt>
      <trkpt lat="49.26546" lon="1.76029">
        <ele>66</ele>
        <time>2018-04-10T23:42:22Z</time>
      </trkpt>
      <trkpt lat="49.26525" lon="1.7595">
        <ele>68</ele>
        <time>2018-04-10T23:43:22Z</time>
      </trkpt>
      <trkpt lat="49.26508" lon="1.75875">
        <ele>70</ele>
        <time>2018-04-10T23:44:22Z</time>
      </trkpt>
      <trkpt lat="49.26492" lon="1.75764">
        <ele>73</ele>
        <time>2018-04-10T23:45:22Z</time>
      </trkpt>
      <trkpt lat="49.26454" lon="1.7544">
        <ele>71</ele>
        <time>2018-04-10T23:46:22Z</time>
      </trkpt>
      <trkpt lat="49.26304" lon="1.74115">
        <ele>74</ele>
        <time>2018-04-10T23:47:22Z</time>
      </trkpt>
      <trkpt lat="49.26119" lon="1.7246">
        <ele>80</ele>
        <time>2018-04-10T23:48:22Z</time>
      </trkpt>
      <trkpt lat="49.26099" lon="1.72336">
        <ele>82</ele>
        <time>2018-04-10T23:49:22Z</time>
      </trkpt>
      <trkpt lat="49.26079" lon="1.72229">
        <ele>81</ele>
        <time>2018-04-10T23:50:22Z</time>
      </trkpt>
      <trkpt lat="49.26057" lon="1.72145">
        <ele>81</ele>
        <time>2018-04-10T23:51:22Z</time>
      </trkpt>
      <trkpt lat="49.26037" lon="1.72078">
        <ele>80</ele>
        <time>2018-04-10T23:52:22Z</time>
      </trkpt>
      <trkpt lat="49.2601" lon="1.72009">
        <ele>79</ele>
        <time>2018-04-10T23:53:22Z</time>
      </trkpt>
      <trkpt lat="49.25961" lon="1.71925">
        <ele>77</ele>
        <time>2018-04-10T23:54:22Z</time>
      </trkpt>
      <trkpt lat="49.25922" lon="1.71866">
        <ele>74</ele>
        <time>2018-04-10T23:55:22Z</time>
      </trkpt>
      <trkpt lat="49.25882" lon="1.71814">
        <ele>72</ele>
        <time>2018-04-10T23:56:22Z</time>
      </trkpt>
      <trkpt lat="49.25506" lon="1.71449">
        <ele>53</ele>
        <time>2018-04-10T23:57:22Z</time>
      </trkpt>
      <trkpt lat="49.25474" lon="1.71406">
        <ele>50</ele>
        <time>2018-04-10T23:58:22Z</time>
      </trkpt>
      <trkpt lat="49.25449" lon="1.71346">
        <ele>47</ele>
        <time>2018-04-10T23:59:22Z</time>
      </trkpt>
      <trkpt lat="49.25438" lon="1.71311">
        <ele>45</ele>
        <time>2018-04-11T00:00:22Z</time>
      </trkpt>
      <trkpt lat="49.25411" lon="1.71195">
        <ele>41</ele>
        <time>2018-04-11T00:01:22Z</time>
      </trkpt>
      <trkpt lat="49.25278" lon="1.70538">
        <ele>42</ele>
        <time>2018-04-11T00:02:22Z</time>
      </trkpt>
      <trkpt lat="49.25174" lon="1.70085">
        <ele>43</ele>
        <time>2018-04-11T00:03:22Z</time>
      </trkpt>
      <trkpt lat="49.25171" lon="1.70068">
        <ele>43</ele>
        <time>2018-04-11T00:04:22Z</time>
      </trkpt>
      <trkpt lat="49.25172" lon="1.70061">
        <ele>43</ele>
        <time>2018-04-11T00:05:22Z</time>
      </trkpt>
      <trkpt lat="49.25172" lon="1.70061">
        <ele>43</ele>
        <time>2018-04-11T00:06:22Z</time>
      </trkpt>
      <trkpt lat="49.25171" lon="1.70068">
        <ele>43</ele>
        <time>2018-04-11T00:07:22Z</time>
      </trkpt>
      <trkpt lat="49.25151" lon="1.70049">
        <ele>43</ele>
        <time>2018-04-11T00:08:22Z</time>
      </trkpt>
      <trkpt lat="49.25121" lon="1.69982">
        <ele>44</ele>
        <time>2018-04-11T00:09:22Z</time>
      </trkpt>
      <trkpt lat="49.25099" lon="1.69924">
        <ele>45</ele>
        <time>2018-04-11T00:10:22Z</time>
      </trkpt>
      <trkpt lat="49.25102" lon="1.69877">
        <ele>47</ele>
        <time>2018-04-11T00:11:22Z</time>
      </trkpt>
      <trkpt lat="49.25099" lon="1.69881">
        <ele>46</ele>
        <time>2018-04-11T00:12:22Z</time>
      </trkpt>
      <trkpt lat="49.2509" lon="1.69881">
        <ele>46</ele>
        <time>2018-04-11T00:13:22Z</time>
      </trkpt>
      <trkpt lat="49.25072" lon="1.69874">
        <ele>46</ele>
        <time>2018-04-11T00:14:22Z</time>
      </trkpt>
      <trkpt lat="49.25051" lon="1.6987">
        <ele>46</ele>
        <time>2018-04-11T00:15:22Z</time>
      </trkpt>
      <trkpt lat="49.2505" lon="1.69863">
        <ele>47</ele>
        <time>2018-04-11T00:16:22Z</time>
      </trkpt>
      <trkpt lat="49.25051" lon="1.69844">
        <ele>47</ele>
        <time>2018-04-11T00:17:22Z</time>
      </trkpt>
      <trkpt lat="49.25046" lon="1.69817">
        <ele>49</ele>
        <time>2018-04-11T00:18:22Z</time>
      </trkpt>
      <trkpt lat="49.2496" lon="1.69819">
        <ele>49</ele>
        <time>2018-04-11T00:19:22Z</time>
      </trkpt>
      <trkpt lat="49.24939" lon="1.69828">
        <ele>48</ele>
        <time>2018-04-11T00:20:22Z</time>
      </trkpt>
      <trkpt lat="49.24919" lon="1.69858">
        <ele>46</ele>
        <time>2018-04-11T00:21:22Z</time>
      </trkpt>
      <trkpt lat="49.2491" lon="1.69878">
        <ele>45</ele>
        <time>2018-04-11T00:22:22Z</time>
      </trkpt>
      <trkpt lat="49.24887" lon="1.6988">
        <ele>46</ele>
        <time>2018-04-11T00:23:22Z</time>
      </trkpt>
      <trkpt lat="49.24859" lon="1.69871">
        <ele>47</ele>
        <time>2018-04-11T00:24:22Z</time>
      </trkpt>
      <trkpt lat="49.24787" lon="1.69823">
        <ele>51</ele>
        <time>2018-04-11T00:25:22Z</time>
      </trkpt>
      <trkpt lat="49.24754" lon="1.69813">
        <ele>52</ele>
        <time>2018-04-11T00:26:22Z</time>
      </trkpt>
      <trkpt lat="49.246" lon="1.69827">
        <ele>55</ele>
        <time>2018-04-11T00:27:22Z</time>
      </trkpt>
      <trkpt lat="49.24556" lon="1.69844">
        <ele>56</ele>
        <time>2018-04-11T00:28:22Z</time>
      </trkpt>
      <trkpt lat="49.24531" lon="1.69864">
        <ele>55</ele>
        <time>2018-04-11T00:29:22Z</time>
      </trkpt>
      <trkpt lat="49.24468" lon="1.69949">
        <ele>49</ele>
        <time>2018-04-11T00:30:22Z</time>
      </trkpt>
      <trkpt lat="49.24433" lon="1.69985">
        <ele>48</ele>
        <time>2018-04-11T00:31:22Z</time>
      </trkpt>
      <trkpt lat="49.24395" lon="1.70011">
        <ele>47</ele>
        <time>2018-04-11T00:32:22Z</time>
      </trkpt>
      <trkpt lat="49.24392" lon="1.70011">
        <ele>47</ele>
        <time>2018-04-11T00:33:22Z</time>
      </trkpt>
      <trkpt lat="49.24391" lon="1.70101">
        <ele>41</ele>
        <time>2018-04-11T00:34:22Z</time>
      </trkpt>
      <trkpt lat="49.24362" lon="1.70088">
        <ele>42</ele>
        <time>2018-04-11T00:35:22Z</time>
      </trkpt>
      <trkpt lat="49.24106" lon="1.70009">
        <ele>46</ele>
        <time>2018-04-11T00:36:22Z</time>
      </trkpt>
      <trkpt lat="49.24058" lon="1.69984">
        <ele>46</ele>
        <time>2018-04-11T00:37:22Z</time>
      </trkpt>
      <trkpt lat="49.23913" lon="1.69888">
        <ele>44</ele>
        <time>2018-04-11T00:38:22Z</time>
      </trkpt>
      <trkpt lat="49.23769" lon="1.69788">
        <ele>42</ele>
        <time>2018-04-11T00:39:22Z</time>
      </trkpt>
      <trkpt lat="49.23685" lon="1.69738">
        <ele>41</ele>
        <time>2018-04-11T00:40:22Z</time>
      </trkpt>
      <trkpt lat="49.23592" lon="1.69704">
        <ele>42</ele>
        <time>2018-04-11T00:41:22Z</time>
      </trkpt>
      <trkpt lat="49.23543" lon="1.69697">
        <ele>42</ele>
        <time>2018-04-11T00:42:22Z</time>
      </trkpt>
      <trkpt lat="49.23477" lon="1.69693">
        <ele>41</ele>
        <time>2018-04-11T00:43:22Z</time>
      </trkpt>
      <trkpt lat="49.2336" lon="1.69693">
        <ele>41</ele>
        <time>2018-04-11T00:44:22Z</time>
      </trkpt>
      <trkpt lat="49.23287" lon="1.69684">
        <ele>41</ele>
        <time>2018-04-11T00:45:22Z</time>
      </trkpt>
      <trkpt lat="49.23214" lon="1.69662">
        <ele>41</ele>
        <time>2018-04-11T00:46:22Z</time>
      </trkpt>
      <trkpt lat="49.23138" lon="1.69623">
        <ele>41</ele>
        <time>2018-04-11T00:47:22Z</time>
      </trkpt>
      <trkpt lat="49.2308" lon="1.69578">
        <ele>41</ele>
        <time>2018-04-11T00:48:22Z</time>
      </trkpt>
      <trkpt lat="49.22898" lon="1.69408">
        <ele>41</ele>
        <time>2018-04-11T00:49:22Z</time>
      </trkpt>
      <trkpt lat="49.22589" lon="1.69108">
        <ele>41</ele>
        <time>2018-04-11T00:50:22Z</time>
      </trkpt>
      <trkpt lat="49.22499" lon="1.68985">
        <ele>39</ele>
        <time>2018-04-11T00:51:22Z</time>
      </trkpt>
      <trkpt lat="49.21946" lon="1.68124">
        <ele>40</ele>
        <time>2018-04-11T00:52:22Z</time>
      </trkpt>
      <trkpt lat="49.21883" lon="1.68032">
        <ele>38</ele>
        <time>2018-04-11T00:53:22Z</time>
      </trkpt>
      <trkpt lat="49.21805" lon="1.67896">
        <ele>40</ele>
        <time>2018-04-11T00:54:22Z</time>
      </trkpt>
      <trkpt lat="49.21672" lon="1.67638">
        <ele>41</ele>
        <time>2018-04-11T00:55:22Z</time>
      </trkpt>
      <trkpt lat="49.21575" lon="1.67464">
        <ele>39</ele>
        <time>2018-04-11T00:56:22Z</time>
      </trkpt>
      <trkpt lat="49.21578" lon="1.67454">
        <ele>39</ele>
        <time>2018-04-11T00:57:22Z</time>
      </trkpt>
      <trkpt lat="49.21579" lon="1.67443">
        <ele>39</ele>
        <time>2018-04-11T00:58:22Z</time>
      </trkpt>
      <trkpt lat="49.21577" lon="1.67433">
        <ele>39</ele>
        <time>2018-04-11T00:59:22Z</time>
      </trkpt>
      <trkpt lat="49.21571" lon="1.67424">
        <ele>39</ele>
        <time>2018-04-11T01:00:22Z</time>
      </trkpt>
      <trkpt lat="49.21518" lon="1.67387">
        <ele>37</ele>
        <time>2018-04-11T01:01:22Z</time>
      </trkpt>
      <trkpt lat="49.21509" lon="1.67371">
        <ele>37</ele>
        <time>2018-04-11T01:02:22Z</time>
      </trkpt>
      <trkpt lat="49.21379" lon="1.67219">
        <ele>37</ele>
        <time>2018-04-11T01:03:22Z</time>
      </trkpt>
      <trkpt lat="49.21275" lon="1.67115">
        <ele>37</ele>
        <time>2018-04-11T01:04:22Z</time>
      </trkpt>
      <trkpt lat="49.21159" lon="1.67037">
        <ele>37</ele>
        <time>2018-04-11T01:05:22Z</time>
      </trkpt>
      <trkpt lat="49.20759" lon="1.66877">
        <ele>39</ele>
        <time>2018-04-11T01:06:22Z</time>
      </trkpt>
      <trkpt lat="49.20604" lon="1.6683">
        <ele>37</ele>
        <time>2018-04-11T01:07:22Z</time>
      </trkpt>
      <trkpt lat="49.19559" lon="1.66538">
        <ele>39</ele>
        <time>2018-04-11T01:08:22Z</time>
      </trkpt>
      <trkpt lat="49.18521" lon="1.66388">
        <ele>31</ele>
        <time>2018-04-11T01:09:22Z</time>
      </trkpt>
      <trkpt lat="49.17865" lon="1.66379">
        <ele>34</ele>
        <time>2018-04-11T01:10:22Z</time>
      </trkpt>
      <trkpt lat="49.17803" lon="1.66391">
        <ele>37</ele>
        <time>2018-04-11T01:11:22Z</time>
      </trkpt>
      <trkpt lat="49.17798" lon="1.6637">
        <ele>40</ele>
        <time>2018-04-11T01:12:22Z</time>
      </trkpt>
      <trkpt lat="49.17742" lon="1.66403">
        <ele>41</ele>
        <time>2018-04-11T01:13:22Z</time>
      </trkpt>
      <trkpt lat="49.17582" lon="1.66515">
        <ele>47</ele>
        <time>2018-04-11T01:14:22Z</time>
      </trkpt>
      <trkpt lat="49.17483" lon="1.66595">
        <ele>46</ele>
        <time>2018-04-11T01:15:22Z</time>
      </trkpt>
      <trkpt lat="49.17265" lon="1.66737">
        <ele>45</ele>
        <time>2018-04-11T01:16:22Z</time>
      </trkpt>
      <trkpt lat="49.17187" lon="1.66768">
        <ele>42</ele>
        <time>2018-04-11T01:17:22Z</time>
      </trkpt>
      <trkpt lat="49.17145" lon="1.6677">
        <ele>41</ele>
        <time>2018-04-11T01:18:22Z</time>
      </trkpt>
      <trkpt lat="49.17033" lon="1.66731">
        <ele>40</ele>
        <time>2018-04-11T01:19:22Z</time>
      </trkpt>
      <trkpt lat="49.16983" lon="1.66718">
        <ele>38</ele>
        <time>2018-04-11T01:20:22Z</time>
      </trkpt>
      <trkpt lat="49.16912" lon="1.66678">
        <ele>38</ele>
        <time>2018-04-11T01:21:22Z</time>
      </trkpt>
      <trkpt lat="49.16806" lon="1.66583">
        <ele>39</ele>
        <time>2018-04-11T01:22:22Z</time>
      </trkpt>
      <trkpt lat="49.16692" lon="1.66475">
        <ele>42</ele>
        <time>2018-04-11T01:23:22Z</time>
      </trkpt>
      <trkpt lat="49.16586" lon="1.66379">
        <ele>42</ele>
        <time>2018-04-11T01:24:22Z</time>
      </trkpt>
      <trkpt lat="49.16527" lon="1.66306">
        <ele>43</ele>
        <time>2018-04-11T01:25:22Z</time>
      </trkpt>
      <trkpt lat="49.16478" lon="1.66256">
        <ele>40</ele>
        <time>2018-04-11T01:26:22Z</time>
      </trkpt>
      <trkpt lat="49.16448" lon="1.66249">
        <ele>39</ele>
        <time>2018-04-11T01:27:22Z</time>
      </trkpt>
      <trkpt lat="49.16435" lon="1.66253">
        <ele>38</ele>
        <time>2018-04-11T01:28:22Z</time>
      </trkpt>
      <trkpt lat="49.16284" lon="1.66242">
        <ele>33</ele>
        <time>2018-04-11T01:29:22Z</time>
      </trkpt>
      <trkpt lat="49.16257" lon="1.66232">
        <ele>32</ele>
        <time>2018-04-11T01:30:22Z</time>
      </trkpt>
      <trkpt lat="49.16236" lon="1.66208">
        <ele>31</ele>
        <time>2018-04-11T01:31:22Z</time>
      </trkpt>
      <trkpt lat="49.16137" lon="1.66046">
        <ele>29</ele>
        <time>2018-04-11T01:32:22Z</time>
      </trkpt>
      <trkpt lat="49.16042" lon="1.65897">
        <ele>31</ele>
        <time>2018-04-11T01:33:22Z</time>
      </trkpt>
      <trkpt lat="49.16042" lon="1.65897">
        <ele>31</ele>
        <time>2018-04-11T01:34:22Z</time>
      </trkpt>
      <trkpt lat="49.1598" lon="1.658">
        <ele>32</ele>
        <time>2018-04-11T01:35:22Z</time>
      </trkpt>
      <trkpt lat="49.15945" lon="1.65764">
        <ele>33</ele>
        <time>2018-04-11T01:36:22Z</time>
      </trkpt>
      <trkpt lat="49.15677" lon="1.65605">
        <ele>33</ele>
        <time>2018-04-11T01:37:22Z</time>
      </trkpt>
      <trkpt lat="49.15448" lon="1.65473">
        <ele>35</ele>
        <time>2018-04-11T01:38:22Z</time>
      </trkpt>
      <trkpt lat="49.15374" lon="1.65437">
        <ele>35</ele>
        <time>2018-04-11T01:39:22Z</time>
      </trkpt>
      <trkpt lat="49.15104" lon="1.65316">
        <ele>36</ele>
        <time>2018-04-11T01:40:22Z</time>
      </trkpt>
      <trkpt lat="49.15028" lon="1.65278">
        <ele>36</ele>
        <time>2018-04-11T01:41:22Z</time>
      </trkpt>
      <trkpt lat="49.1463" lon="1.65263">
        <ele>39</ele>
        <time>2018-04-11T01:42:22Z</time>
      </trkpt>
      <trkpt lat="49.14569" lon="1.65256">
        <ele>39</ele>
        <time>2018-04-11T01:43:22Z</time>
      </trkpt>
      <trkpt lat="49.1444" lon="1.65232">
        <ele>39</ele>
        <time>2018-04-11T01:44:22Z</time>
      </trkpt>
      <trkpt lat="49.14417" lon="1.65225">
        <ele>39</ele>
        <time>2018-04-11T01:45:22Z</time>
      </trkpt>
      <trkpt lat="49.14372" lon="1.65199">
        <ele>45</ele>
        <time>2018-04-11T01:46:22Z</time>
      </trkpt>
      <trkpt lat="49.1436" lon="1.65198">
        <ele>45</ele>
        <time>2018-04-11T01:47:22Z</time>
      </trkpt>
      <trkpt lat="49.14351" lon="1.65205">
        <ele>44</ele>
        <time>2018-04-11T01:48:22Z</time>
      </trkpt>
      <trkpt lat="49.14336" lon="1.6522">
        <ele>41</ele>
        <time>2018-04-11T01:49:22Z</time>
      </trkpt>
      <trkpt lat="49.14167" lon="1.65177">
        <ele>41</ele>
        <time>2018-04-11T01:50:22Z</time>
      </trkpt>
      <trkpt lat="49.14112" lon="1.65174">
        <ele>46</ele>
        <time>2018-04-11T01:51:22Z</time>
      </trkpt>
      <trkpt lat="49.14076" lon="1.65183">
        <ele>47</ele>
        <time>2018-04-11T01:52:22Z</time>
      </trkpt>
      <trkpt lat="49.14005" lon="1.65216">
        <ele>46</ele>
        <time>2018-04-11T01:53:22Z</time>
      </trkpt>
      <trkpt lat="49.13957" lon="1.65258">
        <ele>40</ele>
        <time>2018-04-11T01:54:22Z</time>
      </trkpt>
      <trkpt lat="49.13889" lon="1.65331">
        <ele>33</ele>
        <time>2018-04-11T01:55:22Z</time>
      </trkpt>
      <trkpt lat="49.13866" lon="1.6535">
        <ele>33</ele>
        <time>2018-04-11T01:56:22Z</time>
      </trkpt>
      <trkpt lat="49.1387" lon="1.65364">
        <ele>32</ele>
        <time>2018-04-11T01:57:22Z</time>
      </trkpt>
      <trkpt lat="49.13848" lon="1.65374">
        <ele>32</ele>
        <time>2018-04-11T01:58:22Z</time>
      </trkpt>
      <trkpt lat="49.13831" lon="1.65386">
        <ele>31</ele>
        <time>2018-04-11T01:59:22Z</time>
      </trkpt>
      <trkpt lat="49.13818" lon="1.65401">
        <ele>31</ele>
        <time>2018-04-11T02:00:22Z</time>
      </trkpt>
      <trkpt lat="49.13808" lon="1.65389">
        <ele>31</ele>
        <time>2018-04-11T02:01:22Z</time>
      </trkpt>
      <trkpt lat="49.13747" lon="1.65403">
        <ele>30</ele>
        <time>2018-04-11T02:02:22Z</time>
      </trkpt>
      <trkpt lat="49.13693" lon="1.65408">
        <ele>29</ele>
        <time>2018-04-11T02:03:22Z</time>
      </trkpt>
      <trkpt lat="49.13654" lon="1.65407">
        <ele>29</ele>
        <time>2018-04-11T02:04:22Z</time>
      </trkpt>
      <trkpt lat="49.13592" lon="1.65392">
        <ele>29</ele>
        <time>2018-04-11T02:05:22Z</time>
      </trkpt>
      <trkpt lat="49.13499" lon="1.65348">
        <ele>32</ele>
        <time>2018-04-11T02:06:22Z</time>
      </trkpt>
      <trkpt lat="49.13493" lon="1.65342">
        <ele>32</ele>
        <time>2018-04-11T02:07:22Z</time>
      </trkpt>
      <trkpt lat="49.13395" lon="1.65293">
        <ele>35</ele>
        <time>2018-04-11T02:08:22Z</time>
      </trkpt>
      <trkpt lat="49.13321" lon="1.65252">
        <ele>30</ele>
        <time>2018-04-11T02:09:22Z</time>
      </trkpt>
      <trkpt lat="49.13232" lon="1.65181">
        <ele>29</ele>
        <time>2018-04-11T02:10:22Z</time>
      </trkpt>
      <trkpt lat="49.13149" lon="1.651">
        <ele>30</ele>
        <time>2018-04-11T02:11:22Z</time>
      </trkpt>
      <trkpt lat="49.13089" lon="1.65028">
        <ele>30</ele>
        <time>2018-04-11T02:12:22Z</time>
      </trkpt>
      <trkpt lat="49.12942" lon="1.64796">
        <ele>32</ele>
        <time>2018-04-11T02:13:22Z</time>
      </trkpt>
      <trkpt lat="49.12942" lon="1.64796">
        <ele>32</ele>
        <time>2018-04-11T02:14:22Z</time>
      </trkpt>
      <trkpt lat="49.12907" lon="1.64743">
        <ele>33</ele>
        <time>2018-04-11T02:15:22Z</time>
      </trkpt>
      <trkpt lat="49.12898" lon="1.64728">
        <ele>33</ele>
        <time>2018-04-11T02:16:22Z</time>
      </trkpt>
      <trkpt lat="49.12725" lon="1.6446">
        <ele>35</ele>
        <time>2018-04-11T02:17:22Z</time>
      </trkpt>
      <trkpt lat="49.12656" lon="1.64375">
        <ele>35</ele>
        <time>2018-04-11T02:18:22Z</time>
      </trkpt>
      <trkpt lat="49.11972" lon="1.63687">
        <ele>34</ele>
        <time>2018-04-11T02:19:22Z</time>
      </trkpt>
      <trkpt lat="49.11632" lon="1.63379">
        <ele>31</ele>
        <time>2018-04-11T02:20:22Z</time>
      </trkpt>
      <trkpt lat="49.11611" lon="1.63357">
        <ele>31</ele>
        <time>2018-04-11T02:21:22Z</time>
      </trkpt>
      <trkpt lat="49.11577" lon="1.63317">
        <ele>32</ele>
        <time>2018-04-11T02:22:22Z</time>
      </trkpt>
      <trkpt lat="49.11433" lon="1.63094">
        <ele>31</ele>
        <time>2018-04-11T02:23:22Z</time>
      </trkpt>
      <trkpt lat="49.11334" lon="1.62885">
        <ele>31</ele>
        <time>2018-04-11T02:24:22Z</time>
      </trkpt>
      <trkpt lat="49.11293" lon="1.6282">
        <ele>31</ele>
        <time>2018-04-11T02:25:22Z</time>
      </trkpt>
      <trkpt lat="49.1125" lon="1.62768">
        <ele>30</ele>
        <time>2018-04-11T02:26:22Z</time>
      </trkpt>
      <trkpt lat="49.11173" lon="1.627">
        <ele>29</ele>
        <time>2018-04-11T02:27:22Z</time>
      </trkpt>
      <trkpt lat="49.11004" lon="1.62591">
        <ele>28</ele>
        <time>2018-04-11T02:28:22Z</time>
      </trkpt>
      <trkpt lat="49.10976" lon="1.62569">
        <ele>27</ele>
        <time>2018-04-11T02:29:22Z</time>
      </trkpt>
      <trkpt lat="49.10943" lon="1.62539">
        <ele>27</ele>
        <time>2018-04-11T02:30:22Z</time>
      </trkpt>
      <trkpt lat="49.10918" lon="1.62513">
        <ele>27</ele>
        <time>2018-04-11T02:31:22Z</time>
      </trkpt>
      <trkpt lat="49.1043" lon="1.61944">
        <ele>24</ele>
        <time>2018-04-11T02:32:22Z</time>
      </trkpt>
      <trkpt lat="49.1048" lon="1.61857">
        <ele>25</ele>
        <time>2018-04-11T02:33:22Z</time>
      </trkpt>
      <trkpt lat="49.10421" lon="1.61809">
        <ele>27</ele>
        <time>2018-04-11T02:34:22Z</time>
      </trkpt>
      <trkpt lat="49.10404" lon="1.61792">
        <ele>27</ele>
        <time>2018-04-11T02:35:22Z</time>
      </trkpt>
      <trkpt lat="49.10373" lon="1.61754">
        <ele>27</ele>
        <time>2018-04-11T02:36:22Z</time>
      </trkpt>
      <trkpt lat="49.10251" lon="1.616">
        <ele>26</ele>
        <time>2018-04-11T02:37:22Z</time>
      </trkpt>
      <trkpt lat="49.10195" lon="1.61532">
        <ele>26</ele>
        <time>2018-04-11T02:38:22Z</time>
      </trkpt>
      <trkpt lat="49.10134" lon="1.61462">
        <ele>25</ele>
        <time>2018-04-11T02:39:22Z</time>
      </trkpt>
      <trkpt lat="49.10063" lon="1.6139">
        <ele>24</ele>
        <time>2018-04-11T02:40:22Z</time>
      </trkpt>
      <trkpt lat="49.10047" lon="1.6137">
        <ele>25</ele>
        <time>2018-04-11T02:41:22Z</time>
      </trkpt>
      <trkpt lat="49.09944" lon="1.61218">
        <ele>23</ele>
        <time>2018-04-11T02:42:22Z</time>
      </trkpt>
      <trkpt lat="49.09864" lon="1.61098">
        <ele>23</ele>
        <time>2018-04-11T02:43:22Z</time>
      </trkpt>
      <trkpt lat="49.09843" lon="1.6107">
        <ele>23</ele>
        <time>2018-04-11T02:44:22Z</time>
      </trkpt>
      <trkpt lat="49.09728" lon="1.60946">
        <ele>23</ele>
        <time>2018-04-11T02:45:22Z</time>
      </trkpt>
      <trkpt lat="49.0967" lon="1.6089">
        <ele>22</ele>
        <time>2018-04-11T02:46:22Z</time>
      </trkpt>
      <trkpt lat="49.09617" lon="1.60851">
        <ele>23</ele>
        <time>2018-04-11T02:47:22Z</time>
      </trkpt>
      <trkpt lat="49.09619" lon="1.60843">
        <ele>23</ele>
        <time>2018-04-11T02:48:22Z</time>
      </trkpt>
      <trkpt lat="49.09618" lon="1.60834">
        <ele>24</ele>
        <time>2018-04-11T02:49:22Z</time>
      </trkpt>
      <trkpt lat="49.09613" lon="1.60828">
        <ele>24</ele>
        <time>2018-04-11T02:50:22Z</time>
      </trkpt>
      <trkpt lat="49.09608" lon="1.60826">
        <ele>24</ele>
        <time>2018-04-11T02:51:22Z</time>
      </trkpt>
      <trkpt lat="49.09603" lon="1.60829">
        <ele>24</ele>
        <time>2018-04-11T02:52:22Z</time>
      </trkpt>
      <trkpt lat="49.09599" lon="1.60836">
        <ele>24</ele>
        <time>2018-04-11T02:53:22Z</time>
      </trkpt>
      <trkpt lat="49.09506" lon="1.6077">
        <ele>25</ele>
        <time>2018-04-11T02:54:22Z</time>
      </trkpt>
      <trkpt lat="49.09463" lon="1.60731">
        <ele>25</ele>
        <time>2018-04-11T02:55:22Z</time>
      </trkpt>
      <trkpt lat="49.09433" lon="1.60696">
        <ele>25</ele>
        <time>2018-04-11T02:56:22Z</time>
      </trkpt>
      <trkpt lat="49.09291" lon="1.60496">
        <ele>26</ele>
        <time>2018-04-11T02:57:22Z</time>
      </trkpt>
      <trkpt lat="49.09236" lon="1.60416">
        <ele>27</ele>
        <time>2018-04-11T02:58:22Z</time>
      </trkpt>
      <trkpt lat="49.09228" lon="1.60397">
        <ele>27</ele>
        <time>2018-04-11T02:59:22Z</time>
      </trkpt>
      <trkpt lat="49.09226" lon="1.60386">
        <ele>27</ele>
        <time>2018-04-11T03:00:22Z</time>
      </trkpt>
      <trkpt lat="49.09221" lon="1.60381">
        <ele>27</ele>
        <time>2018-04-11T03:01:22Z</time>
      </trkpt>
      <trkpt lat="49.09217" lon="1.6038">
        <ele>27</ele>
        <time>2018-04-11T03:02:22Z</time>
      </trkpt>
      <trkpt lat="49.0922" lon="1.6036">
        <ele>27</ele>
        <time>2018-04-11T03:03:22Z</time>
      </trkpt>
      <trkpt lat="49.0926" lon="1.60209">
        <ele>32</ele>
        <time>2018-04-11T03:04:22Z</time>
      </trkpt>
      <trkpt lat="49.0918" lon="1.60196">
        <ele>30</ele>
        <time>2018-04-11T03:05:22Z</time>
      </trkpt>
      <trkpt lat="49.09146" lon="1.60193">
        <ele>29</ele>
        <time>2018-04-11T03:06:22Z</time>
      </trkpt>
      <trkpt lat="49.09131" lon="1.60196">
        <ele>28</ele>
        <time>2018-04-11T03:07:22Z</time>
      </trkpt>
      <trkpt lat="49.09116" lon="1.60195">
        <ele>27</ele>
        <time>2018-04-11T03:08:22Z</time>
      </trkpt>
      <trkpt lat="49.09117" lon="1.60187">
        <ele>27</ele>
        <time>2018-04-11T03:09:22Z</time>
      </trkpt>
      <trkpt lat="49.09115" lon="1.6018">
        <ele>27</ele>
        <time>2018-04-11T03:10:22Z</time>
      </trkpt>
      <trkpt lat="49.09109" lon="1.60175">
        <ele>27</ele>
        <time>2018-04-11T03:11:22Z</time>
      </trkpt>
      <trkpt lat="49.09105" lon="1.60176">
        <ele>27</ele>
        <time>2018-04-11T03:12:22Z</time>
      </trkpt>
      <trkpt lat="49.091" lon="1.60184">
        <ele>27</ele>
        <time>2018-04-11T03:13:22Z</time>
      </trkpt>
      <trkpt lat="49.09095" lon="1.60187">
        <ele>26</ele>
        <time>2018-04-11T03:14:22Z</time>
      </trkpt>
      <trkpt lat="49.0909" lon="1.60185">
        <ele>26</ele>
        <time>2018-04-11T03:15:22Z</time>
      </trkpt>
      <trkpt lat="49.0906" lon="1.60142">
        <ele>26</ele>
        <time>2018-04-11T03:16:22Z</time>
      </trkpt>
      <trkpt lat="49.0902" lon="1.60061">
        <ele>25</ele>
        <time>2018-04-11T03:17:22Z</time>
      </trkpt>
      <trkpt lat="49.08968" lon="1.59976">
        <ele>25</ele>
        <time>2018-04-11T03:18:22Z</time>
      </trkpt>
      <trkpt lat="49.0891" lon="1.59869">
        <ele>24</ele>
        <time>2018-04-11T03:19:22Z</time>
      </trkpt>
      <trkpt lat="49.08886" lon="1.59831">
        <ele>24</ele>
        <time>2018-04-11T03:20:22Z</time>
      </trkpt>
      <trkpt lat="49.0887" lon="1.59798">
        <ele>24</ele>
        <time>2018-04-11T03:21:22Z</time>
      </trkpt>
      <trkpt lat="49.08828" lon="1.59699">
        <ele>24</ele>
        <time>2018-04-11T03:22:22Z</time>
      </trkpt>
      <trkpt lat="49.08632" lon="1.59214">
        <ele>24</ele>
        <time>2018-04-11T03:23:22Z</time>
      </trkpt>
      <trkpt lat="49.08574" lon="1.59081">
        <ele>23</ele>
        <time>2018-04-11T03:24:22Z</time>
      </trkpt>
      <trkpt lat="49.08563" lon="1.59061">
        <ele>23</ele>
        <time>2018-04-11T03:25:22Z</time>
      </trkpt>
      <trkpt lat="49.08553" lon="1.59049">
        <ele>23</ele>
        <time>2018-04-11T03:26:22Z</time>
      </trkpt>
      <trkpt lat="49.08525" lon="1.59022">
        <ele>23</ele>
        <time>2018-04-11T03:27:22Z</time>
      </trkpt>
      <trkpt lat="49.08523" lon="1.58985">
        <ele>24</ele>
        <time>2018-04-11T03:28:22Z</time>
      </trkpt>
      <trkpt lat="49.08512" lon="1.58943">
        <ele>25</ele>
        <time>2018-04-11T03:29:22Z</time>
      </trkpt>
      <trkpt lat="49.08501" lon="1.58915">
        <ele>25</ele>
        <time>2018-04-11T03:30:22Z</time>
      </trkpt>
      <trkpt lat="49.08394" lon="1.58689">
        <ele>30</ele>
        <time>2018-04-11T03:31:22Z</time>
      </trkpt>
      <trkpt lat="49.08361" lon="1.58614">
        <ele>33</ele>
        <time>2018-04-11T03:32:22Z</time>
      </trkpt>
      <trkpt lat="49.08338" lon="1.58574">
        <ele>31</ele>
        <time>2018-04-11T03:33:22Z</time>
      </trkpt>
      <trkpt lat="49.08288" lon="1.58492">
        <ele>29</ele>
        <time>2018-04-11T03:34:22Z</time>
      </trkpt>
      <trkpt lat="49.08276" lon="1.58466">
        <ele>29</ele>
        <time>2018-04-11T03:35:22Z</time>
      </trkpt>
      <trkpt lat="49.08261" lon="1.58421">
        <ele>30</ele>
        <time>2018-04-11T03:36:22Z</time>
      </trkpt>
      <trkpt lat="49.08207" lon="1.58244">
        <ele>33</ele>
        <time>2018-04-11T03:37:22Z</time>
      </trkpt>
      <trkpt lat="49.08012" lon="1.57688">
        <ele>31</ele>
        <time>2018-04-11T03:38:22Z</time>
      </trkpt>
      <trkpt lat="49.07998" lon="1.57627">
        <ele>30</ele>
        <time>2018-04-11T03:39:22Z</time>
      </trkpt>
      <trkpt lat="49.07984" lon="1.57521">
        <ele>33</ele>
        <time>2018-04-11T03:40:22Z</time>
      </trkpt>
      <trkpt lat="49.07965" lon="1.57281">
        <ele>36</ele>
        <time>2018-04-11T03:41:22Z</time>
      </trkpt>
      <trkpt lat="49.07952" lon="1.57193">
        <ele>34</ele>
        <time>2018-04-11T03:42:22Z</time>
      </trkpt>
      <trkpt lat="49.07935" lon="1.57099">
        <ele>30</ele>
        <time>2018-04-11T03:43:22Z</time>
      </trkpt>
      <trkpt lat="49.07916" lon="1.56789">
        <ele>27</ele>
        <time>2018-04-11T03:44:22Z</time>
      </trkpt>
      <trkpt lat="49.07896" lon="1.56638">
        <ele>27</ele>
        <time>2018-04-11T03:45:22Z</time>
      </trkpt>
      <trkpt lat="49.07887" lon="1.56579">
        <ele>25</ele>
        <time>2018-04-11T03:46:22Z</time>
      </trkpt>
      <trkpt lat="49.07859" lon="1.56453">
        <ele>23</ele>
        <time>2018-04-11T03:47:22Z</time>
      </trkpt>
      <trkpt lat="49.0785" lon="1.56403">
        <ele>23</ele>
        <time>2018-04-11T03:48:22Z</time>
      </trkpt>
      <trkpt lat="49.07834" lon="1.56261">
        <ele>23</ele>
        <time>2018-04-11T03:49:22Z</time>
      </trkpt>
      <trkpt lat="49.07807" lon="1.56066">
        <ele>24</ele>
        <time>2018-04-11T03:50:22Z</time>
      </trkpt>
      <trkpt lat="49.07779" lon="1.55757">
        <ele>26</ele>
        <time>2018-04-11T03:51:22Z</time>
      </trkpt>
      <trkpt lat="49.0777" lon="1.55635">
        <ele>28</ele>
        <time>2018-04-11T03:52:22Z</time>
      </trkpt>
      <trkpt lat="49.07748" lon="1.55424">
        <ele>30</ele>
        <time>2018-04-11T03:53:22Z</time>
      </trkpt>
      <trkpt lat="49.07729" lon="1.55284">
        <ele>37</ele>
        <time>2018-04-11T03:54:22Z</time>
      </trkpt>
      <trkpt lat="49.07712" lon="1.55204">
        <ele>37</ele>
        <time>2018-04-11T03:55:22Z</time>
      </trkpt>
      <trkpt lat="49.07673" lon="1.55096">
        <ele>26</ele>
        <time>2018-04-11T03:56:22Z</time>
      </trkpt>
      <trkpt lat="49.07633" lon="1.55016">
        <ele>24</ele>
        <time>2018-04-11T03:57:22Z</time>
      </trkpt>
      <trkpt lat="49.07617" lon="1.54973">
        <ele>26</ele>
        <time>2018-04-11T03:58:22Z</time>
      </trkpt>
      <trkpt lat="49.07583" lon="1.54818">
        <ele>31</ele>
        <time>2018-04-11T03:59:22Z</time>
      </trkpt>
      <trkpt lat="49.07551" lon="1.54717">
        <ele>32</ele>
        <time>2018-04-11T04:00:22Z</time>
      </trkpt>
      <trkpt lat="49.07508" lon="1.54573">
        <ele>26</ele>
        <time>2018-04-11T04:01:22Z</time>
      </trkpt>
      <trkpt lat="49.07491" lon="1.545">
        <ele>27</ele>
        <time>2018-04-11T04:02:22Z</time>
      </trkpt>
      <trkpt lat="49.07467" lon="1.54376">
        <ele>28</ele>
        <time>2018-04-11T04:03:22Z</time>
      </trkpt>
      <trkpt lat="49.07455" lon="1.54341">
        <ele>27</ele>
        <time>2018-04-11T04:04:22Z</time>
      </trkpt>
      <trkpt lat="49.07411" lon="1.54245">
        <ele>20</ele>
        <time>2018-04-11T04:05:22Z</time>
      </trkpt>
      <trkpt lat="49.07404" lon="1.54215">
        <ele>21</ele>
        <time>2018-04-11T04:06:22Z</time>
      </trkpt>
      <trkpt lat="49.07401" lon="1.54175">
        <ele>21</ele>
        <time>2018-04-11T04:07:22Z</time>
      </trkpt>
      <trkpt lat="49.074" lon="1.54145">
        <ele>22</ele>
        <time>2018-04-11T04:08:22Z</time>
      </trkpt>
      <trkpt lat="49.07402" lon="1.53982">
        <ele>21</ele>
        <time>2018-04-11T04:09:22Z</time>
      </trkpt>
      <trkpt lat="49.07405" lon="1.53914">
        <ele>20</ele>
        <time>2018-04-11T04:10:22Z</time>
      </trkpt>
      <trkpt lat="49.07417" lon="1.53821">
        <ele>20</ele>
        <time>2018-04-11T04:11:22Z</time>
      </trkpt>
      <trkpt lat="49.07446" lon="1.53642">
        <ele>22</ele>
        <time>2018-04-11T04:12:22Z</time>
      </trkpt>
      <trkpt lat="49.07454" lon="1.53567">
        <ele>21</ele>
        <time>2018-04-11T04:13:22Z</time>
      </trkpt>
      <trkpt lat="49.07461" lon="1.53446">
        <ele>20</ele>
        <time>2018-04-11T04:14:22Z</time>
      </trkpt>
      <trkpt lat="49.07468" lon="1.53272">
        <ele>18</ele>
        <time>2018-04-11T04:15:22Z</time>
      </trkpt>
      <trkpt lat="49.07467" lon="1.53222">
        <ele>18</ele>
        <time>2018-04-11T04:16:22Z</time>
      </trkpt>
      <trkpt lat="49.07463" lon="1.53157">
        <ele>18</ele>
        <time>2018-04-11T04:17:22Z</time>
      </trkpt>
      <trkpt lat="49.07457" lon="1.53109">
        <ele>18</ele>
        <time>2018-04-11T04:18:22Z</time>
      </trkpt>
      <trkpt lat="49.07451" lon="1.53073">
        <ele>18</ele>
        <time>2018-04-11T04:19:22Z</time>
      </trkpt>
      <trkpt lat="49.07448" lon="1.53059">
        <ele>18</ele>
        <time>2018-04-11T04:20:22Z</time>
      </trkpt>
      <trkpt lat="49.07441" lon="1.52999">
        <ele>18</ele>
        <time>2018-04-11T04:21:22Z</time>
      </trkpt>
      <trkpt lat="49.07444" lon="1.52989">
        <ele>18</ele>
        <time>2018-04-11T04:22:22Z</time>
      </trkpt>
      <trkpt lat="49.07443" lon="1.52981">
        <ele>18</ele>
        <time>2018-04-11T04:23:22Z</time>
      </trkpt>
      <trkpt lat="49.07441" lon="1.52976">
        <ele>18</ele>
        <time>2018-04-11T04:24:22Z</time>
      </trkpt>
      <trkpt lat="49.07436" lon="1.5297">
        <ele>18</ele>
        <time>2018-04-11T04:25:22Z</time>
      </trkpt>
      <trkpt lat="49.0743" lon="1.52945">
        <ele>19</ele>
        <time>2018-04-11T04:26:22Z</time>
      </trkpt>
      <trkpt lat="49.07424" lon="1.52905">
        <ele>19</ele>
        <time>2018-04-11T04:27:22Z</time>
      </trkpt>
      <trkpt lat="49.07421" lon="1.52838">
        <ele>20</ele>
        <time>2018-04-11T04:28:22Z</time>
      </trkpt>
      <trkpt lat="49.07421" lon="1.52776">
        <ele>19</ele>
        <time>2018-04-11T04:29:22Z</time>
      </trkpt>
      <trkpt lat="49.07428" lon="1.52707">
        <ele>19</ele>
        <time>2018-04-11T04:30:22Z</time>
      </trkpt>
      <trkpt lat="49.07447" lon="1.52619">
        <ele>19</ele>
        <time>2018-04-11T04:31:22Z</time>
      </trkpt>
      <trkpt lat="49.07474" lon="1.52533">
        <ele>18</ele>
        <time>2018-04-11T04:32:22Z</time>
      </trkpt>
      <trkpt lat="49.07497" lon="1.52482">
        <ele>19</ele>
        <time>2018-04-11T04:33:22Z</time>
      </trkpt>
      <trkpt lat="49.07539" lon="1.52411">
        <ele>18</ele>
        <time>2018-04-11T04:34:22Z</time>
      </trkpt>
      <trkpt lat="49.07578" lon="1.52359">
        <ele>18</ele>
        <time>2018-04-11T04:35:22Z</time>
      </trkpt>
      <trkpt lat="49.07593" lon="1.52334">
        <ele>18</ele>
        <time>2018-04-11T04:36:22Z</time>
      </trkpt>
      <trkpt lat="49.07657" lon="1.52242">
        <ele>18</ele>
        <time>2018-04-11T04:37:22Z</time>
      </trkpt>
      <trkpt lat="49.07692" lon="1.52185">
        <ele>19</ele>
        <time>2018-04-11T04:38:22Z</time>
      </trkpt>
      <trkpt lat="49.07828" lon="1.51937">
        <ele>18</ele>
        <time>2018-04-11T04:39:22Z</time>
      </trkpt>
      <trkpt lat="49.07864" lon="1.51884">
        <ele>18</ele>
        <time>2018-04-11T04:40:22Z</time>
      </trkpt>
      <trkpt lat="49.07887" lon="1.51853">
        <ele>18</ele>
        <time>2018-04-11T04:41:22Z</time>
      </trkpt>
      <trkpt lat="49.07932" lon="1.51802">
        <ele>17</ele>
        <time>2018-04-11T04:42:22Z</time>
      </trkpt>
      <trkpt lat="49.08183" lon="1.51562">
        <ele>17</ele>
        <time>2018-04-11T04:43:22Z</time>
      </trkpt>
      <trkpt lat="49.08434" lon="1.51313">
        <ele>20</ele>
        <time>2018-04-11T04:44:22Z</time>
      </trkpt>
      <trkpt lat="49.08481" lon="1.51263">
        <ele>19</ele>
        <time>2018-04-11T04:45:22Z</time>
      </trkpt>
      <trkpt lat="49.08507" lon="1.51229">
        <ele>18</ele>
        <time>2018-04-11T04:46:22Z</time>
      </trkpt>
      <trkpt lat="49.08639" lon="1.51039">
        <ele>19</ele>
        <time>2018-04-11T04:47:22Z</time>
      </trkpt>
      <trkpt lat="49.08756" lon="1.50851">
        <ele>17</ele>
        <time>2018-04-11T04:48:22Z</time>
      </trkpt>
      <trkpt lat="49.08811" lon="1.50778">
        <ele>19</ele>
        <time>2018-04-11T04:49:22Z</time>
      </trkpt>
      <trkpt lat="49.08856" lon="1.5071">
        <ele>22</ele>
        <time>2018-04-11T04:50:22Z</time>
      </trkpt>
      <trkpt lat="49.0894" lon="1.50561">
        <ele>21</ele>
        <time>2018-04-11T04:51:22Z</time>
      </trkpt>
      <trkpt lat="49.0898" lon="1.50497">
        <ele>21</ele>
        <time>2018-04-11T04:52:22Z</time>
      </trkpt>
      <trkpt lat="49.09027" lon="1.50428">
        <ele>24</ele>
        <time>2018-04-11T04:53:22Z</time>
      </trkpt>
      <trkpt lat="49.09049" lon="1.50402">
        <ele>25</ele>
        <time>2018-04-11T04:54:22Z</time>
      </trkpt>
      <trkpt lat="49.09062" lon="1.50384">
        <ele>25</ele>
        <time>2018-04-11T04:55:22Z</time>
      </trkpt>
      <trkpt lat="49.09077" lon="1.50354">
        <ele>23</ele>
        <time>2018-04-11T04:56:22Z</time>
      </trkpt>
      <trkpt lat="49.09086" lon="1.5033">
        <ele>20</ele>
        <time>2018-04-11T04:57:22Z</time>
      </trkpt>
      <trkpt lat="49.092" lon="1.50126">
        <ele>22</ele>
        <time>2018-04-11T04:58:22Z</time>
      </trkpt>
      <trkpt lat="49.09318" lon="1.49927">
        <ele>20</ele>
        <time>2018-04-11T04:59:22Z</time>
      </trkpt>
      <trkpt lat="49.09408" lon="1.4976">
        <ele>19</ele>
        <time>2018-04-11T05:00:22Z</time>
      </trkpt>
      <trkpt lat="49.0947" lon="1.49662">
        <ele>21</ele>
        <time>2018-04-11T05:01:22Z</time>
      </trkpt>
      <trkpt lat="49.09489" lon="1.49625">
        <ele>21</ele>
        <time>2018-04-11T05:02:22Z</time>
      </trkpt>
      <trkpt lat="49.0951" lon="1.49574">
        <ele>21</ele>
        <time>2018-04-11T05:03:22Z</time>
      </trkpt>
      <trkpt lat="49.0953" lon="1.49532">
        <ele>21</ele>
        <time>2018-04-11T05:04:22Z</time>
      </trkpt>
      <trkpt lat="49.09548" lon="1.49506">
        <ele>20</ele>
        <time>2018-04-11T05:05:22Z</time>
      </trkpt>
      <trkpt lat="49.09567" lon="1.49471">
        <ele>20</ele>
        <time>2018-04-11T05:06:22Z</time>
      </trkpt>
      <trkpt lat="49.09556" lon="1.49483">
        <ele>20</ele>
        <time>2018-04-11T05:07:22Z</time>
      </trkpt>
      <trkpt lat="49.09546" lon="1.49499">
        <ele>20</ele>
        <time>2018-04-11T05:08:22Z</time>
      </trkpt>
      <trkpt lat="49.09546" lon="1.49499">
        <ele>20</ele>
        <time>2018-04-11T05:09:22Z</time>
      </trkpt>
      <trkpt lat="49.0953" lon="1.49532">
        <ele>21</ele>
        <time>2018-04-11T05:10:22Z</time>
      </trkpt>
      <trkpt lat="49.09548" lon="1.49506">
        <ele>20</ele>
        <time>2018-04-11T05:11:22Z</time>
      </trkpt>
      <trkpt lat="49.09576" lon="1.49456">
        <ele>19</ele>
        <time>2018-04-11T05:12:22Z</time>
      </trkpt>
      <trkpt lat="49.09622" lon="1.49385">
        <ele>20</ele>
        <time>2018-04-11T05:13:22Z</time>
      </trkpt>
      <trkpt lat="49.09659" lon="1.49312">
        <ele>17</ele>
        <time>2018-04-11T05:14:22Z</time>
      </trkpt>
      <trkpt lat="49.09679" lon="1.49277">
        <ele>17</ele>
        <time>2018-04-11T05:15:22Z</time>
      </trkpt>
      <trkpt lat="49.09684" lon="1.4926">
        <ele>17</ele>
        <time>2018-04-11T05:16:22Z</time>
      </trkpt>
      <trkpt lat="49.09687" lon="1.4924">
        <ele>17</ele>
        <time>2018-04-11T05:17:22Z</time>
      </trkpt>
      <trkpt lat="49.09706" lon="1.49238">
        <ele>17</ele>
        <time>2018-04-11T05:18:22Z</time>
      </trkpt>
      <trkpt lat="49.09735" lon="1.49196">
        <ele>18</ele>
        <time>2018-04-11T05:19:22Z</time>
      </trkpt>
      <trkpt lat="49.09743" lon="1.4918">
        <ele>17</ele>
        <time>2018-04-11T05:20:22Z</time>
      </trkpt>
      <trkpt lat="49.09816" lon="1.4901">
        <ele>18</ele>
        <time>2018-04-11T05:21:22Z</time>
      </trkpt>
      <trkpt lat="49.09833" lon="1.48967">
        <ele>19</ele>
        <time>2018-04-11T05:22:22Z</time>
      </trkpt>
      <trkpt lat="49.09826" lon="1.48933">
        <ele>20</ele>
        <time>2018-04-11T05:23:22Z</time>
      </trkpt>
      <trkpt lat="49.09837" lon="1.48924">
        <ele>20</ele>
        <time>2018-04-11T05:24:22Z</time>
      </trkpt>
      <trkpt lat="49.09832" lon="1.48905">
        <ele>20</ele>
        <time>2018-04-11T05:25:22Z</time>
      </trkpt>
      <trkpt lat="49.09899" lon="1.48869">
        <ele>19</ele>
        <time>2018-04-11T05:26:22Z</time>
      </trkpt>
      <trkpt lat="49.09949" lon="1.4884">
        <ele>19</ele>
        <time>2018-04-11T05:27:22Z</time>
      </trkpt>
      <trkpt lat="49.10004" lon="1.48789">
        <ele>20</ele>
        <time>2018-04-11T05:28:22Z</time>
      </trkpt>
      <trkpt lat="49.10023" lon="1.48765">
        <ele>20</ele>
        <time>2018-04-11T05:29:22Z</time>
      </trkpt>
      <trkpt lat="49.10061" lon="1.48697">
        <ele>18</ele>
        <time>2018-04-11T05:30:22Z</time>
      </trkpt>
      <trkpt lat="49.10088" lon="1.48653">
        <ele>17</ele>
        <time>2018-04-11T05:31:22Z</time>
      </trkpt>
      <trkpt lat="49.10106" lon="1.4863">
        <ele>17</ele>
        <time>2018-04-11T05:32:22Z</time>
      </trkpt>
      <trkpt lat="49.10117" lon="1.4862">
        <ele>18</ele>
        <time>2018-04-11T05:33:22Z</time>
      </trkpt>
      <trkpt lat="49.10154" lon="1.48592">
        <ele>19</ele>
        <time>2018-04-11T05:34:22Z</time>
      </trkpt>
      <trkpt lat="49.10173" lon="1.48584">
        <ele>19</ele>
        <time>2018-04-11T05:35:22Z</time>
      </trkpt>
      <trkpt lat="49.10213" lon="1.48569">
        <ele>22</ele>
        <time>2018-04-11T05:36:22Z</time>
      </trkpt>
      <trkpt lat="49.10258" lon="1.48565">
        <ele>26</ele>
        <time>2018-04-11T05:37:22Z</time>
      </trkpt>
      <trkpt lat="49.10294" lon="1.48472">
        <ele>30</ele>
        <time>2018-04-11T05:38:22Z</time>
      </trkpt>
      <trkpt lat="49.10327" lon="1.48353">
        <ele>30</ele>
        <time>2018-04-11T05:39:22Z</time>
      </trkpt>
      <trkpt lat="49.10356" lon="1.4827">
        <ele>31</ele>
        <time>2018-04-11T05:40:22Z</time>
      </trkpt>
      <trkpt lat="49.10445" lon="1.48106">
        <ele>32</ele>
        <time>2018-04-11T05:41:22Z</time>
      </trkpt>
      <trkpt lat="49.10565" lon="1.47909">
        <ele>31</ele>
        <time>2018-04-11T05:42:22Z</time>
      </trkpt>
      <trkpt lat="49.10682" lon="1.47722">
        <ele>24</ele>
        <time>2018-04-11T05:43:22Z</time>
      </trkpt>
      <trkpt lat="49.10743" lon="1.47635">
        <ele>20</ele>
        <time>2018-04-11T05:44:22Z</time>
      </trkpt>
      <trkpt lat="49.10856" lon="1.47494">
        <ele>21</ele>
        <time>2018-04-11T05:45:22Z</time>
      </trkpt>
      <trkpt lat="49.10936" lon="1.47405">
        <ele>23</ele>
        <time>2018-04-11T05:46:22Z</time>
      </trkpt>
      <trkpt lat="49.10965" lon="1.47365">
        <ele>23</ele>
        <time>2018-04-11T05:47:22Z</time>
      </trkpt>
      <trkpt lat="49.10976" lon="1.47345">
        <ele>23</ele>
        <time>2018-04-11T05:48:22Z</time>
      </trkpt>
      <trkpt lat="49.10985" lon="1.47322">
        <ele>23</ele>
        <time>2018-04-11T05:49:22Z</time>
      </trkpt>
      <trkpt lat="49.10991" lon="1.47295">
        <ele>22</ele>
        <time>2018-04-11T05:50:22Z</time>
      </trkpt>
      <trkpt lat="49.11008" lon="1.47248">
        <ele>22</ele>
        <time>2018-04-11T05:51:22Z</time>
      </trkpt>
      <trkpt lat="49.11045" lon="1.47171">
        <ele>24</ele>
        <time>2018-04-11T05:52:22Z</time>
      </trkpt>
      <trkpt lat="49.11103" lon="1.47069">
        <ele>24</ele>
        <time>2018-04-11T05:53:22Z</time>
      </trkpt>
      <trkpt lat="49.11249" lon="1.46872">
        <ele>27</ele>
        <time>2018-04-11T05:54:22Z</time>
      </trkpt>
      <trkpt lat="49.11597" lon="1.46365">
        <ele>27</ele>
        <time>2018-04-11T05:55:22Z</time>
      </trkpt>
      <trkpt lat="49.11717" lon="1.46195">
        <ele>25</ele>
        <time>2018-04-11T05:56:22Z</time>
      </trkpt>
      <trkpt lat="49.11998" lon="1.45906">
        <ele>31</ele>
        <time>2018-04-11T05:57:22Z</time>
      </trkpt>
      <trkpt lat="49.12086" lon="1.45835">
        <ele>40</ele>
        <time>2018-04-11T05:58:22Z</time>
      </trkpt>
      <trkpt lat="49.12198" lon="1.45703">
        <ele>42</ele>
        <time>2018-04-11T05:59:22Z</time>
      </trkpt>
      <trkpt lat="49.12249" lon="1.45661">
        <ele>46</ele>
        <time>2018-04-11T06:00:22Z</time>
      </trkpt>
      <trkpt lat="49.12306" lon="1.45642">
        <ele>46</ele>
        <time>2018-04-11T06:01:22Z</time>
      </trkpt>
      <trkpt lat="49.12382" lon="1.45612">
        <ele>43</ele>
        <time>2018-04-11T06:02:22Z</time>
      </trkpt>
      <trkpt lat="49.12497" lon="1.45526">
        <ele>42</ele>
        <time>2018-04-11T06:03:22Z</time>
      </trkpt>
      <trkpt lat="49.12651" lon="1.4543">
        <ele>41</ele>
        <time>2018-04-11T06:04:22Z</time>
      </trkpt>
      <trkpt lat="49.12735" lon="1.45404">
        <ele>40</ele>
        <time>2018-04-11T06:05:22Z</time>
      </trkpt>
      <trkpt lat="49.12892" lon="1.45371">
        <ele>37</ele>
        <time>2018-04-11T06:06:22Z</time>
      </trkpt>
      <trkpt lat="49.1294" lon="1.45359">
        <ele>36</ele>
        <time>2018-04-11T06:07:22Z</time>
      </trkpt>
      <trkpt lat="49.12993" lon="1.45341">
        <ele>35</ele>
        <time>2018-04-11T06:08:22Z</time>
      </trkpt>
      <trkpt lat="49.13012" lon="1.4531">
        <ele>35</ele>
        <time>2018-04-11T06:09:22Z</time>
      </trkpt>
      <trkpt lat="49.13036" lon="1.45216">
        <ele>35</ele>
        <time>2018-04-11T06:10:22Z</time>
      </trkpt>
      <trkpt lat="49.13037" lon="1.45199">
        <ele>35</ele>
        <time>2018-04-11T06:11:22Z</time>
      </trkpt>
      <trkpt lat="49.13036" lon="1.4514">
        <ele>35</ele>
        <time>2018-04-11T06:12:22Z</time>
      </trkpt>
      <trkpt lat="49.13015" lon="1.45001">
        <ele>35</ele>
        <time>2018-04-11T06:13:22Z</time>
      </trkpt>
      <trkpt lat="49.12997" lon="1.44897">
        <ele>33</ele>
        <time>2018-04-11T06:14:22Z</time>
      </trkpt>
      <trkpt lat="49.12989" lon="1.44844">
        <ele>34</ele>
        <time>2018-04-11T06:15:22Z</time>
      </trkpt>
      <trkpt lat="49.13002" lon="1.44793">
        <ele>34</ele>
        <time>2018-04-11T06:16:22Z</time>
      </trkpt>
      <trkpt lat="49.13058" lon="1.44742">
        <ele>35</ele>
        <time>2018-04-11T06:17:22Z</time>
      </trkpt>
      <trkpt lat="49.13121" lon="1.44677">
        <ele>34</ele>
        <time>2018-04-11T06:18:22Z</time>
      </trkpt>
      <trkpt lat="49.13155" lon="1.44639">
        <ele>34</ele>
        <time>2018-04-11T06:19:22Z</time>
      </trkpt>
      <trkpt lat="49.13193" lon="1.44557">
        <ele>32</ele>
        <time>2018-04-11T06:20:22Z</time>
      </trkpt>
      <trkpt lat="49.132" lon="1.44547">
        <ele>32</ele>
        <time>2018-04-11T06:21:22Z</time>
      </trkpt>
      <trkpt lat="49.13216" lon="1.44529">
        <ele>31</ele>
        <time>2018-04-11T06:22:22Z</time>
      </trkpt>
      <trkpt lat="49.13266" lon="1.44498">
        <ele>30</ele>
        <time>2018-04-11T06:23:22Z</time>
      </trkpt>
      <trkpt lat="49.13335" lon="1.4446">
        <ele>31</ele>
        <time>2018-04-11T06:24:22Z</time>
      </trkpt>
      <trkpt lat="49.1345" lon="1.44374">
        <ele>30</ele>
        <time>2018-04-11T06:25:22Z</time>
      </trkpt>
      <trkpt lat="49.13543" lon="1.44321">
        <ele>28</ele>
        <time>2018-04-11T06:26:22Z</time>
      </trkpt>
      <trkpt lat="49.13587" lon="1.44289">
        <ele>27</ele>
        <time>2018-04-11T06:27:22Z</time>
      </trkpt>
      <trkpt lat="49.13683" lon="1.44237">
        <ele>25</ele>
        <time>2018-04-11T06:28:22Z</time>
      </trkpt>
      <trkpt lat="49.13737" lon="1.44185">
        <ele>24</ele>
        <time>2018-04-11T06:29:22Z</time>
      </trkpt>
      <trkpt lat="49.1407" lon="1.43712">
        <ele>19</ele>
        <time>2018-04-11T06:30:22Z</time>
      </trkpt>
      <trkpt lat="49.14164" lon="1.43573">
        <ele>22</ele>
        <time>2018-04-11T06:31:22Z</time>
      </trkpt>
      <trkpt lat="49.14519" lon="1.43064">
        <ele>21</ele>
        <time>2018-04-11T06:32:22Z</time>
      </trkpt>
      <trkpt lat="49.14734" lon="1.4275">
        <ele>19</ele>
        <time>2018-04-11T06:33:22Z</time>
      </trkpt>
      <trkpt lat="49.14767" lon="1.42712">
        <ele>19</ele>
        <time>2018-04-11T06:34:22Z</time>
      </trkpt>
      <trkpt lat="49.14818" lon="1.42678">
        <ele>21</ele>
        <time>2018-04-11T06:35:22Z</time>
      </trkpt>
      <trkpt lat="49.15144" lon="1.42497">
        <ele>18</ele>
        <time>2018-04-11T06:36:22Z</time>
      </trkpt>
      <trkpt lat="49.15176" lon="1.42484">
        <ele>18</ele>
        <time>2018-04-11T06:37:22Z</time>
      </trkpt>
      <trkpt lat="49.15429" lon="1.42336">
        <ele>17</ele>
        <time>2018-04-11T06:38:22Z</time>
      </trkpt>
      <trkpt lat="49.15792" lon="1.42138">
        <ele>18</ele>
        <time>2018-04-11T06:39:22Z</time>
      </trkpt>
      <trkpt lat="49.15884" lon="1.42067">
        <ele>17</ele>
        <time>2018-04-11T06:40:22Z</time>
      </trkpt>
      <trkpt lat="49.16162" lon="1.41787">
        <ele>18</ele>
        <time>2018-04-11T06:41:22Z</time>
      </trkpt>
      <trkpt lat="49.16208" lon="1.41735">
        <ele>19</ele>
        <time>2018-04-11T06:42:22Z</time>
      </trkpt>
      <trkpt lat="49.16231" lon="1.41702">
        <ele>20</ele>
        <time>2018-04-11T06:43:22Z</time>
      </trkpt>
      <trkpt lat="49.16279" lon="1.41622">
        <ele>19</ele>
        <time>2018-04-11T06:44:22Z</time>
      </trkpt>
      <trkpt lat="49.16347" lon="1.4148">
        <ele>17</ele>
        <time>2018-04-11T06:45:22Z</time>
      </trkpt>
      <trkpt lat="49.16387" lon="1.4141">
        <ele>17</ele>
        <time>2018-04-11T06:46:22Z</time>
      </trkpt>
      <trkpt lat="49.16423" lon="1.41353">
        <ele>18</ele>
        <time>2018-04-11T06:47:22Z</time>
      </trkpt>
      <trkpt lat="49.1646" lon="1.41302">
        <ele>17</ele>
        <time>2018-04-11T06:48:22Z</time>
      </trkpt>
      <trkpt lat="49.16581" lon="1.41181">
        <ele>16</ele>
        <time>2018-04-11T06:49:22Z</time>
      </trkpt>
      <trkpt lat="49.16607" lon="1.41146">
        <ele>16</ele>
        <time>2018-04-11T06:50:22Z</time>
      </trkpt>
      <trkpt lat="49.16648" lon="1.4108">
        <ele>16</ele>
        <time>2018-04-11T06:51:22Z</time>
      </trkpt>
      <trkpt lat="49.16698" lon="1.40994">
        <ele>15</ele>
        <time>2018-04-11T06:52:22Z</time>
      </trkpt>
      <trkpt lat="49.16784" lon="1.40864">
        <ele>17</ele>
        <time>2018-04-11T06:53:22Z</time>
      </trkpt>
      <trkpt lat="49.16856" lon="1.40761">
        <ele>18</ele>
        <time>2018-04-11T06:54:22Z</time>
      </trkpt>
      <trkpt lat="49.17056" lon="1.40465">
        <ele>19</ele>
        <time>2018-04-11T06:55:22Z</time>
      </trkpt>
      <trkpt lat="49.17102" lon="1.40335">
        <ele>16</ele>
        <time>2018-04-11T06:56:22Z</time>
      </trkpt>
      <trkpt lat="49.17115" lon="1.40272">
        <ele>17</ele>
        <time>2018-04-11T06:57:22Z</time>
      </trkpt>
      <trkpt lat="49.17134" lon="1.40134">
        <ele>17</ele>
        <time>2018-04-11T06:58:22Z</time>
      </trkpt>
      <trkpt lat="49.17152" lon="1.40059">
        <ele>19</ele>
        <time>2018-04-11T06:59:22Z</time>
      </trkpt>
      <trkpt lat="49.17186" lon="1.40006">
        <ele>20</ele>
        <time>2018-04-11T07:00:22Z</time>
      </trkpt>
      <trkpt lat="49.17253" lon="1.39791">
        <ele>19</ele>
        <time>2018-04-11T07:01:22Z</time>
      </trkpt>
      <trkpt lat="49.173" lon="1.39711">
        <ele>18</ele>
        <time>2018-04-11T07:02:22Z</time>
      </trkpt>
      <trkpt lat="49.17341" lon="1.39655">
        <ele>20</ele>
        <time>2018-04-11T07:03:22Z</time>
      </trkpt>
      <trkpt lat="49.17357" lon="1.3963">
        <ele>21</ele>
        <time>2018-04-11T07:04:22Z</time>
      </trkpt>
      <trkpt lat="49.17381" lon="1.39603">
        <ele>23</ele>
        <time>2018-04-11T07:05:22Z</time>
      </trkpt>
      <trkpt lat="49.17401" lon="1.39594">
        <ele>24</ele>
        <time>2018-04-11T07:06:22Z</time>
      </trkpt>
      <trkpt lat="49.17422" lon="1.39589">
        <ele>25</ele>
        <time>2018-04-11T07:07:22Z</time>
      </trkpt>
      <trkpt lat="49.17446" lon="1.39592">
        <ele>26</ele>
        <time>2018-04-11T07:08:22Z</time>
      </trkpt>
      <trkpt lat="49.17509" lon="1.39614">
        <ele>28</ele>
        <time>2018-04-11T07:09:22Z</time>
      </trkpt>
      <trkpt lat="49.17526" lon="1.39615">
        <ele>29</ele>
        <time>2018-04-11T07:10:22Z</time>
      </trkpt>
      <trkpt lat="49.1754" lon="1.39608">
        <ele>30</ele>
        <time>2018-04-11T07:11:22Z</time>
      </trkpt>
      <trkpt lat="49.17551" lon="1.39598">
        <ele>31</ele>
        <time>2018-04-11T07:12:22Z</time>
      </trkpt>
      <trkpt lat="49.17563" lon="1.3958">
        <ele>33</ele>
        <time>2018-04-11T07:13:22Z</time>
      </trkpt>
      <trkpt lat="49.1757" lon="1.39557">
        <ele>34</ele>
        <time>2018-04-11T07:14:22Z</time>
      </trkpt>
      <trkpt lat="49.17574" lon="1.39528">
        <ele>35</ele>
        <time>2018-04-11T07:15:22Z</time>
      </trkpt>
      <trkpt lat="49.17572" lon="1.39498">
        <ele>35</ele>
        <time>2018-04-11T07:16:22Z</time>
      </trkpt>
      <trkpt lat="49.1752" lon="1.39268">
        <ele>45</ele>
        <time>2018-04-11T07:17:22Z</time>
      </trkpt>
      <trkpt lat="49.17514" lon="1.39229">
        <ele>46</ele>
        <time>2018-04-11T07:18:22Z</time>
      </trkpt>
      <trkpt lat="49.17511" lon="1.39174">
        <ele>46</ele>
        <time>2018-04-11T07:19:22Z</time>
      </trkpt>
      <trkpt lat="49.17515" lon="1.39127">
        <ele>47</ele>
        <time>2018-04-11T07:20:22Z</time>
      </trkpt>
      <trkpt lat="49.17531" lon="1.39053">
        <ele>49</ele>
        <time>2018-04-11T07:21:22Z</time>
      </trkpt>
      <trkpt lat="49.17597" lon="1.38898">
        <ele>54</ele>
        <time>2018-04-11T07:22:22Z</time>
      </trkpt>
      <trkpt lat="49.17617" lon="1.38859">
        <ele>56</ele>
        <time>2018-04-11T07:23:22Z</time>
      </trkpt>
      <trkpt lat="49.17641" lon="1.38837">
        <ele>60</ele>
        <time>2018-04-11T07:24:22Z</time>
      </trkpt>
      <trkpt lat="49.17767" lon="1.38773">
        <ele>75</ele>
        <time>2018-04-11T07:25:22Z</time>
      </trkpt>
      <trkpt lat="49.17829" lon="1.38752">
        <ele>77</ele>
        <time>2018-04-11T07:26:22Z</time>
      </trkpt>
      <trkpt lat="49.18003" lon="1.3878">
        <ele>78</ele>
        <time>2018-04-11T07:27:22Z</time>
      </trkpt>
      <trkpt lat="49.18168" lon="1.38679">
        <ele>80</ele>
        <time>2018-04-11T07:28:22Z</time>
      </trkpt>
      <trkpt lat="49.18221" lon="1.38638">
        <ele>78</ele>
        <time>2018-04-11T07:29:22Z</time>
      </trkpt>
      <trkpt lat="49.18337" lon="1.38567">
        <ele>71</ele>
        <time>2018-04-11T07:30:22Z</time>
      </trkpt>
      <trkpt lat="49.18427" lon="1.38546">
        <ele>65</ele>
        <time>2018-04-11T07:31:22Z</time>
      </trkpt>
      <trkpt lat="49.18562" lon="1.3849">
        <ele>60</ele>
        <time>2018-04-11T07:32:22Z</time>
      </trkpt>
      <trkpt lat="49.18619" lon="1.38463">
        <ele>58</ele>
        <time>2018-04-11T07:33:22Z</time>
      </trkpt>
      <trkpt lat="49.18671" lon="1.38433">
        <ele>57</ele>
        <time>2018-04-11T07:34:22Z</time>
      </trkpt>
      <trkpt lat="49.18819" lon="1.38392">
        <ele>52</ele>
        <time>2018-04-11T07:35:22Z</time>
      </trkpt>
      <trkpt lat="49.18894" lon="1.38341">
        <ele>49</ele>
        <time>2018-04-11T07:36:22Z</time>
      </trkpt>
      <trkpt lat="49.18951" lon="1.38317">
        <ele>47</ele>
        <time>2018-04-11T07:37:22Z</time>
      </trkpt>
      <trkpt lat="49.19114" lon="1.38281">
        <ele>44</ele>
        <time>2018-04-11T07:38:22Z</time>
      </trkpt>
      <trkpt lat="49.19233" lon="1.38248">
        <ele>44</ele>
        <time>2018-04-11T07:39:22Z</time>
      </trkpt>
      <trkpt lat="49.19316" lon="1.38247">
        <ele>46</ele>
        <time>2018-04-11T07:40:22Z</time>
      </trkpt>
      <trkpt lat="49.19415" lon="1.38271">
        <ele>44</ele>
        <time>2018-04-11T07:41:22Z</time>
      </trkpt>
      <trkpt lat="49.1948" lon="1.38303">
        <ele>46</ele>
        <time>2018-04-11T07:42:22Z</time>
      </trkpt>
      <trkpt lat="49.19537" lon="1.3832">
        <ele>48</ele>
        <time>2018-04-11T07:43:22Z</time>
      </trkpt>
      <trkpt lat="49.19701" lon="1.38345">
        <ele>47</ele>
        <time>2018-04-11T07:44:22Z</time>
      </trkpt>
      <trkpt lat="49.20009" lon="1.38446">
        <ele>43</ele>
        <time>2018-04-11T07:45:22Z</time>
      </trkpt>
      <trkpt lat="49.20119" lon="1.38472">
        <ele>41</ele>
        <time>2018-04-11T07:46:22Z</time>
      </trkpt>
      <trkpt lat="49.20474" lon="1.3851">
        <ele>32</ele>
        <time>2018-04-11T07:47:22Z</time>
      </trkpt>
      <trkpt lat="49.20498" lon="1.38521">
        <ele>32</ele>
        <time>2018-04-11T07:48:22Z</time>
      </trkpt>
      <trkpt lat="49.20528" lon="1.38553">
        <ele>32</ele>
        <time>2018-04-11T07:49:22Z</time>
      </trkpt>
      <trkpt lat="49.20543" lon="1.38565">
        <ele>31</ele>
        <time>2018-04-11T07:50:22Z</time>
      </trkpt>
      <trkpt lat="49.20562" lon="1.38573">
        <ele>31</ele>
        <time>2018-04-11T07:51:22Z</time>
      </trkpt>
      <trkpt lat="49.20572" lon="1.38573">
        <ele>31</ele>
        <time>2018-04-11T07:52:22Z</time>
      </trkpt>
      <trkpt lat="49.20595" lon="1.38556">
        <ele>30</ele>
        <time>2018-04-11T07:53:22Z</time>
      </trkpt>
      <trkpt lat="49.20605" lon="1.38555">
        <ele>30</ele>
        <time>2018-04-11T07:54:22Z</time>
      </trkpt>
      <trkpt lat="49.20612" lon="1.38558">
        <ele>30</ele>
        <time>2018-04-11T07:55:22Z</time>
      </trkpt>
      <trkpt lat="49.20622" lon="1.38556">
        <ele>30</ele>
        <time>2018-04-11T07:56:22Z</time>
      </trkpt>
      <trkpt lat="49.20629" lon="1.38549">
        <ele>30</ele>
        <time>2018-04-11T07:57:22Z</time>
      </trkpt>
      <trkpt lat="49.20633" lon="1.38539">
        <ele>30</ele>
        <time>2018-04-11T07:58:22Z</time>
      </trkpt>
      <trkpt lat="49.20635" lon="1.3853">
        <ele>29</ele>
        <time>2018-04-11T07:59:22Z</time>
      </trkpt>
      <trkpt lat="49.20635" lon="1.38508">
        <ele>29</ele>
        <time>2018-04-11T08:00:22Z</time>
      </trkpt>
      <trkpt lat="49.20644" lon="1.38483">
        <ele>28</ele>
        <time>2018-04-11T08:01:22Z</time>
      </trkpt>
      <trkpt lat="49.20651" lon="1.38452">
        <ele>28</ele>
        <time>2018-04-11T08:02:22Z</time>
      </trkpt>
      <trkpt lat="49.20668" lon="1.38454">
        <ele>27</ele>
        <time>2018-04-11T08:03:22Z</time>
      </trkpt>
      <trkpt lat="49.20688" lon="1.38465">
        <ele>27</ele>
        <time>2018-04-11T08:04:22Z</time>
      </trkpt>
      <trkpt lat="49.20701" lon="1.38487">
        <ele>27</ele>
        <time>2018-04-11T08:05:22Z</time>
      </trkpt>
      <trkpt lat="49.20713" lon="1.38527">
        <ele>27</ele>
        <time>2018-04-11T08:06:22Z</time>
      </trkpt>
      <trkpt lat="49.2073" lon="1.38558">
        <ele>28</ele>
        <time>2018-04-11T08:07:22Z</time>
      </trkpt>
      <trkpt lat="49.2074" lon="1.38568">
        <ele>28</ele>
        <time>2018-04-11T08:08:22Z</time>
      </trkpt>
      <trkpt lat="49.20774" lon="1.38581">
        <ele>28</ele>
        <time>2018-04-11T08:09:22Z</time>
      </trkpt>
      <trkpt lat="49.2085" lon="1.38604">
        <ele>28</ele>
        <time>2018-04-11T08:10:22Z</time>
      </trkpt>
      <trkpt lat="49.21073" lon="1.38687">
        <ele>27</ele>
        <time>2018-04-11T08:11:22Z</time>
      </trkpt>
      <trkpt lat="49.21113" lon="1.38703">
        <ele>26</ele>
        <time>2018-04-11T08:12:22Z</time>
      </trkpt>
      <trkpt lat="49.21221" lon="1.38794">
        <ele>25</ele>
        <time>2018-04-11T08:13:22Z</time>
      </trkpt>
      <trkpt lat="49.21282" lon="1.38821">
        <ele>23</ele>
        <time>2018-04-11T08:14:22Z</time>
      </trkpt>
      <trkpt lat="49.21297" lon="1.38835">
        <ele>23</ele>
        <time>2018-04-11T08:15:22Z</time>
      </trkpt>
      <trkpt lat="49.21327" lon="1.38883">
        <ele>23</ele>
        <time>2018-04-11T08:16:22Z</time>
      </trkpt>
      <trkpt lat="49.21496" lon="1.39033">
        <ele>18</ele>
        <time>2018-04-11T08:17:22Z</time>
      </trkpt>
      <trkpt lat="49.21543" lon="1.39082">
        <ele>17</ele>
        <time>2018-04-11T08:18:22Z</time>
      </trkpt>
      <trkpt lat="49.2155" lon="1.39094">
        <ele>17</ele>
        <time>2018-04-11T08:19:22Z</time>
      </trkpt>
      <trkpt lat="49.2155" lon="1.39094">
        <ele>17</ele>
        <time>2018-04-11T08:20:22Z</time>
      </trkpt>
      <trkpt lat="49.21605" lon="1.39176">
        <ele>17</ele>
        <time>2018-04-11T08:21:22Z</time>
      </trkpt>
      <trkpt lat="49.21659" lon="1.39244">
        <ele>16</ele>
        <time>2018-04-11T08:22:22Z</time>
      </trkpt>
      <trkpt lat="49.21794" lon="1.39374">
        <ele>16</ele>
        <time>2018-04-11T08:23:22Z</time>
      </trkpt>
      <trkpt lat="49.21816" lon="1.39386">
        <ele>15</ele>
        <time>2018-04-11T08:24:22Z</time>
      </trkpt>
      <trkpt lat="49.21867" lon="1.39393">
        <ele>13</ele>
        <time>2018-04-11T08:25:22Z</time>
      </trkpt>
      <trkpt lat="49.2189" lon="1.39406">
        <ele>13</ele>
        <time>2018-04-11T08:26:22Z</time>
      </trkpt>
      <trkpt lat="49.21905" lon="1.39423">
        <ele>13</ele>
        <time>2018-04-11T08:27:22Z</time>
      </trkpt>
      <trkpt lat="49.21915" lon="1.39449">
        <ele>13</ele>
        <time>2018-04-11T08:28:22Z</time>
      </trkpt>
      <trkpt lat="49.21927" lon="1.39509">
        <ele>15</ele>
        <time>2018-04-11T08:29:22Z</time>
      </trkpt>
      <trkpt lat="49.21939" lon="1.39537">
        <ele>18</ele>
        <time>2018-04-11T08:30:22Z</time>
      </trkpt>
      <trkpt lat="49.21961" lon="1.39561">
        <ele>19</ele>
        <time>2018-04-11T08:31:22Z</time>
      </trkpt>
      <trkpt lat="49.22013" lon="1.39595">
        <ele>19</ele>
        <time>2018-04-11T08:32:22Z</time>
      </trkpt>
      <trkpt lat="49.22059" lon="1.39644">
        <ele>20</ele>
        <time>2018-04-11T08:33:22Z</time>
      </trkpt>
      <trkpt lat="49.22329" lon="1.39846">
        <ele>17</ele>
        <time>2018-04-11T08:34:22Z</time>
      </trkpt>
      <trkpt lat="49.22385" lon="1.39877">
        <ele>18</ele>
        <time>2018-04-11T08:35:22Z</time>
      </trkpt>
      <trkpt lat="49.22446" lon="1.39917">
        <ele>17</ele>
        <time>2018-04-11T08:36:22Z</time>
      </trkpt>
      <trkpt lat="49.2254" lon="1.39961">
        <ele>18</ele>
        <time>2018-04-11T08:37:22Z</time>
      </trkpt>
      <trkpt lat="49.22583" lon="1.39999">
        <ele>19</ele>
        <time>2018-04-11T08:38:22Z</time>
      </trkpt>
      <trkpt lat="49.22686" lon="1.40095">
        <ele>26</ele>
        <time>2018-04-11T08:39:22Z</time>
      </trkpt>
      <trkpt lat="49.22708" lon="1.40105">
        <ele>27</ele>
        <time>2018-04-11T08:40:22Z</time>
      </trkpt>
      <trkpt lat="49.22737" lon="1.40102">
        <ele>26</ele>
        <time>2018-04-11T08:41:22Z</time>
      </trkpt>
      <trkpt lat="49.22841" lon="1.40077">
        <ele>18</ele>
        <time>2018-04-11T08:42:22Z</time>
      </trkpt>
      <trkpt lat="49.22873" lon="1.40082">
        <ele>17</ele>
        <time>2018-04-11T08:43:22Z</time>
      </trkpt>
      <trkpt lat="49.22964" lon="1.4011">
        <ele>18</ele>
        <time>2018-04-11T08:44:22Z</time>
      </trkpt>
      <trkpt lat="49.23141" lon="1.40158">
        <ele>17</ele>
        <time>2018-04-11T08:45:22Z</time>
      </trkpt>
      <trkpt lat="49.23154" lon="1.4016">
        <ele>17</ele>
        <time>2018-04-11T08:46:22Z</time>
      </trkpt>
      <trkpt lat="49.23162" lon="1.40157">
        <ele>17</ele>
        <time>2018-04-11T08:47:22Z</time>
      </trkpt>
      <trkpt lat="49.23177" lon="1.4014">
        <ele>16</ele>
        <time>2018-04-11T08:48:22Z</time>
      </trkpt>
      <trkpt lat="49.23192" lon="1.40131">
        <ele>15</ele>
        <time>2018-04-11T08:49:22Z</time>
      </trkpt>
      <trkpt lat="49.23205" lon="1.40125">
        <ele>15</ele>
        <time>2018-04-11T08:50:22Z</time>
      </trkpt>
      <trkpt lat="49.23216" lon="1.40126">
        <ele>15</ele>
        <time>2018-04-11T08:51:22Z</time>
      </trkpt>
      <trkpt lat="49.233" lon="1.40158">
        <ele>17</ele>
        <time>2018-04-11T08:52:22Z</time>
      </trkpt>
      <trkpt lat="49.23355" lon="1.40171">
        <ele>18</ele>
        <time>2018-04-11T08:53:22Z</time>
      </trkpt>
      <trkpt lat="49.23442" lon="1.40177">
        <ele>18</ele>
        <time>2018-04-11T08:54:22Z</time>
      </trkpt>
      <trkpt lat="49.23519" lon="1.40176">
        <ele>18</ele>
        <time>2018-04-11T08:55:22Z</time>
      </trkpt>
      <trkpt lat="49.23654" lon="1.40167">
        <ele>19</ele>
        <time>2018-04-11T08:56:22Z</time>
      </trkpt>
      <trkpt lat="49.23678" lon="1.40148">
        <ele>18</ele>
        <time>2018-04-11T08:57:22Z</time>
      </trkpt>
      <trkpt lat="49.23688" lon="1.40152">
        <ele>19</ele>
        <time>2018-04-11T08:58:22Z</time>
      </trkpt>
      <trkpt lat="49.23708" lon="1.40142">
        <ele>18</ele>
        <time>2018-04-11T08:59:22Z</time>
      </trkpt>
      <trkpt lat="49.23722" lon="1.40144">
        <ele>19</ele>
        <time>2018-04-11T09:00:22Z</time>
      </trkpt>
      <trkpt lat="49.23776" lon="1.4012">
        <ele>19</ele>
        <time>2018-04-11T09:01:22Z</time>
      </trkpt>
      <trkpt lat="49.23851" lon="1.40091">
        <ele>18</ele>
        <time>2018-04-11T09:02:22Z</time>
      </trkpt>
      <trkpt lat="49.23965" lon="1.40092">
        <ele>19</ele>
        <time>2018-04-11T09:03:22Z</time>
      </trkpt>
      <trkpt lat="49.24017" lon="1.40098">
        <ele>20</ele>
        <time>2018-04-11T09:04:22Z</time>
      </trkpt>
      <trkpt lat="49.24031" lon="1.40096">
        <ele>20</ele>
        <time>2018-04-11T09:05:22Z</time>
      </trkpt>
      <trkpt lat="49.2406" lon="1.40083">
        <ele>17</ele>
        <time>2018-04-11T09:06:22Z</time>
      </trkpt>
      <trkpt lat="49.24095" lon="1.40072">
        <ele>16</ele>
        <time>2018-04-11T09:07:22Z</time>
      </trkpt>
      <trkpt lat="49.2411" lon="1.40041">
        <ele>15</ele>
        <time>2018-04-11T09:08:22Z</time>
      </trkpt>
      <trkpt lat="49.2414" lon="1.4001">
        <ele>15</ele>
        <time>2018-04-11T09:09:22Z</time>
      </trkpt>
      <trkpt lat="49.24196" lon="1.3996">
        <ele>14</ele>
        <time>2018-04-11T09:10:22Z</time>
      </trkpt>
      <trkpt lat="49.24197" lon="1.39991">
        <ele>14</ele>
        <time>2018-04-11T09:11:22Z</time>
      </trkpt>
      <trkpt lat="49.24201" lon="1.40023">
        <ele>15</ele>
        <time>2018-04-11T09:12:22Z</time>
      </trkpt>
      <trkpt lat="49.24205" lon="1.40026">
        <ele>15</ele>
        <time>2018-04-11T09:13:22Z</time>
      </trkpt>
      <trkpt lat="49.24212" lon="1.40027">
        <ele>15</ele>
        <time>2018-04-11T09:14:22Z</time>
      </trkpt>
      <trkpt lat="49.24223" lon="1.40022">
        <ele>15</ele>
        <time>2018-04-11T09:15:22Z</time>
      </trkpt>
      <trkpt lat="49.24277" lon="1.39971">
        <ele>14</ele>
        <time>2018-04-11T09:16:22Z</time>
      </trkpt>
      <trkpt lat="49.24407" lon="1.39858">
        <ele>13</ele>
        <time>2018-04-11T09:17:22Z</time>
      </trkpt>
      <trkpt lat="49.24434" lon="1.39832">
        <ele>13</ele>
        <time>2018-04-11T09:18:22Z</time>
      </trkpt>
      <trkpt lat="49.24459" lon="1.39791">
        <ele>13</ele>
        <time>2018-04-11T09:19:22Z</time>
      </trkpt>
      <trkpt lat="49.24545" lon="1.39703">
        <ele>18</ele>
        <time>2018-04-11T09:20:22Z</time>
      </trkpt>
      <trkpt lat="49.24554" lon="1.39696">
        <ele>18</ele>
        <time>2018-04-11T09:21:22Z</time>
      </trkpt>
      <trkpt lat="49.24566" lon="1.39707">
        <ele>20</ele>
        <time>2018-04-11T09:22:22Z</time>
      </trkpt>
      <trkpt lat="49.24575" lon="1.39701">
        <ele>20</ele>
        <time>2018-04-11T09:23:22Z</time>
      </trkpt>
      <trkpt lat="49.24579" lon="1.39691">
        <ele>20</ele>
        <time>2018-04-11T09:24:22Z</time>
      </trkpt>
      <trkpt lat="49.24586" lon="1.39668">
        <ele>21</ele>
        <time>2018-04-11T09:25:22Z</time>
      </trkpt>
      <trkpt lat="49.2461" lon="1.39625">
        <ele>29</ele>
        <time>2018-04-11T09:26:22Z</time>
      </trkpt>
      <trkpt lat="49.24637" lon="1.39555">
        <ele>31</ele>
        <time>2018-04-11T09:27:22Z</time>
      </trkpt>
      <trkpt lat="49.2467" lon="1.39437">
        <ele>25</ele>
        <time>2018-04-11T09:28:22Z</time>
      </trkpt>
      <trkpt lat="49.24696" lon="1.39356">
        <ele>27</ele>
        <time>2018-04-11T09:29:22Z</time>
      </trkpt>
      <trkpt lat="49.24759" lon="1.3919">
        <ele>19</ele>
        <time>2018-04-11T09:30:22Z</time>
      </trkpt>
      <trkpt lat="49.24798" lon="1.39119">
        <ele>22</ele>
        <time>2018-04-11T09:31:22Z</time>
      </trkpt>
      <trkpt lat="49.24883" lon="1.38954">
        <ele>18</ele>
        <time>2018-04-11T09:32:22Z</time>
      </trkpt>
      <trkpt lat="49.24938" lon="1.38854">
        <ele>20</ele>
        <time>2018-04-11T09:33:22Z</time>
      </trkpt>
      <trkpt lat="49.24996" lon="1.38736">
        <ele>18</ele>
        <time>2018-04-11T09:34:22Z</time>
      </trkpt>
      <trkpt lat="49.25055" lon="1.38591">
        <ele>22</ele>
        <time>2018-04-11T09:35:22Z</time>
      </trkpt>
      <trkpt lat="49.25081" lon="1.38522">
        <ele>21</ele>
        <time>2018-04-11T09:36:22Z</time>
      </trkpt>
      <trkpt lat="49.25147" lon="1.38326">
        <ele>24</ele>
        <time>2018-04-11T09:37:22Z</time>
      </trkpt>
      <trkpt lat="49.25169" lon="1.38268">
        <ele>22</ele>
        <time>2018-04-11T09:38:22Z</time>
      </trkpt>
      <trkpt lat="49.25197" lon="1.38204">
        <ele>26</ele>
        <time>2018-04-11T09:39:22Z</time>
      </trkpt>
      <trkpt lat="49.25243" lon="1.3811">
        <ele>22</ele>
        <time>2018-04-11T09:40:22Z</time>
      </trkpt>
      <trkpt lat="49.25254" lon="1.38097">
        <ele>22</ele>
        <time>2018-04-11T09:41:22Z</time>
      </trkpt>
      <trkpt lat="49.25271" lon="1.38091">
        <ele>24</ele>
        <time>2018-04-11T09:42:22Z</time>
      </trkpt>
      <trkpt lat="49.25278" lon="1.38086">
        <ele>25</ele>
        <time>2018-04-11T09:43:22Z</time>
      </trkpt>
      <trkpt lat="49.25282" lon="1.38078">
        <ele>24</ele>
        <time>2018-04-11T09:44:22Z</time>
      </trkpt>
      <trkpt lat="49.25295" lon="1.38034">
        <ele>21</ele>
        <time>2018-04-11T09:45:22Z</time>
      </trkpt>
      <trkpt lat="49.25299" lon="1.38026">
        <ele>21</ele>
        <time>2018-04-11T09:46:22Z</time>
      </trkpt>
      <trkpt lat="49.25305" lon="1.38021">
        <ele>21</ele>
        <time>2018-04-11T09:47:22Z</time>
      </trkpt>
      <trkpt lat="49.25368" lon="1.37981">
        <ele>20</ele>
        <time>2018-04-11T09:48:22Z</time>
      </trkpt>
      <trkpt lat="49.25376" lon="1.37973">
        <ele>20</ele>
        <time>2018-04-11T09:49:22Z</time>
      </trkpt>
      <trkpt lat="49.25381" lon="1.37966">
        <ele>20</ele>
        <time>2018-04-11T09:50:22Z</time>
      </trkpt>
      <trkpt lat="49.25386" lon="1.37952">
        <ele>19</ele>
        <time>2018-04-11T09:51:22Z</time>
      </trkpt>
      <trkpt lat="49.25387" lon="1.37941">
        <ele>19</ele>
        <time>2018-04-11T09:52:22Z</time>
      </trkpt>
      <trkpt lat="49.25392" lon="1.37901">
        <ele>19</ele>
        <time>2018-04-11T09:53:22Z</time>
      </trkpt>
      <trkpt lat="49.25391" lon="1.37892">
        <ele>20</ele>
        <time>2018-04-11T09:54:22Z</time>
      </trkpt>
      <trkpt lat="49.25403" lon="1.37874">
        <ele>22</ele>
        <time>2018-04-11T09:55:22Z</time>
      </trkpt>
      <trkpt lat="49.25417" lon="1.37862">
        <ele>24</ele>
        <time>2018-04-11T09:56:22Z</time>
      </trkpt>
      <trkpt lat="49.25464" lon="1.37863">
        <ele>31</ele>
        <time>2018-04-11T09:57:22Z</time>
      </trkpt>
      <trkpt lat="49.25492" lon="1.37872">
        <ele>34</ele>
        <time>2018-04-11T09:58:22Z</time>
      </trkpt>
      <trkpt lat="49.25627" lon="1.37931">
        <ele>46</ele>
        <time>2018-04-11T09:59:22Z</time>
      </trkpt>
      <trkpt lat="49.25699" lon="1.37991">
        <ele>48</ele>
        <time>2018-04-11T10:00:22Z</time>
      </trkpt>
      <trkpt lat="49.25721" lon="1.38004">
        <ele>51</ele>
        <time>2018-04-11T10:01:22Z</time>
      </trkpt>
      <trkpt lat="49.25727" lon="1.37991">
        <ele>54</ele>
        <time>2018-04-11T10:02:22Z</time>
      </trkpt>
      <trkpt lat="49.25664" lon="1.37917">
        <ele>57</ele>
        <time>2018-04-11T10:03:22Z</time>
      </trkpt>
      <trkpt lat="49.25564" lon="1.37751">
        <ele>75</ele>
        <time>2018-04-11T10:04:22Z</time>
      </trkpt>
      <trkpt lat="49.25459" lon="1.37646">
        <ele>72</ele>
        <time>2018-04-11T10:05:22Z</time>
      </trkpt>
      <trkpt lat="49.25458" lon="1.37634">
        <ele>74</ele>
        <time>2018-04-11T10:06:22Z</time>
      </trkpt>
      <trkpt lat="49.25477" lon="1.37639">
        <ele>80</ele>
        <time>2018-04-11T10:07:22Z</time>
      </trkpt>
      <trkpt lat="49.25517" lon="1.37644">
        <ele>90</ele>
        <time>2018-04-11T10:08:22Z</time>
      </trkpt>
      <trkpt lat="49.25582" lon="1.37673">
        <ele>94</ele>
        <time>2018-04-11T10:09:22Z</time>
      </trkpt>
      <trkpt lat="49.25644" lon="1.37722">
        <ele>96</ele>
        <time>2018-04-11T10:10:22Z</time>
      </trkpt>
      <trkpt lat="49.25682" lon="1.37757">
        <ele>97</ele>
        <time>2018-04-11T10:11:22Z</time>
      </trkpt>
      <trkpt lat="49.25705" lon="1.37774">
        <ele>97</ele>
        <time>2018-04-11T10:12:22Z</time>
      </trkpt>
      <trkpt lat="49.25694" lon="1.37353">
        <ele>122</ele>
        <time>2018-04-11T10:13:22Z</time>
      </trkpt>
      <trkpt lat="49.25702" lon="1.37319">
        <ele>123</ele>
        <time>2018-04-11T10:14:22Z</time>
      </trkpt>
      <trkpt lat="49.25756" lon="1.37114">
        <ele>125</ele>
        <time>2018-04-11T10:15:22Z</time>
      </trkpt>
      <trkpt lat="49.25885" lon="1.36658">
        <ele>135</ele>
        <time>2018-04-11T10:16:22Z</time>
      </trkpt>
      <trkpt lat="49.25892" lon="1.3662">
        <ele>137</ele>
        <time>2018-04-11T10:17:22Z</time>
      </trkpt>
      <trkpt lat="49.2589" lon="1.36579">
        <ele>138</ele>
        <time>2018-04-11T10:18:22Z</time>
      </trkpt>
      <trkpt lat="49.25826" lon="1.36145">
        <ele>138</ele>
        <time>2018-04-11T10:19:22Z</time>
      </trkpt>
      <trkpt lat="49.25996" lon="1.36115">
        <ele>133</ele>
        <time>2018-04-11T10:20:22Z</time>
      </trkpt>
      <trkpt lat="49.26233" lon="1.3607">
        <ele>134</ele>
        <time>2018-04-11T10:21:22Z</time>
      </trkpt>
      <trkpt lat="49.26724" lon="1.35984">
        <ele>132</ele>
        <time>2018-04-11T10:22:22Z</time>
      </trkpt>
      <trkpt lat="49.26936" lon="1.35943">
        <ele>133</ele>
        <time>2018-04-11T10:23:22Z</time>
      </trkpt>
      <trkpt lat="49.27156" lon="1.35907">
        <ele>133</ele>
        <time>2018-04-11T10:24:22Z</time>
      </trkpt>
      <trkpt lat="49.27753" lon="1.35798">
        <ele>140</ele>
        <time>2018-04-11T10:25:22Z</time>
      </trkpt>
      <trkpt lat="49.27932" lon="1.3577">
        <ele>137</ele>
        <time>2018-04-11T10:26:22Z</time>
      </trkpt>
      <trkpt lat="49.27994" lon="1.35771">
        <ele>137</ele>
        <time>2018-04-11T10:27:22Z</time>
      </trkpt>
      <trkpt lat="49.28039" lon="1.35785">
        <ele>136</ele>
        <time>2018-04-11T10:28:22Z</time>
      </trkpt>
      <trkpt lat="49.28093" lon="1.35812">
        <ele>136</ele>
        <time>2018-04-11T10:29:22Z</time>
      </trkpt>
      <trkpt lat="49.28138" lon="1.3584">
        <ele>137</ele>
        <time>2018-04-11T10:30:22Z</time>
      </trkpt>
      <trkpt lat="49.28164" lon="1.35866">
        <ele>138</ele>
        <time>2018-04-11T10:31:22Z</time>
      </trkpt>
      <trkpt lat="49.28198" lon="1.35919">
        <ele>139</ele>
        <time>2018-04-11T10:32:22Z</time>
      </trkpt>
      <trkpt lat="49.28233" lon="1.35967">
        <ele>142</ele>
        <time>2018-04-11T10:33:22Z</time>
      </trkpt>
      <trkpt lat="49.28265" lon="1.35985">
        <ele>144</ele>
        <time>2018-04-11T10:34:22Z</time>
      </trkpt>
      <trkpt lat="49.28292" lon="1.35985">
        <ele>144</ele>
        <time>2018-04-11T10:35:22Z</time>
      </trkpt>
      <trkpt lat="49.28319" lon="1.35973">
        <ele>144</ele>
        <time>2018-04-11T10:36:22Z</time>
      </trkpt>
      <trkpt lat="49.28338" lon="1.35962">
        <ele>144</ele>
        <time>2018-04-11T10:37:22Z</time>
      </trkpt>
      <trkpt lat="49.2837" lon="1.3591">
        <ele>141</ele>
        <time>2018-04-11T10:38:22Z</time>
      </trkpt>
      <trkpt lat="49.28379" lon="1.35867">
        <ele>137</ele>
        <time>2018-04-11T10:39:22Z</time>
      </trkpt>
      <trkpt lat="49.28378" lon="1.35759">
        <ele>132</ele>
        <time>2018-04-11T10:40:22Z</time>
      </trkpt>
      <trkpt lat="49.28369" lon="1.35619">
        <ele>131</ele>
        <time>2018-04-11T10:41:22Z</time>
      </trkpt>
      <trkpt lat="49.28342" lon="1.35549">
        <ele>130</ele>
        <time>2018-04-11T10:42:22Z</time>
      </trkpt>
      <trkpt lat="49.28329" lon="1.3553">
        <ele>130</ele>
        <time>2018-04-11T10:43:22Z</time>
      </trkpt>
      <trkpt lat="49.28308" lon="1.35512">
        <ele>128</ele>
        <time>2018-04-11T10:44:22Z</time>
      </trkpt>
      <trkpt lat="49.28258" lon="1.35484">
        <ele>126</ele>
        <time>2018-04-11T10:45:22Z</time>
      </trkpt>
      <trkpt lat="49.28212" lon="1.35453">
        <ele>125</ele>
        <time>2018-04-11T10:46:22Z</time>
      </trkpt>
      <trkpt lat="49.28194" lon="1.35414">
        <ele>124</ele>
        <time>2018-04-11T10:47:22Z</time>
      </trkpt>
      <trkpt lat="49.28171" lon="1.35309">
        <ele>124</ele>
        <time>2018-04-11T10:48:22Z</time>
      </trkpt>
      <trkpt lat="49.28172" lon="1.3518">
        <ele>118</ele>
        <time>2018-04-11T10:49:22Z</time>
      </trkpt>
      <trkpt lat="49.28178" lon="1.35121">
        <ele>114</ele>
        <time>2018-04-11T10:50:22Z</time>
      </trkpt>
      <trkpt lat="49.28195" lon="1.35061">
        <ele>110</ele>
        <time>2018-04-11T10:51:22Z</time>
      </trkpt>
      <trkpt lat="49.28327" lon="1.3482">
        <ele>112</ele>
        <time>2018-04-11T10:52:22Z</time>
      </trkpt>
      <trkpt lat="49.2834" lon="1.34802">
        <ele>115</ele>
        <time>2018-04-11T10:53:22Z</time>
      </trkpt>
      <trkpt lat="49.28356" lon="1.34791">
        <ele>117</ele>
        <time>2018-04-11T10:54:22Z</time>
      </trkpt>
      <trkpt lat="49.28374" lon="1.34788">
        <ele>118</ele>
        <time>2018-04-11T10:55:22Z</time>
      </trkpt>
      <trkpt lat="49.28388" lon="1.3479">
        <ele>119</ele>
        <time>2018-04-11T10:56:22Z</time>
      </trkpt>
      <trkpt lat="49.28433" lon="1.34814">
        <ele>118</ele>
        <time>2018-04-11T10:57:22Z</time>
      </trkpt>
      <trkpt lat="49.28454" lon="1.3482">
        <ele>118</ele>
        <time>2018-04-11T10:58:22Z</time>
      </trkpt>
      <trkpt lat="49.28475" lon="1.34816">
        <ele>118</ele>
        <time>2018-04-11T10:59:22Z</time>
      </trkpt>
      <trkpt lat="49.28488" lon="1.34803">
        <ele>119</ele>
        <time>2018-04-11T11:00:22Z</time>
      </trkpt>
      <trkpt lat="49.28498" lon="1.34783">
        <ele>120</ele>
        <time>2018-04-11T11:01:22Z</time>
      </trkpt>
      <trkpt lat="49.28503" lon="1.34757">
        <ele>121</ele>
        <time>2018-04-11T11:02:22Z</time>
      </trkpt>
      <trkpt lat="49.285" lon="1.3473">
        <ele>123</ele>
        <time>2018-04-11T11:03:22Z</time>
      </trkpt>
      <trkpt lat="49.28495" lon="1.34712">
        <ele>125</ele>
        <time>2018-04-11T11:04:22Z</time>
      </trkpt>
      <trkpt lat="49.28467" lon="1.3466">
        <ele>127</ele>
        <time>2018-04-11T11:05:22Z</time>
      </trkpt>
      <trkpt lat="49.28458" lon="1.34629">
        <ele>128</ele>
        <time>2018-04-11T11:06:22Z</time>
      </trkpt>
      <trkpt lat="49.28457" lon="1.34602">
        <ele>129</ele>
        <time>2018-04-11T11:07:22Z</time>
      </trkpt>
      <trkpt lat="49.28462" lon="1.3458">
        <ele>130</ele>
        <time>2018-04-11T11:08:22Z</time>
      </trkpt>
      <trkpt lat="49.28471" lon="1.34563">
        <ele>131</ele>
        <time>2018-04-11T11:09:22Z</time>
      </trkpt>
      <trkpt lat="49.28507" lon="1.34526">
        <ele>133</ele>
        <time>2018-04-11T11:10:22Z</time>
      </trkpt>
      <trkpt lat="49.28522" lon="1.34503">
        <ele>133</ele>
        <time>2018-04-11T11:11:22Z</time>
      </trkpt>
      <trkpt lat="49.28592" lon="1.34269">
        <ele>139</ele>
        <time>2018-04-11T11:12:22Z</time>
      </trkpt>
      <trkpt lat="49.28642" lon="1.34111">
        <ele>140</ele>
        <time>2018-04-11T11:13:22Z</time>
      </trkpt>
      <trkpt lat="49.28654" lon="1.34079">
        <ele>140</ele>
        <time>2018-04-11T11:14:22Z</time>
      </trkpt>
      <trkpt lat="49.28706" lon="1.34025">
        <ele>141</ele>
        <time>2018-04-11T11:15:22Z</time>
      </trkpt>
      <trkpt lat="49.2874" lon="1.33993">
        <ele>141</ele>
        <time>2018-04-11T11:16:22Z</time>
      </trkpt>
      <trkpt lat="49.28797" lon="1.33942">
        <ele>142</ele>
        <time>2018-04-11T11:17:22Z</time>
      </trkpt>
      <trkpt lat="49.2884" lon="1.33908">
        <ele>143</ele>
        <time>2018-04-11T11:18:22Z</time>
      </trkpt>
      <trkpt lat="49.28878" lon="1.33888">
        <ele>143</ele>
        <time>2018-04-11T11:19:22Z</time>
      </trkpt>
      <trkpt lat="49.28928" lon="1.33873">
        <ele>143</ele>
        <time>2018-04-11T11:20:22Z</time>
      </trkpt>
      <trkpt lat="49.2896" lon="1.33856">
        <ele>143</ele>
        <time>2018-04-11T11:21:22Z</time>
      </trkpt>
      <trkpt lat="49.29004" lon="1.33825">
        <ele>142</ele>
        <time>2018-04-11T11:22:22Z</time>
      </trkpt>
      <trkpt lat="49.2905" lon="1.33772">
        <ele>141</ele>
        <time>2018-04-11T11:23:22Z</time>
      </trkpt>
      <trkpt lat="49.29095" lon="1.33745">
        <ele>141</ele>
        <time>2018-04-11T11:24:22Z</time>
      </trkpt>
      <trkpt lat="49.29148" lon="1.33724">
        <ele>142</ele>
        <time>2018-04-11T11:25:22Z</time>
      </trkpt>
      <trkpt lat="49.29201" lon="1.33698">
        <ele>142</ele>
        <time>2018-04-11T11:26:22Z</time>
      </trkpt>
      <trkpt lat="49.29258" lon="1.33657">
        <ele>143</ele>
        <time>2018-04-11T11:27:22Z</time>
      </trkpt>
      <trkpt lat="49.29454" lon="1.33483">
        <ele>147</ele>
        <time>2018-04-11T11:28:22Z</time>
      </trkpt>
      <trkpt lat="49.29512" lon="1.3342">
        <ele>149</ele>
        <time>2018-04-11T11:29:22Z</time>
      </trkpt>
      <trkpt lat="49.29571" lon="1.33323">
        <ele>150</ele>
        <time>2018-04-11T11:30:22Z</time>
      </trkpt>
      <trkpt lat="49.29693" lon="1.331">
        <ele>151</ele>
        <time>2018-04-11T11:31:22Z</time>
      </trkpt>
      <trkpt lat="49.29782" lon="1.32982">
        <ele>151</ele>
        <time>2018-04-11T11:32:22Z</time>
      </trkpt>
      <trkpt lat="49.29862" lon="1.32911">
        <ele>151</ele>
        <time>2018-04-11T11:33:22Z</time>
      </trkpt>
      <trkpt lat="49.30023" lon="1.32774">
        <ele>150</ele>
        <time>2018-04-11T11:34:22Z</time>
      </trkpt>
      <trkpt lat="49.30097" lon="1.32699">
        <ele>148</ele>
        <time>2018-04-11T11:35:22Z</time>
      </trkpt>
      <trkpt lat="49.30313" lon="1.32451">
        <ele>145</ele>
        <time>2018-04-11T11:36:22Z</time>
      </trkpt>
      <trkpt lat="49.30323" lon="1.324">
        <ele>145</ele>
        <time>2018-04-11T11:37:22Z</time>
      </trkpt>
      <trkpt lat="49.30343" lon="1.32267">
        <ele>144</ele>
        <time>2018-04-11T11:38:22Z</time>
      </trkpt>
      <trkpt lat="49.30355" lon="1.32165">
        <ele>144</ele>
        <time>2018-04-11T11:39:22Z</time>
      </trkpt>
      <trkpt lat="49.30371" lon="1.32044">
        <ele>144</ele>
        <time>2018-04-11T11:40:22Z</time>
      </trkpt>
      <trkpt lat="49.3038" lon="1.31997">
        <ele>144</ele>
        <time>2018-04-11T11:41:22Z</time>
      </trkpt>
      <trkpt lat="49.30391" lon="1.31964">
        <ele>143</ele>
        <time>2018-04-11T11:42:22Z</time>
      </trkpt>
      <trkpt lat="49.30409" lon="1.31926">
        <ele>143</ele>
        <time>2018-04-11T11:43:22Z</time>
      </trkpt>
      <trkpt lat="49.30427" lon="1.31895">
        <ele>142</ele>
        <time>2018-04-11T11:44:22Z</time>
      </trkpt>
      <trkpt lat="49.30465" lon="1.31849">
        <ele>142</ele>
        <time>2018-04-11T11:45:22Z</time>
      </trkpt>
      <trkpt lat="49.30527" lon="1.31781">
        <ele>142</ele>
        <time>2018-04-11T11:46:22Z</time>
      </trkpt>
      <trkpt lat="49.309" lon="1.3136">
        <ele>141</ele>
        <time>2018-04-11T11:47:22Z</time>
      </trkpt>
      <trkpt lat="49.309" lon="1.3136">
        <ele>141</ele>
        <time>2018-04-11T11:48:22Z</time>
      </trkpt>
      <trkpt lat="49.31088" lon="1.31148">
        <ele>138</ele>
        <time>2018-04-11T11:49:22Z</time>
      </trkpt>
      <trkpt lat="49.31146" lon="1.31094">
        <ele>138</ele>
        <time>2018-04-11T11:50:22Z</time>
      </trkpt>
      <trkpt lat="49.3119" lon="1.31063">
        <ele>137</ele>
        <time>2018-04-11T11:51:22Z</time>
      </trkpt>
      <trkpt lat="49.31316" lon="1.3098">
        <ele>139</ele>
        <time>2018-04-11T11:52:22Z</time>
      </trkpt>
      <trkpt lat="49.31335" lon="1.30963">
        <ele>140</ele>
        <time>2018-04-11T11:53:22Z</time>
      </trkpt>
      <trkpt lat="49.31344" lon="1.30947">
        <ele>140</ele>
        <time>2018-04-11T11:54:22Z</time>
      </trkpt>
      <trkpt lat="49.31372" lon="1.3089">
        <ele>139</ele>
        <time>2018-04-11T11:55:22Z</time>
      </trkpt>
      <trkpt lat="49.31396" lon="1.30823">
        <ele>139</ele>
        <time>2018-04-11T11:56:22Z</time>
      </trkpt>
      <trkpt lat="49.31422" lon="1.30722">
        <ele>140</ele>
        <time>2018-04-11T11:57:22Z</time>
      </trkpt>
      <trkpt lat="49.3143" lon="1.30699">
        <ele>140</ele>
        <time>2018-04-11T11:58:22Z</time>
      </trkpt>
      <trkpt lat="49.31452" lon="1.30649">
        <ele>139</ele>
        <time>2018-04-11T11:59:22Z</time>
      </trkpt>
      <trkpt lat="49.31569" lon="1.30403">
        <ele>138</ele>
        <time>2018-04-11T12:00:22Z</time>
      </trkpt>
      <trkpt lat="49.31672" lon="1.30192">
        <ele>141</ele>
        <time>2018-04-11T12:01:22Z</time>
      </trkpt>
      <trkpt lat="49.3172" lon="1.30116">
        <ele>147</ele>
        <time>2018-04-11T12:02:22Z</time>
      </trkpt>
      <trkpt lat="49.3197" lon="1.29754">
        <ele>138</ele>
        <time>2018-04-11T12:03:22Z</time>
      </trkpt>
      <trkpt lat="49.31996" lon="1.29714">
        <ele>138</ele>
        <time>2018-04-11T12:04:22Z</time>
      </trkpt>
      <trkpt lat="49.32039" lon="1.29655">
        <ele>139</ele>
        <time>2018-04-11T12:05:22Z</time>
      </trkpt>
      <trkpt lat="49.32167" lon="1.29466">
        <ele>134</ele>
        <time>2018-04-11T12:06:22Z</time>
      </trkpt>
      <trkpt lat="49.322" lon="1.29429">
        <ele>133</ele>
        <time>2018-04-11T12:07:22Z</time>
      </trkpt>
      <trkpt lat="49.3239" lon="1.29274">
        <ele>125</ele>
        <time>2018-04-11T12:08:22Z</time>
      </trkpt>
      <trkpt lat="49.32455" lon="1.29218">
        <ele>120</ele>
        <time>2018-04-11T12:09:22Z</time>
      </trkpt>
      <trkpt lat="49.32553" lon="1.29142">
        <ele>114</ele>
        <time>2018-04-11T12:10:22Z</time>
      </trkpt>
      <trkpt lat="49.32578" lon="1.29129">
        <ele>113</ele>
        <time>2018-04-11T12:11:22Z</time>
      </trkpt>
      <trkpt lat="49.32589" lon="1.29127">
        <ele>112</ele>
        <time>2018-04-11T12:12:22Z</time>
      </trkpt>
      <trkpt lat="49.32605" lon="1.29129">
        <ele>111</ele>
        <time>2018-04-11T12:13:22Z</time>
      </trkpt>
      <trkpt lat="49.32618" lon="1.29136">
        <ele>110</ele>
        <time>2018-04-11T12:14:22Z</time>
      </trkpt>
      <trkpt lat="49.32628" lon="1.29144">
        <ele>109</ele>
        <time>2018-04-11T12:15:22Z</time>
      </trkpt>
      <trkpt lat="49.32655" lon="1.29172">
        <ele>108</ele>
        <time>2018-04-11T12:16:22Z</time>
      </trkpt>
      <trkpt lat="49.3272" lon="1.29252">
        <ele>105</ele>
        <time>2018-04-11T12:17:22Z</time>
      </trkpt>
      <trkpt lat="49.33099" lon="1.29692">
        <ele>53</ele>
        <time>2018-04-11T12:18:22Z</time>
      </trkpt>
      <trkpt lat="49.33145" lon="1.29742">
        <ele>49</ele>
        <time>2018-04-11T12:19:22Z</time>
      </trkpt>
      <trkpt lat="49.33164" lon="1.29757">
        <ele>48</ele>
        <time>2018-04-11T12:20:22Z</time>
      </trkpt>
      <trkpt lat="49.33179" lon="1.29766">
        <ele>47</ele>
        <time>2018-04-11T12:21:22Z</time>
      </trkpt>
      <trkpt lat="49.332" lon="1.29772">
        <ele>46</ele>
        <time>2018-04-11T12:22:22Z</time>
      </trkpt>
      <trkpt lat="49.33228" lon="1.29769">
        <ele>46</ele>
        <time>2018-04-11T12:23:22Z</time>
      </trkpt>
      <trkpt lat="49.33249" lon="1.29762">
        <ele>45</ele>
        <time>2018-04-11T12:24:22Z</time>
      </trkpt>
      <trkpt lat="49.33279" lon="1.29737">
        <ele>43</ele>
        <time>2018-04-11T12:25:22Z</time>
      </trkpt>
      <trkpt lat="49.3329" lon="1.29722">
        <ele>43</ele>
        <time>2018-04-11T12:26:22Z</time>
      </trkpt>
      <trkpt lat="49.33309" lon="1.29688">
        <ele>42</ele>
        <time>2018-04-11T12:27:22Z</time>
      </trkpt>
      <trkpt lat="49.33322" lon="1.29637">
        <ele>41</ele>
        <time>2018-04-11T12:28:22Z</time>
      </trkpt>
      <trkpt lat="49.33326" lon="1.29598">
        <ele>40</ele>
        <time>2018-04-11T12:29:22Z</time>
      </trkpt>
      <trkpt lat="49.33325" lon="1.29256">
        <ele>30</ele>
        <time>2018-04-11T12:30:22Z</time>
      </trkpt>
      <trkpt lat="49.33327" lon="1.2915">
        <ele>31</ele>
        <time>2018-04-11T12:31:22Z</time>
      </trkpt>
      <trkpt lat="49.33229" lon="1.28826">
        <ele>31</ele>
        <time>2018-04-11T12:32:22Z</time>
      </trkpt>
      <trkpt lat="49.33167" lon="1.2863">
        <ele>23</ele>
        <time>2018-04-11T12:33:22Z</time>
      </trkpt>
      <trkpt lat="49.33161" lon="1.28586">
        <ele>23</ele>
        <time>2018-04-11T12:34:22Z</time>
      </trkpt>
      <trkpt lat="49.33166" lon="1.28546">
        <ele>23</ele>
        <time>2018-04-11T12:35:22Z</time>
      </trkpt>
      <trkpt lat="49.33183" lon="1.28481">
        <ele>25</ele>
        <time>2018-04-11T12:36:22Z</time>
      </trkpt>
      <trkpt lat="49.33186" lon="1.28454">
        <ele>25</ele>
        <time>2018-04-11T12:37:22Z</time>
      </trkpt>
      <trkpt lat="49.33184" lon="1.28359">
        <ele>27</ele>
        <time>2018-04-11T12:38:22Z</time>
      </trkpt>
      <trkpt lat="49.33151" lon="1.28219">
        <ele>26</ele>
        <time>2018-04-11T12:39:22Z</time>
      </trkpt>
      <trkpt lat="49.33145" lon="1.28185">
        <ele>24</ele>
        <time>2018-04-11T12:40:22Z</time>
      </trkpt>
      <trkpt lat="49.33128" lon="1.28139">
        <ele>23</ele>
        <time>2018-04-11T12:41:22Z</time>
      </trkpt>
      <trkpt lat="49.33101" lon="1.28077">
        <ele>21</ele>
        <time>2018-04-11T12:42:22Z</time>
      </trkpt>
      <trkpt lat="49.33088" lon="1.28055">
        <ele>20</ele>
        <time>2018-04-11T12:43:22Z</time>
      </trkpt>
      <trkpt lat="49.33129" lon="1.28008">
        <ele>17</ele>
        <time>2018-04-11T12:44:22Z</time>
      </trkpt>
      <trkpt lat="49.33176" lon="1.27962">
        <ele>16</ele>
        <time>2018-04-11T12:45:22Z</time>
      </trkpt>
      <trkpt lat="49.332" lon="1.27936">
        <ele>15</ele>
        <time>2018-04-11T12:46:22Z</time>
      </trkpt>
      <trkpt lat="49.33224" lon="1.27904">
        <ele>15</ele>
        <time>2018-04-11T12:47:22Z</time>
      </trkpt>
      <trkpt lat="49.33245" lon="1.2786">
        <ele>16</ele>
        <time>2018-04-11T12:48:22Z</time>
      </trkpt>
      <trkpt lat="49.33272" lon="1.27787">
        <ele>16</ele>
        <time>2018-04-11T12:49:22Z</time>
      </trkpt>
      <trkpt lat="49.33351" lon="1.27548">
        <ele>14</ele>
        <time>2018-04-11T12:50:22Z</time>
      </trkpt>
      <trkpt lat="49.33395" lon="1.27422">
        <ele>14</ele>
        <time>2018-04-11T12:51:22Z</time>
      </trkpt>
      <trkpt lat="49.334" lon="1.27427">
        <ele>14</ele>
        <time>2018-04-11T12:52:22Z</time>
      </trkpt>
      <trkpt lat="49.33604" lon="1.26879">
        <ele>14</ele>
        <time>2018-04-11T12:53:22Z</time>
      </trkpt>
      <trkpt lat="49.33634" lon="1.26794">
        <ele>15</ele>
        <time>2018-04-11T12:54:22Z</time>
      </trkpt>
      <trkpt lat="49.33641" lon="1.26763">
        <ele>16</ele>
        <time>2018-04-11T12:55:22Z</time>
      </trkpt>
      <trkpt lat="49.3365" lon="1.26699">
        <ele>18</ele>
        <time>2018-04-11T12:56:22Z</time>
      </trkpt>
      <trkpt lat="49.33653" lon="1.26649">
        <ele>19</ele>
        <time>2018-04-11T12:57:22Z</time>
      </trkpt>
      <trkpt lat="49.33664" lon="1.2655">
        <ele>19</ele>
        <time>2018-04-11T12:58:22Z</time>
      </trkpt>
      <trkpt lat="49.33678" lon="1.2647">
        <ele>20</ele>
        <time>2018-04-11T12:59:22Z</time>
      </trkpt>
      <trkpt lat="49.3369" lon="1.26421">
        <ele>23</ele>
        <time>2018-04-11T13:00:22Z</time>
      </trkpt>
      <trkpt lat="49.3369" lon="1.26397">
        <ele>23</ele>
        <time>2018-04-11T13:01:22Z</time>
      </trkpt>
      <trkpt lat="49.33702" lon="1.26358">
        <ele>25</ele>
        <time>2018-04-11T13:02:22Z</time>
      </trkpt>
      <trkpt lat="49.33704" lon="1.26346">
        <ele>25</ele>
        <time>2018-04-11T13:03:22Z</time>
      </trkpt>
      <trkpt lat="49.33715" lon="1.26328">
        <ele>26</ele>
        <time>2018-04-11T13:04:22Z</time>
      </trkpt>
      <trkpt lat="49.33743" lon="1.26256">
        <ele>27</ele>
        <time>2018-04-11T13:05:22Z</time>
      </trkpt>
      <trkpt lat="49.33754" lon="1.26233">
        <ele>28</ele>
        <time>2018-04-11T13:06:22Z</time>
      </trkpt>
      <trkpt lat="49.33754" lon="1.26233">
        <ele>28</ele>
        <time>2018-04-11T13:07:22Z</time>
      </trkpt>
      <trkpt lat="49.3377" lon="1.26205">
        <ele>30</ele>
        <time>2018-04-11T13:08:22Z</time>
      </trkpt>
      <trkpt lat="49.33784" lon="1.26185">
        <ele>32</ele>
        <time>2018-04-11T13:09:22Z</time>
      </trkpt>
      <trkpt lat="49.338" lon="1.26168">
        <ele>34</ele>
        <time>2018-04-11T13:10:22Z</time>
      </trkpt>
      <trkpt lat="49.33825" lon="1.26152">
        <ele>37</ele>
        <time>2018-04-11T13:11:22Z</time>
      </trkpt>
      <trkpt lat="49.33837" lon="1.26149">
        <ele>39</ele>
        <time>2018-04-11T13:12:22Z</time>
      </trkpt>
      <trkpt lat="49.33851" lon="1.26149">
        <ele>40</ele>
        <time>2018-04-11T13:13:22Z</time>
      </trkpt>
      <trkpt lat="49.33873" lon="1.26156">
        <ele>43</ele>
        <time>2018-04-11T13:14:22Z</time>
      </trkpt>
      <trkpt lat="49.33907" lon="1.26174">
        <ele>47</ele>
        <time>2018-04-11T13:15:22Z</time>
      </trkpt>
      <trkpt lat="49.33944" lon="1.26198">
        <ele>54</ele>
        <time>2018-04-11T13:16:22Z</time>
      </trkpt>
      <trkpt lat="49.33968" lon="1.26226">
        <ele>57</ele>
        <time>2018-04-11T13:17:22Z</time>
      </trkpt>
      <trkpt lat="49.33977" lon="1.26229">
        <ele>58</ele>
        <time>2018-04-11T13:18:22Z</time>
      </trkpt>
      <trkpt lat="49.33985" lon="1.26226">
        <ele>58</ele>
        <time>2018-04-11T13:19:22Z</time>
      </trkpt>
      <trkpt lat="49.3399" lon="1.26221">
        <ele>58</ele>
        <time>2018-04-11T13:20:22Z</time>
      </trkpt>
      <trkpt lat="49.33993" lon="1.26212">
        <ele>59</ele>
        <time>2018-04-11T13:21:22Z</time>
      </trkpt>
      <trkpt lat="49.33993" lon="1.26203">
        <ele>59</ele>
        <time>2018-04-11T13:22:22Z</time>
      </trkpt>
      <trkpt lat="49.33989" lon="1.26188">
        <ele>59</ele>
        <time>2018-04-11T13:23:22Z</time>
      </trkpt>
      <trkpt lat="49.3397" lon="1.2615">
        <ele>59</ele>
        <time>2018-04-11T13:24:22Z</time>
      </trkpt>
      <trkpt lat="49.33958" lon="1.2612">
        <ele>60</ele>
        <time>2018-04-11T13:25:22Z</time>
      </trkpt>
      <trkpt lat="49.33944" lon="1.26091">
        <ele>60</ele>
        <time>2018-04-11T13:26:22Z</time>
      </trkpt>
      <trkpt lat="49.33921" lon="1.26053">
        <ele>62</ele>
        <time>2018-04-11T13:27:22Z</time>
      </trkpt>
      <trkpt lat="49.3389" lon="1.26013">
        <ele>63</ele>
        <time>2018-04-11T13:28:22Z</time>
      </trkpt>
      <trkpt lat="49.33848" lon="1.25969">
        <ele>62</ele>
        <time>2018-04-11T13:29:22Z</time>
      </trkpt>
      <trkpt lat="49.33826" lon="1.25942">
        <ele>63</ele>
        <time>2018-04-11T13:30:22Z</time>
      </trkpt>
      <trkpt lat="49.33809" lon="1.25917">
        <ele>63</ele>
        <time>2018-04-11T13:31:22Z</time>
      </trkpt>
      <trkpt lat="49.33793" lon="1.25884">
        <ele>62</ele>
        <time>2018-04-11T13:32:22Z</time>
      </trkpt>
      <trkpt lat="49.33776" lon="1.25842">
        <ele>61</ele>
        <time>2018-04-11T13:33:22Z</time>
      </trkpt>
      <trkpt lat="49.33769" lon="1.25817">
        <ele>59</ele>
        <time>2018-04-11T13:34:22Z</time>
      </trkpt>
      <trkpt lat="49.33769" lon="1.25802">
        <ele>59</ele>
        <time>2018-04-11T13:35:22Z</time>
      </trkpt>
      <trkpt lat="49.33771" lon="1.25783">
        <ele>59</ele>
        <time>2018-04-11T13:36:22Z</time>
      </trkpt>
      <trkpt lat="49.33775" lon="1.25769">
        <ele>60</ele>
        <time>2018-04-11T13:37:22Z</time>
      </trkpt>
      <trkpt lat="49.33778" lon="1.25759">
        <ele>61</ele>
        <time>2018-04-11T13:38:22Z</time>
      </trkpt>
      <trkpt lat="49.33786" lon="1.25747">
        <ele>63</ele>
        <time>2018-04-11T13:39:22Z</time>
      </trkpt>
      <trkpt lat="49.33797" lon="1.25736">
        <ele>65</ele>
        <time>2018-04-11T13:40:22Z</time>
      </trkpt>
      <trkpt lat="49.33833" lon="1.25714">
        <ele>74</ele>
        <time>2018-04-11T13:41:22Z</time>
      </trkpt>
      <trkpt lat="49.33865" lon="1.25699">
        <ele>80</ele>
        <time>2018-04-11T13:42:22Z</time>
      </trkpt>
      <trkpt lat="49.3387" lon="1.25691">
        <ele>81</ele>
        <time>2018-04-11T13:43:22Z</time>
      </trkpt>
      <trkpt lat="49.33877" lon="1.25671">
        <ele>81</ele>
        <time>2018-04-11T13:44:22Z</time>
      </trkpt>
      <trkpt lat="49.33876" lon="1.2566">
        <ele>81</ele>
        <time>2018-04-11T13:45:22Z</time>
      </trkpt>
      <trkpt lat="49.33872" lon="1.25648">
        <ele>80</ele>
        <time>2018-04-11T13:46:22Z</time>
      </trkpt>
      <trkpt lat="49.33833" lon="1.25585">
        <ele>76</ele>
        <time>2018-04-11T13:47:22Z</time>
      </trkpt>
      <trkpt lat="49.33825" lon="1.25568">
        <ele>75</ele>
        <time>2018-04-11T13:48:22Z</time>
      </trkpt>
      <trkpt lat="49.33822" lon="1.25554">
        <ele>75</ele>
        <time>2018-04-11T13:49:22Z</time>
      </trkpt>
      <trkpt lat="49.33822" lon="1.25535">
        <ele>75</ele>
        <time>2018-04-11T13:50:22Z</time>
      </trkpt>
      <trkpt lat="49.33824" lon="1.25521">
        <ele>76</ele>
        <time>2018-04-11T13:51:22Z</time>
      </trkpt>
      <trkpt lat="49.33831" lon="1.25501">
        <ele>78</ele>
        <time>2018-04-11T13:52:22Z</time>
      </trkpt>
      <trkpt lat="49.33902" lon="1.25383">
        <ele>83</ele>
        <time>2018-04-11T13:53:22Z</time>
      </trkpt>
      <trkpt lat="49.33956" lon="1.2528">
        <ele>88</ele>
        <time>2018-04-11T13:54:22Z</time>
      </trkpt>
      <trkpt lat="49.33976" lon="1.25248">
        <ele>89</ele>
        <time>2018-04-11T13:55:22Z</time>
      </trkpt>
      <trkpt lat="49.33989" lon="1.25232">
        <ele>91</ele>
        <time>2018-04-11T13:56:22Z</time>
      </trkpt>
      <trkpt lat="49.33996" lon="1.25232">
        <ele>93</ele>
        <time>2018-04-11T13:57:22Z</time>
      </trkpt>
      <trkpt lat="49.34002" lon="1.25235">
        <ele>94</ele>
        <time>2018-04-11T13:58:22Z</time>
      </trkpt>
      <trkpt lat="49.34007" lon="1.25249">
        <ele>96</ele>
        <time>2018-04-11T13:59:22Z</time>
      </trkpt>
      <trkpt lat="49.34007" lon="1.25259">
        <ele>96</ele>
        <time>2018-04-11T14:00:22Z</time>
      </trkpt>
      <trkpt lat="49.33986" lon="1.25335">
        <ele>99</ele>
        <time>2018-04-11T14:01:22Z</time>
      </trkpt>
      <trkpt lat="49.33975" lon="1.25386">
        <ele>99</ele>
        <time>2018-04-11T14:02:22Z</time>
      </trkpt>
      <trkpt lat="49.3397" lon="1.25417">
        <ele>100</ele>
        <time>2018-04-11T14:03:22Z</time>
      </trkpt>
      <trkpt lat="49.33961" lon="1.25544">
        <ele>103</ele>
        <time>2018-04-11T14:04:22Z</time>
      </trkpt>
      <trkpt lat="49.33969" lon="1.25607">
        <ele>105</ele>
        <time>2018-04-11T14:05:22Z</time>
      </trkpt>
      <trkpt lat="49.33978" lon="1.25651">
        <ele>106</ele>
        <time>2018-04-11T14:06:22Z</time>
      </trkpt>
      <trkpt lat="49.33983" lon="1.25672">
        <ele>108</ele>
        <time>2018-04-11T14:07:22Z</time>
      </trkpt>
      <trkpt lat="49.33989" lon="1.25686">
        <ele>109</ele>
        <time>2018-04-11T14:08:22Z</time>
      </trkpt>
      <trkpt lat="49.34018" lon="1.25739">
        <ele>114</ele>
        <time>2018-04-11T14:09:22Z</time>
      </trkpt>
      <trkpt lat="49.34032" lon="1.25769">
        <ele>116</ele>
        <time>2018-04-11T14:10:22Z</time>
      </trkpt>
      <trkpt lat="49.34048" lon="1.25832">
        <ele>119</ele>
        <time>2018-04-11T14:11:22Z</time>
      </trkpt>
      <trkpt lat="49.34067" lon="1.2592">
        <ele>118</ele>
        <time>2018-04-11T14:12:22Z</time>
      </trkpt>
      <trkpt lat="49.34073" lon="1.25939">
        <ele>117</ele>
        <time>2018-04-11T14:13:22Z</time>
      </trkpt>
      <trkpt lat="49.34084" lon="1.25961">
        <ele>118</ele>
        <time>2018-04-11T14:14:22Z</time>
      </trkpt>
      <trkpt lat="49.34133" lon="1.26023">
        <ele>119</ele>
        <time>2018-04-11T14:15:22Z</time>
      </trkpt>
      <trkpt lat="49.34162" lon="1.26048">
        <ele>122</ele>
        <time>2018-04-11T14:16:22Z</time>
      </trkpt>
      <trkpt lat="49.34176" lon="1.26055">
        <ele>124</ele>
        <time>2018-04-11T14:17:22Z</time>
      </trkpt>
      <trkpt lat="49.34242" lon="1.26066">
        <ele>130</ele>
        <time>2018-04-11T14:18:22Z</time>
      </trkpt>
      <trkpt lat="49.345" lon="1.26099">
        <ele>137</ele>
        <time>2018-04-11T14:19:22Z</time>
      </trkpt>
      <trkpt lat="49.34518" lon="1.26103">
        <ele>138</ele>
        <time>2018-04-11T14:20:22Z</time>
      </trkpt>
      <trkpt lat="49.34543" lon="1.26114">
        <ele>139</ele>
        <time>2018-04-11T14:21:22Z</time>
      </trkpt>
      <trkpt lat="49.3457" lon="1.26131">
        <ele>141</ele>
        <time>2018-04-11T14:22:22Z</time>
      </trkpt>
      <trkpt lat="49.34623" lon="1.26176">
        <ele>144</ele>
        <time>2018-04-11T14:23:22Z</time>
      </trkpt>
      <trkpt lat="49.34673" lon="1.2621">
        <ele>145</ele>
        <time>2018-04-11T14:24:22Z</time>
      </trkpt>
      <trkpt lat="49.34738" lon="1.26262">
        <ele>144</ele>
        <time>2018-04-11T14:25:22Z</time>
      </trkpt>
      <trkpt lat="49.34783" lon="1.26296">
        <ele>143</ele>
        <time>2018-04-11T14:26:22Z</time>
      </trkpt>
      <trkpt lat="49.34838" lon="1.26316">
        <ele>143</ele>
        <time>2018-04-11T14:27:22Z</time>
      </trkpt>
      <trkpt lat="49.35009" lon="1.26341">
        <ele>139</ele>
        <time>2018-04-11T14:28:22Z</time>
      </trkpt>
      <trkpt lat="49.35148" lon="1.26367">
        <ele>136</ele>
        <time>2018-04-11T14:29:22Z</time>
      </trkpt>
      <trkpt lat="49.35241" lon="1.26375">
        <ele>138</ele>
        <time>2018-04-11T14:30:22Z</time>
      </trkpt>
      <trkpt lat="49.35257" lon="1.26372">
        <ele>139</ele>
        <time>2018-04-11T14:31:22Z</time>
      </trkpt>
      <trkpt lat="49.3527" lon="1.26363">
        <ele>139</ele>
        <time>2018-04-11T14:32:22Z</time>
      </trkpt>
      <trkpt lat="49.35287" lon="1.26344">
        <ele>140</ele>
        <time>2018-04-11T14:33:22Z</time>
      </trkpt>
      <trkpt lat="49.353" lon="1.26323">
        <ele>141</ele>
        <time>2018-04-11T14:34:22Z</time>
      </trkpt>
      <trkpt lat="49.35338" lon="1.26237">
        <ele>143</ele>
        <time>2018-04-11T14:35:22Z</time>
      </trkpt>
      <trkpt lat="49.35396" lon="1.26099">
        <ele>147</ele>
        <time>2018-04-11T14:36:22Z</time>
      </trkpt>
      <trkpt lat="49.35411" lon="1.26068">
        <ele>148</ele>
        <time>2018-04-11T14:37:22Z</time>
      </trkpt>
      <trkpt lat="49.35423" lon="1.26052">
        <ele>148</ele>
        <time>2018-04-11T14:38:22Z</time>
      </trkpt>
      <trkpt lat="49.35506" lon="1.25972">
        <ele>148</ele>
        <time>2018-04-11T14:39:22Z</time>
      </trkpt>
      <trkpt lat="49.35512" lon="1.25975">
        <ele>149</ele>
        <time>2018-04-11T14:40:22Z</time>
      </trkpt>
      <trkpt lat="49.35515" lon="1.25972">
        <ele>149</ele>
        <time>2018-04-11T14:41:22Z</time>
      </trkpt>
      <trkpt lat="49.35517" lon="1.25966">
        <ele>149</ele>
        <time>2018-04-11T14:42:22Z</time>
      </trkpt>
      <trkpt lat="49.35515" lon="1.2596">
        <ele>149</ele>
        <time>2018-04-11T14:43:22Z</time>
      </trkpt>
      <trkpt lat="49.35551" lon="1.25908">
        <ele>150</ele>
        <time>2018-04-11T14:44:22Z</time>
      </trkpt>
      <trkpt lat="49.3583" lon="1.25556">
        <ele>154</ele>
        <time>2018-04-11T14:45:22Z</time>
      </trkpt>
      <trkpt lat="49.35915" lon="1.25444">
        <ele>157</ele>
        <time>2018-04-11T14:46:22Z</time>
      </trkpt>
      <trkpt lat="49.35975" lon="1.25379">
        <ele>157</ele>
        <time>2018-04-11T14:47:22Z</time>
      </trkpt>
      <trkpt lat="49.36157" lon="1.25191">
        <ele>155</ele>
        <time>2018-04-11T14:48:22Z</time>
      </trkpt>
      <trkpt lat="49.36205" lon="1.25137">
        <ele>153</ele>
        <time>2018-04-11T14:49:22Z</time>
      </trkpt>
      <trkpt lat="49.36247" lon="1.25097">
        <ele>152</ele>
        <time>2018-04-11T14:50:22Z</time>
      </trkpt>
      <trkpt lat="49.36429" lon="1.24973">
        <ele>152</ele>
        <time>2018-04-11T14:51:22Z</time>
      </trkpt>
      <trkpt lat="49.36457" lon="1.25004">
        <ele>150</ele>
        <time>2018-04-11T14:52:22Z</time>
      </trkpt>
      <trkpt lat="49.36459" lon="1.25004">
        <ele>150</ele>
        <time>2018-04-11T14:53:22Z</time>
      </trkpt>
      <trkpt lat="49.36489" lon="1.24932">
        <ele>153</ele>
        <time>2018-04-11T14:54:22Z</time>
      </trkpt>
      <trkpt lat="49.36516" lon="1.24888">
        <ele>153</ele>
        <time>2018-04-11T14:55:22Z</time>
      </trkpt>
      <trkpt lat="49.36849" lon="1.24232">
        <ele>154</ele>
        <time>2018-04-11T14:56:22Z</time>
      </trkpt>
      <trkpt lat="49.37074" lon="1.23775">
        <ele>159</ele>
        <time>2018-04-11T14:57:22Z</time>
      </trkpt>
      <trkpt lat="49.37539" lon="1.22851">
        <ele>159</ele>
        <time>2018-04-11T14:58:22Z</time>
      </trkpt>
      <trkpt lat="49.37574" lon="1.22786">
        <ele>159</ele>
        <time>2018-04-11T14:59:22Z</time>
      </trkpt>
      <trkpt lat="49.37635" lon="1.22661">
        <ele>158</ele>
        <time>2018-04-11T15:00:22Z</time>
      </trkpt>
      <trkpt lat="49.37755" lon="1.22427">
        <ele>152</ele>
        <time>2018-04-11T15:01:22Z</time>
      </trkpt>
      <trkpt lat="49.3836" lon="1.21221">
        <ele>150</ele>
        <time>2018-04-11T15:02:22Z</time>
      </trkpt>
      <trkpt lat="49.38392" lon="1.21151">
        <ele>151</ele>
        <time>2018-04-11T15:03:22Z</time>
      </trkpt>
      <trkpt lat="49.38532" lon="1.20869">
        <ele>157</ele>
        <time>2018-04-11T15:04:22Z</time>
      </trkpt>
      <trkpt lat="49.38596" lon="1.20748">
        <ele>158</ele>
        <time>2018-04-11T15:05:22Z</time>
      </trkpt>
      <trkpt lat="49.38631" lon="1.20673">
        <ele>156</ele>
        <time>2018-04-11T15:06:22Z</time>
      </trkpt>
      <trkpt lat="49.38713" lon="1.20509">
        <ele>155</ele>
        <time>2018-04-11T15:07:22Z</time>
      </trkpt>
      <trkpt lat="49.38713" lon="1.20509">
        <ele>155</ele>
        <time>2018-04-11T15:08:22Z</time>
      </trkpt>
      <trkpt lat="49.38848" lon="1.20235">
        <ele>154</ele>
        <time>2018-04-11T15:09:22Z</time>
      </trkpt>
      <trkpt lat="49.3886" lon="1.20216">
        <ele>154</ele>
        <time>2018-04-11T15:10:22Z</time>
      </trkpt>
      <trkpt lat="49.3887" lon="1.20208">
        <ele>154</ele>
        <time>2018-04-11T15:11:22Z</time>
      </trkpt>
      <trkpt lat="49.38879" lon="1.20171">
        <ele>154</ele>
        <time>2018-04-11T15:12:22Z</time>
      </trkpt>
      <trkpt lat="49.38959" lon="1.19955">
        <ele>153</ele>
        <time>2018-04-11T15:13:22Z</time>
      </trkpt>
      <trkpt lat="49.39297" lon="1.19065">
        <ele>154</ele>
        <time>2018-04-11T15:14:22Z</time>
      </trkpt>
      <trkpt lat="49.39651" lon="1.18121">
        <ele>149</ele>
        <time>2018-04-11T15:15:22Z</time>
      </trkpt>
      <trkpt lat="49.3969" lon="1.18023">
        <ele>151</ele>
        <time>2018-04-11T15:16:22Z</time>
      </trkpt>
      <trkpt lat="49.39746" lon="1.17873">
        <ele>150</ele>
        <time>2018-04-11T15:17:22Z</time>
      </trkpt>
      <trkpt lat="49.39789" lon="1.17752">
        <ele>148</ele>
        <time>2018-04-11T15:18:22Z</time>
      </trkpt>
      <trkpt lat="49.39889" lon="1.17451">
        <ele>146</ele>
        <time>2018-04-11T15:19:22Z</time>
      </trkpt>
      <trkpt lat="49.39895" lon="1.17453">
        <ele>146</ele>
        <time>2018-04-11T15:20:22Z</time>
      </trkpt>
      <trkpt lat="49.39901" lon="1.1745">
        <ele>146</ele>
        <time>2018-04-11T15:21:22Z</time>
      </trkpt>
      <trkpt lat="49.39905" lon="1.17443">
        <ele>146</ele>
        <time>2018-04-11T15:22:22Z</time>
      </trkpt>
      <trkpt lat="49.39905" lon="1.17429">
        <ele>146</ele>
        <time>2018-04-11T15:23:22Z</time>
      </trkpt>
      <trkpt lat="49.399" lon="1.17419">
        <ele>146</ele>
        <time>2018-04-11T15:24:22Z</time>
      </trkpt>
      <trkpt lat="49.3994" lon="1.17297">
        <ele>145</ele>
        <time>2018-04-11T15:25:22Z</time>
      </trkpt>
      <trkpt lat="49.39961" lon="1.17219">
        <ele>145</ele>
        <time>2018-04-11T15:26:22Z</time>
      </trkpt>
      <trkpt lat="49.40039" lon="1.16903">
        <ele>149</ele>
        <time>2018-04-11T15:27:22Z</time>
      </trkpt>
      <trkpt lat="49.40209" lon="1.16184">
        <ele>158</ele>
        <time>2018-04-11T15:28:22Z</time>
      </trkpt>
      <trkpt lat="49.40233" lon="1.16116">
        <ele>159</ele>
        <time>2018-04-11T15:29:22Z</time>
      </trkpt>
      <trkpt lat="49.40246" lon="1.16094">
        <ele>159</ele>
        <time>2018-04-11T15:30:22Z</time>
      </trkpt>
      <trkpt lat="49.40252" lon="1.16093">
        <ele>159</ele>
        <time>2018-04-11T15:31:22Z</time>
      </trkpt>
      <trkpt lat="49.40258" lon="1.1609">
        <ele>159</ele>
        <time>2018-04-11T15:32:22Z</time>
      </trkpt>
      <trkpt lat="49.40263" lon="1.16083">
        <ele>159</ele>
        <time>2018-04-11T15:33:22Z</time>
      </trkpt>
      <trkpt lat="49.40267" lon="1.16074">
        <ele>159</ele>
        <time>2018-04-11T15:34:22Z</time>
      </trkpt>
      <trkpt lat="49.40268" lon="1.16063">
        <ele>160</ele>
        <time>2018-04-11T15:35:22Z</time>
      </trkpt>
      <trkpt lat="49.40267" lon="1.16053">
        <ele>160</ele>
        <time>2018-04-11T15:36:22Z</time>
      </trkpt>
      <trkpt lat="49.40264" lon="1.16044">
        <ele>160</ele>
        <time>2018-04-11T15:37:22Z</time>
      </trkpt>
      <trkpt lat="49.4026" lon="1.16036">
        <ele>160</ele>
        <time>2018-04-11T15:38:22Z</time>
      </trkpt>
      <trkpt lat="49.40254" lon="1.16031">
        <ele>160</ele>
        <time>2018-04-11T15:39:22Z</time>
      </trkpt>
      <trkpt lat="49.40247" lon="1.16029">
        <ele>160</ele>
        <time>2018-04-11T15:40:22Z</time>
      </trkpt>
      <trkpt lat="49.40268" lon="1.15934">
        <ele>160</ele>
        <time>2018-04-11T15:41:22Z</time>
      </trkpt>
      <trkpt lat="49.40341" lon="1.15626">
        <ele>162</ele>
        <time>2018-04-11T15:42:22Z</time>
      </trkpt>
      <trkpt lat="49.40358" lon="1.15577">
        <ele>163</ele>
        <time>2018-04-11T15:43:22Z</time>
      </trkpt>
      <trkpt lat="49.40437" lon="1.1541">
        <ele>163</ele>
        <time>2018-04-11T15:44:22Z</time>
      </trkpt>
      <trkpt lat="49.40642" lon="1.14991">
        <ele>161</ele>
        <time>2018-04-11T15:45:22Z</time>
      </trkpt>
      <trkpt lat="49.40915" lon="1.14418">
        <ele>159</ele>
        <time>2018-04-11T15:46:22Z</time>
      </trkpt>
      <trkpt lat="49.41032" lon="1.1418">
        <ele>160</ele>
        <time>2018-04-11T15:47:22Z</time>
      </trkpt>
      <trkpt lat="49.41077" lon="1.14108">
        <ele>161</ele>
        <time>2018-04-11T15:48:22Z</time>
      </trkpt>
      <trkpt lat="49.41227" lon="1.13901">
        <ele>159</ele>
        <time>2018-04-11T15:49:22Z</time>
      </trkpt>
      <trkpt lat="49.41238" lon="1.1388">
        <ele>159</ele>
        <time>2018-04-11T15:50:22Z</time>
      </trkpt>
      <trkpt lat="49.41273" lon="1.13832">
        <ele>159</ele>
        <time>2018-04-11T15:51:22Z</time>
      </trkpt>
      <trkpt lat="49.41303" lon="1.138">
        <ele>158</ele>
        <time>2018-04-11T15:52:22Z</time>
      </trkpt>
      <trkpt lat="49.41662" lon="1.13308">
        <ele>151</ele>
        <time>2018-04-11T15:53:22Z</time>
      </trkpt>
      <trkpt lat="49.41662" lon="1.13308">
        <ele>151</ele>
        <time>2018-04-11T15:54:22Z</time>
      </trkpt>
      <trkpt lat="49.41688" lon="1.13273">
        <ele>150</ele>
        <time>2018-04-11T15:55:22Z</time>
      </trkpt>
      <trkpt lat="49.41667" lon="1.13051">
        <ele>145</ele>
        <time>2018-04-11T15:56:22Z</time>
      </trkpt>
      <trkpt lat="49.41659" lon="1.12953">
        <ele>138</ele>
        <time>2018-04-11T15:57:22Z</time>
      </trkpt>
      <trkpt lat="49.41662" lon="1.12909">
        <ele>134</ele>
        <time>2018-04-11T15:58:22Z</time>
      </trkpt>
      <trkpt lat="49.41672" lon="1.12821">
        <ele>131</ele>
        <time>2018-04-11T15:59:22Z</time>
      </trkpt>
      <trkpt lat="49.41681" lon="1.12794">
        <ele>131</ele>
        <time>2018-04-11T16:00:22Z</time>
      </trkpt>
      <trkpt lat="49.41716" lon="1.12707">
        <ele>136</ele>
        <time>2018-04-11T16:01:22Z</time>
      </trkpt>
      <trkpt lat="49.41719" lon="1.12679">
        <ele>136</ele>
        <time>2018-04-11T16:02:22Z</time>
      </trkpt>
      <trkpt lat="49.41718" lon="1.12666">
        <ele>135</ele>
        <time>2018-04-11T16:03:22Z</time>
      </trkpt>
      <trkpt lat="49.41715" lon="1.12654">
        <ele>135</ele>
        <time>2018-04-11T16:04:22Z</time>
      </trkpt>
      <trkpt lat="49.41683" lon="1.12603">
        <ele>130</ele>
        <time>2018-04-11T16:05:22Z</time>
      </trkpt>
      <trkpt lat="49.41674" lon="1.12575">
        <ele>130</ele>
        <time>2018-04-11T16:06:22Z</time>
      </trkpt>
      <trkpt lat="49.41669" lon="1.12535">
        <ele>130</ele>
        <time>2018-04-11T16:07:22Z</time>
      </trkpt>
      <trkpt lat="49.41664" lon="1.12396">
        <ele>126</ele>
        <time>2018-04-11T16:08:22Z</time>
      </trkpt>
      <trkpt lat="49.41664" lon="1.1231">
        <ele>121</ele>
        <time>2018-04-11T16:09:22Z</time>
      </trkpt>
      <trkpt lat="49.41665" lon="1.12293">
        <ele>120</ele>
        <time>2018-04-11T16:10:22Z</time>
      </trkpt>
      <trkpt lat="49.41672" lon="1.12244">
        <ele>117</ele>
        <time>2018-04-11T16:11:22Z</time>
      </trkpt>
      <trkpt lat="49.41676" lon="1.12229">
        <ele>115</ele>
        <time>2018-04-11T16:12:22Z</time>
      </trkpt>
      <trkpt lat="49.41689" lon="1.12198">
        <ele>113</ele>
        <time>2018-04-11T16:13:22Z</time>
      </trkpt>
      <trkpt lat="49.417" lon="1.1218">
        <ele>113</ele>
        <time>2018-04-11T16:14:22Z</time>
      </trkpt>
      <trkpt lat="49.4172" lon="1.12154">
        <ele>113</ele>
        <time>2018-04-11T16:15:22Z</time>
      </trkpt>
      <trkpt lat="49.41757" lon="1.12114">
        <ele>111</ele>
        <time>2018-04-11T16:16:22Z</time>
      </trkpt>
      <trkpt lat="49.41778" lon="1.12096">
        <ele>106</ele>
        <time>2018-04-11T16:17:22Z</time>
      </trkpt>
      <trkpt lat="49.41789" lon="1.12093">
        <ele>106</ele>
        <time>2018-04-11T16:18:22Z</time>
      </trkpt>
      <trkpt lat="49.41808" lon="1.12096">
        <ele>108</ele>
        <time>2018-04-11T16:19:22Z</time>
      </trkpt>
      <trkpt lat="49.41816" lon="1.12101">
        <ele>110</ele>
        <time>2018-04-11T16:20:22Z</time>
      </trkpt>
      <trkpt lat="49.41828" lon="1.12114">
        <ele>114</ele>
        <time>2018-04-11T16:21:22Z</time>
      </trkpt>
      <trkpt lat="49.41851" lon="1.12144">
        <ele>121</ele>
        <time>2018-04-11T16:22:22Z</time>
      </trkpt>
      <trkpt lat="49.41859" lon="1.12151">
        <ele>122</ele>
        <time>2018-04-11T16:23:22Z</time>
      </trkpt>
      <trkpt lat="49.41877" lon="1.12159">
        <ele>122</ele>
        <time>2018-04-11T16:24:22Z</time>
      </trkpt>
      <trkpt lat="49.41887" lon="1.1216">
        <ele>120</ele>
        <time>2018-04-11T16:25:22Z</time>
      </trkpt>
      <trkpt lat="49.4195" lon="1.12147">
        <ele>114</ele>
        <time>2018-04-11T16:26:22Z</time>
      </trkpt>
      <trkpt lat="49.41963" lon="1.12143">
        <ele>115</ele>
        <time>2018-04-11T16:27:22Z</time>
      </trkpt>
      <trkpt lat="49.4198" lon="1.12133">
        <ele>114</ele>
        <time>2018-04-11T16:28:22Z</time>
      </trkpt>
      <trkpt lat="49.41987" lon="1.12127">
        <ele>113</ele>
        <time>2018-04-11T16:29:22Z</time>
      </trkpt>
      <trkpt lat="49.41997" lon="1.1211">
        <ele>110</ele>
        <time>2018-04-11T16:30:22Z</time>
      </trkpt>
      <trkpt lat="49.42015" lon="1.11966">
        <ele>89</ele>
        <time>2018-04-11T16:31:22Z</time>
      </trkpt>
      <trkpt lat="49.42025" lon="1.11942">
        <ele>88</ele>
        <time>2018-04-11T16:32:22Z</time>
      </trkpt>
      <trkpt lat="49.42038" lon="1.11928">
        <ele>89</ele>
        <time>2018-04-11T16:33:22Z</time>
      </trkpt>
      <trkpt lat="49.42045" lon="1.11924">
        <ele>90</ele>
        <time>2018-04-11T16:34:22Z</time>
      </trkpt>
      <trkpt lat="49.4206" lon="1.1192">
        <ele>93</ele>
        <time>2018-04-11T16:35:22Z</time>
      </trkpt>
      <trkpt lat="49.42074" lon="1.11921">
        <ele>96</ele>
        <time>2018-04-11T16:36:22Z</time>
      </trkpt>
      <trkpt lat="49.42082" lon="1.11925">
        <ele>98</ele>
        <time>2018-04-11T16:37:22Z</time>
      </trkpt>
      <trkpt lat="49.42103" lon="1.11946">
        <ele>100</ele>
        <time>2018-04-11T16:38:22Z</time>
      </trkpt>
      <trkpt lat="49.42138" lon="1.11974">
        <ele>104</ele>
        <time>2018-04-11T16:39:22Z</time>
      </trkpt>
      <trkpt lat="49.42152" lon="1.11979">
        <ele>104</ele>
        <time>2018-04-11T16:40:22Z</time>
      </trkpt>
      <trkpt lat="49.42158" lon="1.11978">
        <ele>103</ele>
        <time>2018-04-11T16:41:22Z</time>
      </trkpt>
      <trkpt lat="49.42172" lon="1.1197">
        <ele>101</ele>
        <time>2018-04-11T16:42:22Z</time>
      </trkpt>
      <trkpt lat="49.42216" lon="1.11929">
        <ele>96</ele>
        <time>2018-04-11T16:43:22Z</time>
      </trkpt>
      <trkpt lat="49.42216" lon="1.11929">
        <ele>96</ele>
        <time>2018-04-11T16:44:22Z</time>
      </trkpt>
      <trkpt lat="49.42255" lon="1.1189">
        <ele>96</ele>
        <time>2018-04-11T16:45:22Z</time>
      </trkpt>
      <trkpt lat="49.42269" lon="1.11872">
        <ele>96</ele>
        <time>2018-04-11T16:46:22Z</time>
      </trkpt>
      <trkpt lat="49.42279" lon="1.11853">
        <ele>96</ele>
        <time>2018-04-11T16:47:22Z</time>
      </trkpt>
      <trkpt lat="49.42298" lon="1.11791">
        <ele>88</ele>
        <time>2018-04-11T16:48:22Z</time>
      </trkpt>
      <trkpt lat="49.42311" lon="1.11765">
        <ele>86</ele>
        <time>2018-04-11T16:49:22Z</time>
      </trkpt>
      <trkpt lat="49.42344" lon="1.1173">
        <ele>87</ele>
        <time>2018-04-11T16:50:22Z</time>
      </trkpt>
      <trkpt lat="49.42481" lon="1.11599">
        <ele>82</ele>
        <time>2018-04-11T16:51:22Z</time>
      </trkpt>
      <trkpt lat="49.42547" lon="1.11548">
        <ele>79</ele>
        <time>2018-04-11T16:52:22Z</time>
      </trkpt>
      <trkpt lat="49.42628" lon="1.11502">
        <ele>68</ele>
        <time>2018-04-11T16:53:22Z</time>
      </trkpt>
      <trkpt lat="49.42637" lon="1.115">
        <ele>68</ele>
        <time>2018-04-11T16:54:22Z</time>
      </trkpt>
      <trkpt lat="49.42654" lon="1.11502">
        <ele>69</ele>
        <time>2018-04-11T16:55:22Z</time>
      </trkpt>
      <trkpt lat="49.42666" lon="1.11511">
        <ele>71</ele>
        <time>2018-04-11T16:56:22Z</time>
      </trkpt>
      <trkpt lat="49.42676" lon="1.11525">
        <ele>70</ele>
        <time>2018-04-11T16:57:22Z</time>
      </trkpt>
      <trkpt lat="49.42681" lon="1.11541">
        <ele>71</ele>
        <time>2018-04-11T16:58:22Z</time>
      </trkpt>
      <trkpt lat="49.42704" lon="1.11657">
        <ele>76</ele>
        <time>2018-04-11T16:59:22Z</time>
      </trkpt>
      <trkpt lat="49.42709" lon="1.11671">
        <ele>76</ele>
        <time>2018-04-11T17:00:22Z</time>
      </trkpt>
      <trkpt lat="49.42716" lon="1.11682">
        <ele>74</ele>
        <time>2018-04-11T17:01:22Z</time>
      </trkpt>
      <trkpt lat="49.42728" lon="1.11694">
        <ele>72</ele>
        <time>2018-04-11T17:02:22Z</time>
      </trkpt>
      <trkpt lat="49.42741" lon="1.11699">
        <ele>69</ele>
        <time>2018-04-11T17:03:22Z</time>
      </trkpt>
      <trkpt lat="49.42753" lon="1.117">
        <ele>67</ele>
        <time>2018-04-11T17:04:22Z</time>
      </trkpt>
      <trkpt lat="49.42763" lon="1.11697">
        <ele>68</ele>
        <time>2018-04-11T17:05:22Z</time>
      </trkpt>
      <trkpt lat="49.42822" lon="1.11656">
        <ele>71</ele>
        <time>2018-04-11T17:06:22Z</time>
      </trkpt>
      <trkpt lat="49.42832" lon="1.11553">
        <ele>63</ele>
        <time>2018-04-11T17:07:22Z</time>
      </trkpt>
      <trkpt lat="49.42846" lon="1.11488">
        <ele>61</ele>
        <time>2018-04-11T17:08:22Z</time>
      </trkpt>
      <trkpt lat="49.4286" lon="1.11443">
        <ele>58</ele>
        <time>2018-04-11T17:09:22Z</time>
      </trkpt>
      <trkpt lat="49.42885" lon="1.11378">
        <ele>54</ele>
        <time>2018-04-11T17:10:22Z</time>
      </trkpt>
      <trkpt lat="49.42925" lon="1.11304">
        <ele>53</ele>
        <time>2018-04-11T17:11:22Z</time>
      </trkpt>
      <trkpt lat="49.43018" lon="1.11166">
        <ele>46</ele>
        <time>2018-04-11T17:12:22Z</time>
      </trkpt>
      <trkpt lat="49.4306" lon="1.111">
        <ele>42</ele>
        <time>2018-04-11T17:13:22Z</time>
      </trkpt>
      <trkpt lat="49.43223" lon="1.10893">
        <ele>38</ele>
        <time>2018-04-11T17:14:22Z</time>
      </trkpt>
      <trkpt lat="49.43306" lon="1.10782">
        <ele>34</ele>
        <time>2018-04-11T17:15:22Z</time>
      </trkpt>
      <trkpt lat="49.43314" lon="1.1077">
        <ele>33</ele>
        <time>2018-04-11T17:16:22Z</time>
      </trkpt>
      <trkpt lat="49.4333" lon="1.10757">
        <ele>32</ele>
        <time>2018-04-11T17:17:22Z</time>
      </trkpt>
      <trkpt lat="49.4333" lon="1.10757">
        <ele>32</ele>
        <time>2018-04-11T17:18:22Z</time>
      </trkpt>
      <trkpt lat="49.43361" lon="1.10719">
        <ele>30</ele>
        <time>2018-04-11T17:19:22Z</time>
      </trkpt>
      <trkpt lat="49.43417" lon="1.10668">
        <ele>29</ele>
        <time>2018-04-11T17:20:22Z</time>
      </trkpt>
      <trkpt lat="49.43432" lon="1.10654">
        <ele>26</ele>
        <time>2018-04-11T17:21:22Z</time>
      </trkpt>
      <trkpt lat="49.43457" lon="1.1064">
        <ele>23</ele>
        <time>2018-04-11T17:22:22Z</time>
      </trkpt>
      <trkpt lat="49.43484" lon="1.10605">
        <ele>18</ele>
        <time>2018-04-11T17:23:22Z</time>
      </trkpt>
      <trkpt lat="49.43505" lon="1.10568">
        <ele>15</ele>
        <time>2018-04-11T17:24:22Z</time>
      </trkpt>
      <trkpt lat="49.43511" lon="1.10543">
        <ele>14</ele>
        <time>2018-04-11T17:25:22Z</time>
      </trkpt>
      <trkpt lat="49.43522" lon="1.10471">
        <ele>12</ele>
        <time>2018-04-11T17:26:22Z</time>
      </trkpt>
      <trkpt lat="49.43538" lon="1.10388">
        <ele>10</ele>
        <time>2018-04-11T17:27:22Z</time>
      </trkpt>
      <trkpt lat="49.43602" lon="1.10166">
        <ele>8</ele>
        <time>2018-04-11T17:28:22Z</time>
      </trkpt>
      <trkpt lat="49.43612" lon="1.10131">
        <ele>8</ele>
        <time>2018-04-11T17:29:22Z</time>
      </trkpt>
      <trkpt lat="49.43621" lon="1.10109">
        <ele>8</ele>
        <time>2018-04-11T17:30:22Z</time>
      </trkpt>
      <trkpt lat="49.4363" lon="1.10116">
        <ele>9</ele>
        <time>2018-04-11T17:31:22Z</time>
      </trkpt>
      <trkpt lat="49.43634" lon="1.10102">
        <ele>9</ele>
        <time>2018-04-11T17:32:22Z</time>
      </trkpt>
      <trkpt lat="49.43645" lon="1.10079">
        <ele>10</ele>
        <time>2018-04-11T17:33:22Z</time>
      </trkpt>
      <trkpt lat="49.43724" lon="1.09693">
        <ele>13</ele>
        <time>2018-04-11T17:34:22Z</time>
      </trkpt>
      <trkpt lat="49.43725" lon="1.09669">
        <ele>13</ele>
        <time>2018-04-11T17:35:22Z</time>
      </trkpt>
      <trkpt lat="49.43739" lon="1.09613">
        <ele>12</ele>
        <time>2018-04-11T17:36:22Z</time>
      </trkpt>
      <trkpt lat="49.43586" lon="1.09545">
        <ele>1</ele>
        <time>2018-04-11T17:37:22Z</time>
      </trkpt>
      <trkpt lat="49.43582" lon="1.09556">
        <ele>3</ele>
        <time>2018-04-11T17:38:22Z</time>
      </trkpt>
      <trkpt lat="49.43588" lon="1.09561">
        <ele>1</ele>
        <time>2018-04-11T17:39:22Z</time>
      </trkpt>
      <trkpt lat="49.43682" lon="1.09603">
        <ele>12</ele>
        <time>2018-04-11T17:40:22Z</time>
      </trkpt>
      <trkpt lat="49.43682" lon="1.09603">
        <ele>12</ele>
        <time>2018-04-11T17:41:22Z</time>
      </trkpt>
      <trkpt lat="49.43713" lon="1.09616">
        <ele>12</ele>
        <time>2018-04-11T17:42:22Z</time>
      </trkpt>
      <trkpt lat="49.43729" lon="1.09627">
        <ele>12</ele>
        <time>2018-04-11T17:43:22Z</time>
      </trkpt>
      <trkpt lat="49.43732" lon="1.09611">
        <ele>12</ele>
        <time>2018-04-11T17:44:22Z</time>
      </trkpt>
      <trkpt lat="49.43586" lon="1.09545">
        <ele>1</ele>
        <time>2018-04-11T17:45:22Z</time>
      </trkpt>
      <trkpt lat="49.435" lon="1.09386">
        <ele>2</ele>
        <time>2018-04-11T17:46:22Z</time>
      </trkpt>
      <trkpt lat="49.43506" lon="1.09377">
        <ele>3</ele>
        <time>2018-04-11T17:47:22Z</time>
      </trkpt>
      <trkpt lat="49.43508" lon="1.09363">
        <ele>3</ele>
        <time>2018-04-11T17:48:22Z</time>
      </trkpt>
      <trkpt lat="49.43485" lon="1.09321">
        <ele>6</ele>
        <time>2018-04-11T17:49:22Z</time>
      </trkpt>
      <trkpt lat="49.43478" lon="1.09316">
        <ele>7</ele>
        <time>2018-04-11T17:50:22Z</time>
      </trkpt>
      <trkpt lat="49.43469" lon="1.09323">
        <ele>7</ele>
        <time>2018-04-11T17:51:22Z</time>
      </trkpt>
      <trkpt lat="49.43405" lon="1.09201">
        <ele>10</ele>
        <time>2018-04-11T17:52:22Z</time>
      </trkpt>
      <trkpt lat="49.43359" lon="1.09123">
        <ele>10</ele>
        <time>2018-04-11T17:53:22Z</time>
      </trkpt>
      <trkpt lat="49.43338" lon="1.09098">
        <ele>11</ele>
        <time>2018-04-11T17:54:22Z</time>
      </trkpt>
      <trkpt lat="49.43197" lon="1.08835">
        <ele>9</ele>
        <time>2018-04-11T17:55:22Z</time>
      </trkpt>
      <trkpt lat="49.4319" lon="1.08829">
        <ele>9</ele>
        <time>2018-04-11T17:56:22Z</time>
      </trkpt>
      <trkpt lat="49.43089" lon="1.08642">
        <ele>10</ele>
        <time>2018-04-11T17:57:22Z</time>
      </trkpt>
      <trkpt lat="49.42961" lon="1.0854">
        <ele>10</ele>
        <time>2018-04-11T17:58:22Z</time>
      </trkpt>
      <trkpt lat="49.42883" lon="1.08482">
        <ele>11</ele>
        <time>2018-04-11T17:59:22Z</time>
      </trkpt>
      <trkpt lat="49.42825" lon="1.08435">
        <ele>11</ele>
        <time>2018-04-11T18:00:22Z</time>
      </trkpt>
      <trkpt lat="49.42847" lon="1.08385">
        <ele>12</ele>
        <time>2018-04-11T18:01:22Z</time>
      </trkpt>
      <trkpt lat="49.42858" lon="1.08356">
        <ele>12</ele>
        <time>2018-04-11T18:02:22Z</time>
      </trkpt>
      <trkpt lat="49.42869" lon="1.08317">
        <ele>12</ele>
        <time>2018-04-11T18:03:22Z</time>
      </trkpt>
      <trkpt lat="49.4287" lon="1.08297">
        <ele>12</ele>
        <time>2018-04-11T18:04:22Z</time>
      </trkpt>
      <trkpt lat="49.42831" lon="1.08148">
        <ele>11</ele>
        <time>2018-04-11T18:05:22Z</time>
      </trkpt>
      <trkpt lat="49.42818" lon="1.08106">
        <ele>12</ele>
        <time>2018-04-11T18:06:22Z</time>
      </trkpt>
      <trkpt lat="49.42702" lon="1.07742">
        <ele>11</ele>
        <time>2018-04-11T18:07:22Z</time>
      </trkpt>
      <trkpt lat="49.42706" lon="1.07734">
        <ele>11</ele>
        <time>2018-04-11T18:08:22Z</time>
      </trkpt>
      <trkpt lat="49.42707" lon="1.07721">
        <ele>11</ele>
        <time>2018-04-11T18:09:22Z</time>
      </trkpt>
      <trkpt lat="49.42706" lon="1.07715">
        <ele>11</ele>
        <time>2018-04-11T18:10:22Z</time>
      </trkpt>
      <trkpt lat="49.42702" lon="1.07704">
        <ele>11</ele>
        <time>2018-04-11T18:11:22Z</time>
      </trkpt>
      <trkpt lat="49.42696" lon="1.07697">
        <ele>11</ele>
        <time>2018-04-11T18:12:22Z</time>
      </trkpt>
      <trkpt lat="49.42688" lon="1.07696">
        <ele>11</ele>
        <time>2018-04-11T18:13:22Z</time>
      </trkpt>
      <trkpt lat="49.42683" lon="1.07699">
        <ele>11</ele>
        <time>2018-04-11T18:14:22Z</time>
      </trkpt>
      <trkpt lat="49.42676" lon="1.07708">
        <ele>11</ele>
        <time>2018-04-11T18:15:22Z</time>
      </trkpt>
      <trkpt lat="49.42531" lon="1.07621">
        <ele>10</ele>
        <time>2018-04-11T18:16:22Z</time>
      </trkpt>
    </trkseg>
  </trk>
</gpx>